<?xml version="1.0" encoding="UTF-8" standalone="no" ?><gpx xmlns="http://www.topografix.com/GPX/1/1" xmlns:gpxx="http://www.garmin.com/xmlschemas/GpxExtensions/v3" xmlns:wptx1="http://www.garmin.com/xmlschemas/WaypointExtension/v1" xmlns:gpxtpx="http://www.garmin.com/xmlschemas/TrackPointExtension/v1" creator="GuideVTT.com" version="1.1" xmlns:xsi="http://www.w3.org/2001/XMLSchema-instance" xsi:schemaLocation="http://www.topografix.com/GPX/1/1 http://www.topografix.com/GPX/1/1/gpx.xsd http://www.garmin.com/xmlschemas/GpxExtensions/v3 http://www8.garmin.com/xmlschemas/GpxExtensionsv3.xsd http://www.garmin.com/xmlschemas/WaypointExtension/v1 http://www8.garmin.com/xmlschemas/WaypointExtensionv1.xsd http://www.garmin.com/xmlschemas/TrackPointExtension/v1 http://www.garmin.com/xmlschemas/TrackPointExtensionv1.xsd">
<metadata><link href="http://www.garmin.com"><text>Garmin International</text></link><time>2013-06-22T15:13:50Z</time></metadata>
<trk><name>rp_vtt_2012_12.gpx</name><extensions><gpxx:TrackExtension><gpxx:DisplayColor>Cyan</gpxx:DisplayColor></gpxx:TrackExtension></extensions><trkseg>
<trkpt lat="46.7893603072" lon="6.5247711539"><ele></ele><time>2014-4-28T15:26:2Z</time></trkpt>
<trkpt lat="46.7894598842" lon="6.5248284861"><ele></ele><time>2014-4-28T15:26:5Z</time></trkpt>
<trkpt lat="46.7894766480" lon="6.5248387959"><ele></ele><time>2014-4-28T15:26:8Z</time></trkpt>
<trkpt lat="46.7894628178" lon="6.5248994809"><ele></ele><time>2014-4-28T15:26:11Z</time></trkpt>
<trkpt lat="46.7894516699" lon="6.5248953737"><ele></ele><time>2014-4-28T15:26:14Z</time></trkpt>
<trkpt lat="46.7894657515" lon="6.5249126405"><ele></ele><time>2014-4-28T15:26:17Z</time></trkpt>
<trkpt lat="46.7894577887" lon="6.5249222796"><ele></ele><time>2014-4-28T15:26:20Z</time></trkpt>
<trkpt lat="46.7894577887" lon="6.5249222796"><ele></ele><time>2014-4-28T15:26:23Z</time></trkpt>
<trkpt lat="46.7894561123" lon="6.5249218605"><ele></ele><time>2014-4-28T15:26:26Z</time></trkpt>
<trkpt lat="46.7894502450" lon="6.5249196813"><ele></ele><time>2014-4-28T15:26:29Z</time></trkpt>
<trkpt lat="46.7894502450" lon="6.5249196813"><ele></ele><time>2014-4-28T15:26:32Z</time></trkpt>
<trkpt lat="46.7894445453" lon="6.5249133110"><ele></ele><time>2014-4-28T15:26:35Z</time></trkpt>
<trkpt lat="46.7894445453" lon="6.5249133110"><ele></ele><time>2014-4-28T15:26:38Z</time></trkpt>
<trkpt lat="46.7894452997" lon="6.5249097068"><ele></ele><time>2014-4-28T15:26:41Z</time></trkpt>
<trkpt lat="46.7894380074" lon="6.5249069408"><ele></ele><time>2014-4-28T15:26:44Z</time></trkpt>
<trkpt lat="46.7894380074" lon="6.5249069408"><ele></ele><time>2014-4-28T15:26:47Z</time></trkpt>
<trkpt lat="46.7894401867" lon="6.5249058511"><ele></ele><time>2014-4-28T15:26:50Z</time></trkpt>
<trkpt lat="46.7894373368" lon="6.5249030851"><ele></ele><time>2014-4-28T15:26:53Z</time></trkpt>
<trkpt lat="46.7894373368" lon="6.5249030851"><ele></ele><time>2014-4-28T15:26:56Z</time></trkpt>
<trkpt lat="46.7894259375" lon="6.5249128081"><ele></ele><time>2014-4-28T15:26:59Z</time></trkpt>
<trkpt lat="46.7894228362" lon="6.5249159932"><ele></ele><time>2014-4-28T15:27:2Z</time></trkpt>
<trkpt lat="46.7894216627" lon="6.5249173343"><ele></ele><time>2014-4-28T15:27:5Z</time></trkpt>
<trkpt lat="46.7894216627" lon="6.5249173343"><ele></ele><time>2014-4-28T15:27:8Z</time></trkpt>
<trkpt lat="46.7894119397" lon="6.5249056835"><ele></ele><time>2014-4-28T15:27:11Z</time></trkpt>
<trkpt lat="46.7894119397" lon="6.5249056835"><ele></ele><time>2014-4-28T15:27:14Z</time></trkpt>
<trkpt lat="46.7894074973" lon="6.5249005705"><ele></ele><time>2014-4-28T15:27:17Z</time></trkpt>
<trkpt lat="46.7894074973" lon="6.5249005705"><ele></ele><time>2014-4-28T15:27:20Z</time></trkpt>
<trkpt lat="46.7893987801" lon="6.5248868242"><ele></ele><time>2014-4-28T15:27:23Z</time></trkpt>
<trkpt lat="46.7893984448" lon="6.5248848125"><ele></ele><time>2014-4-28T15:27:26Z</time></trkpt>
<trkpt lat="46.7893971875" lon="6.5248852316"><ele></ele><time>2014-4-28T15:27:29Z</time></trkpt>
<trkpt lat="46.7893971875" lon="6.5248852316"><ele></ele><time>2014-4-28T15:27:32Z</time></trkpt>
<trkpt lat="46.7893955950" lon="6.5248822141"><ele></ele><time>2014-4-28T15:27:35Z</time></trkpt>
<trkpt lat="46.7893943377" lon="6.5248815436"><ele></ele><time>2014-4-28T15:27:38Z</time></trkpt>
<trkpt lat="46.7893933319" lon="6.5248828009"><ele></ele><time>2014-4-28T15:27:41Z</time></trkpt>
<trkpt lat="46.7893924937" lon="6.5248803701"><ele></ele><time>2014-4-28T15:27:44Z</time></trkpt>
<trkpt lat="46.7893924937" lon="6.5248841420"><ele></ele><time>2014-4-28T15:27:47Z</time></trkpt>
<trkpt lat="46.7893906496" lon="6.5248850640"><ele></ele><time>2014-4-28T15:27:50Z</time></trkpt>
<trkpt lat="46.7893906496" lon="6.5248850640"><ele></ele><time>2014-4-28T15:27:53Z</time></trkpt>
<trkpt lat="46.7893918231" lon="6.5248850640"><ele></ele><time>2014-4-28T15:27:56Z</time></trkpt>
<trkpt lat="46.7893884704" lon="6.5248833038"><ele></ele><time>2014-4-28T15:27:59Z</time></trkpt>
<trkpt lat="46.7893867940" lon="6.5248839743"><ele></ele><time>2014-4-28T15:28:2Z</time></trkpt>
<trkpt lat="46.7893854529" lon="6.5248831362"><ele></ele><time>2014-4-28T15:28:5Z</time></trkpt>
<trkpt lat="46.7893864587" lon="6.5248885844"><ele></ele><time>2014-4-28T15:28:8Z</time></trkpt>
<trkpt lat="46.7893864587" lon="6.5248885844"><ele></ele><time>2014-4-28T15:28:11Z</time></trkpt>
<trkpt lat="46.7893877160" lon="6.5248839743"><ele></ele><time>2014-4-28T15:28:14Z</time></trkpt>
<trkpt lat="46.7893881351" lon="6.5248699766"><ele></ele><time>2014-4-28T15:28:17Z</time></trkpt>
<trkpt lat="46.7893831059" lon="6.5248634387"><ele></ele><time>2014-4-28T15:28:20Z</time></trkpt>
<trkpt lat="46.7894349899" lon="6.5249217767"><ele></ele><time>2014-4-28T15:28:23Z</time></trkpt>
<trkpt lat="46.7894371692" lon="6.5249279793"><ele></ele><time>2014-4-28T15:28:26Z</time></trkpt>
<trkpt lat="46.7894371692" lon="6.5249279793"><ele></ele><time>2014-4-28T15:28:29Z</time></trkpt>
<trkpt lat="46.7894358281" lon="6.5249252971"><ele></ele><time>2014-4-28T15:28:32Z</time></trkpt>
<trkpt lat="46.7894358281" lon="6.5249252971"><ele></ele><time>2014-4-28T15:28:35Z</time></trkpt>
<trkpt lat="46.7894358281" lon="6.5249252971"><ele></ele><time>2014-4-28T15:28:38Z</time></trkpt>
<trkpt lat="46.7894346546" lon="6.5249254648"><ele></ele><time>2014-4-28T15:28:41Z</time></trkpt>
<trkpt lat="46.7894346546" lon="6.5249254648"><ele></ele><time>2014-4-28T15:28:44Z</time></trkpt>
<trkpt lat="46.7894290388" lon="6.5249221958"><ele></ele><time>2014-4-28T15:28:47Z</time></trkpt>
<trkpt lat="46.7894290388" lon="6.5249221958"><ele></ele><time>2014-4-28T15:28:50Z</time></trkpt>
<trkpt lat="46.7894286197" lon="6.5249306615"><ele></ele><time>2014-4-28T15:28:53Z</time></trkpt>
<trkpt lat="46.7894269433" lon="6.5249289852"><ele></ele><time>2014-4-28T15:28:56Z</time></trkpt>
<trkpt lat="46.7894269433" lon="6.5249289852"><ele></ele><time>2014-4-28T15:28:59Z</time></trkpt>
<trkpt lat="46.7894304637" lon="6.5249353554"><ele></ele><time>2014-4-28T15:29:2Z</time></trkpt>
<trkpt lat="46.7894304637" lon="6.5249353554"><ele></ele><time>2014-4-28T15:29:5Z</time></trkpt>
<trkpt lat="46.7894431204" lon="6.5249347687"><ele></ele><time>2014-4-28T15:29:8Z</time></trkpt>
<trkpt lat="46.7894431204" lon="6.5249418933"><ele></ele><time>2014-4-28T15:29:11Z</time></trkpt>
<trkpt lat="46.7894431204" lon="6.5249418933"><ele></ele><time>2014-4-28T15:29:14Z</time></trkpt>
<trkpt lat="46.7894527595" lon="6.5249491856"><ele></ele><time>2014-4-28T15:29:17Z</time></trkpt>
<trkpt lat="46.7894535977" lon="6.5249487665"><ele></ele><time>2014-4-28T15:29:20Z</time></trkpt>
<trkpt lat="46.7894555256" lon="6.5249469224"><ele></ele><time>2014-4-28T15:29:23Z</time></trkpt>
<trkpt lat="46.7894555256" lon="6.5249469224"><ele></ele><time>2014-4-28T15:29:26Z</time></trkpt>
<trkpt lat="46.7896512430" lon="6.5251229424"><ele></ele><time>2014-4-28T15:29:29Z</time></trkpt>
<trkpt lat="46.7899005208" lon="6.5252274647"><ele></ele><time>2014-4-28T15:29:32Z</time></trkpt>
<trkpt lat="46.7902062926" lon="6.5252312366"><ele></ele><time>2014-4-28T15:29:35Z</time></trkpt>
<trkpt lat="46.7906092107" lon="6.5252357628"><ele></ele><time>2014-4-28T15:29:38Z</time></trkpt>
<trkpt lat="46.7909568083" lon="6.5252108686"><ele></ele><time>2014-4-28T15:29:41Z</time></trkpt>
<trkpt lat="46.7912794277" lon="6.5253550373"><ele></ele><time>2014-4-28T15:29:44Z</time></trkpt>
<trkpt lat="46.7915300466" lon="6.5256487392"><ele></ele><time>2014-4-28T15:29:47Z</time></trkpt>
<trkpt lat="46.7915080022" lon="6.5259969234"><ele></ele><time>2014-4-28T15:29:50Z</time></trkpt>
<trkpt lat="46.7914867122" lon="6.5260784794"><ele></ele><time>2014-4-28T15:29:53Z</time></trkpt>
<trkpt lat="46.7915237602" lon="6.5266755223"><ele></ele><time>2014-4-28T15:29:56Z</time></trkpt>
<trkpt lat="46.7917084135" lon="6.5274129622"><ele></ele><time>2014-4-28T15:29:59Z</time></trkpt>
<trkpt lat="46.7918580305" lon="6.5277945902"><ele></ele><time>2014-4-28T15:30:2Z</time></trkpt>
<trkpt lat="46.7920296919" lon="6.5280504897"><ele></ele><time>2014-4-28T15:30:5Z</time></trkpt>
<trkpt lat="46.7924830690" lon="6.5286200400"><ele></ele><time>2014-4-28T15:30:8Z</time></trkpt>
<trkpt lat="46.7929416429" lon="6.5293345973"><ele></ele><time>2014-4-28T15:30:11Z</time></trkpt>
<trkpt lat="46.7931036651" lon="6.5297586378"><ele></ele><time>2014-4-28T15:30:14Z</time></trkpt>
<trkpt lat="46.7932241131" lon="6.5303770546"><ele></ele><time>2014-4-28T15:30:17Z</time></trkpt>
<trkpt lat="46.7934575491" lon="6.5309564956"><ele></ele><time>2014-4-28T15:30:20Z</time></trkpt>
<trkpt lat="46.7937642429" lon="6.5313724056"><ele></ele><time>2014-4-28T15:30:23Z</time></trkpt>
<trkpt lat="46.7940702662" lon="6.5315034147"><ele></ele><time>2014-4-28T15:30:26Z</time></trkpt>
<trkpt lat="46.7945098970" lon="6.5316376928"><ele></ele><time>2014-4-28T15:30:29Z</time></trkpt>
<trkpt lat="46.7947579175" lon="6.5317879803"><ele></ele><time>2014-4-28T15:30:32Z</time></trkpt>
<trkpt lat="46.7952578980" lon="6.5324364044"><ele></ele><time>2014-4-28T15:30:35Z</time></trkpt>
<trkpt lat="46.7958971020" lon="6.5333434101"><ele></ele><time>2014-4-28T15:30:38Z</time></trkpt>
<trkpt lat="46.7963023670" lon="6.5339070093"><ele></ele><time>2014-4-28T15:30:41Z</time></trkpt>
<trkpt lat="46.7963482998" lon="6.5339785907"><ele></ele><time>2014-4-28T15:30:44Z</time></trkpt>
<trkpt lat="46.7969048582" lon="6.5347689204"><ele></ele><time>2014-4-28T15:30:47Z</time></trkpt>
<trkpt lat="46.7972889170" lon="6.5353864152"><ele></ele><time>2014-4-28T15:30:50Z</time></trkpt>
<trkpt lat="46.7973348498" lon="6.5354547277"><ele></ele><time>2014-4-28T15:30:53Z</time></trkpt>
<trkpt lat="46.7978918273" lon="6.5360838734"><ele></ele><time>2014-4-28T15:30:56Z</time></trkpt>
<trkpt lat="46.7981105950" lon="6.5362633299"><ele></ele><time>2014-4-28T15:30:59Z</time></trkpt>
<trkpt lat="46.7984281853" lon="6.5364044812"><ele></ele><time>2014-4-28T15:31:2Z</time></trkpt>
<trkpt lat="46.7987768725" lon="6.5367594548"><ele></ele><time>2014-4-28T15:31:5Z</time></trkpt>
<trkpt lat="46.7990616895" lon="6.5373561624"><ele></ele><time>2014-4-28T15:31:8Z</time></trkpt>
<trkpt lat="46.7995239515" lon="6.5380185004"><ele></ele><time>2014-4-28T15:31:11Z</time></trkpt>
<trkpt lat="46.7998315673" lon="6.5387092531"><ele></ele><time>2014-4-28T15:31:14Z</time></trkpt>
<trkpt lat="46.8000701163" lon="6.5389460418"><ele></ele><time>2014-4-28T15:31:17Z</time></trkpt>
<trkpt lat="46.8008477893" lon="6.5395755228"><ele></ele><time>2014-4-28T15:31:20Z</time></trkpt>
<trkpt lat="46.8009060435" lon="6.5396329388"><ele></ele><time>2014-4-28T15:31:23Z</time></trkpt>
<trkpt lat="46.8011136632" lon="6.5398667939"><ele></ele><time>2014-4-28T15:31:26Z</time></trkpt>
<trkpt lat="46.8017235305" lon="6.5403863881"><ele></ele><time>2014-4-28T15:31:29Z</time></trkpt>
<trkpt lat="46.8018287234" lon="6.5404918324"><ele></ele><time>2014-4-28T15:31:32Z</time></trkpt>
<trkpt lat="46.8021086790" lon="6.5407891385"><ele></ele><time>2014-4-28T15:31:35Z</time></trkpt>
<trkpt lat="46.8023607228" lon="6.5409799945"><ele></ele><time>2014-4-28T15:31:38Z</time></trkpt>
<trkpt lat="46.8030640483" lon="6.5414142609"><ele></ele><time>2014-4-28T15:31:41Z</time></trkpt>
<trkpt lat="46.8031228893" lon="6.5414595231"><ele></ele><time>2014-4-28T15:31:44Z</time></trkpt>
<trkpt lat="46.8032333627" lon="6.5415505506"><ele></ele><time>2014-4-28T15:31:47Z</time></trkpt>
<trkpt lat="46.8034018390" lon="6.5416653827"><ele></ele><time>2014-4-28T15:31:50Z</time></trkpt>
<trkpt lat="46.8036152422" lon="6.5418372955"><ele></ele><time>2014-4-28T15:31:53Z</time></trkpt>
<trkpt lat="46.8037123047" lon="6.5419557318"><ele></ele><time>2014-4-28T15:31:56Z</time></trkpt>
<trkpt lat="46.8039645161" lon="6.5422532894"><ele></ele><time>2014-4-28T15:31:59Z</time></trkpt>
<trkpt lat="46.8041726388" lon="6.5424117912"><ele></ele><time>2014-4-28T15:32:2Z</time></trkpt>
<trkpt lat="46.8044143729" lon="6.5425786749"><ele></ele><time>2014-4-28T15:32:5Z</time></trkpt>
<trkpt lat="46.8045046460" lon="6.5426241048"><ele></ele><time>2014-4-28T15:32:8Z</time></trkpt>
<trkpt lat="46.8047382496" lon="6.5427514259"><ele></ele><time>2014-4-28T15:32:11Z</time></trkpt>
<trkpt lat="46.8047536723" lon="6.5427597240"><ele></ele><time>2014-4-28T15:32:14Z</time></trkpt>
<trkpt lat="46.8049130961" lon="6.5429584589"><ele></ele><time>2014-4-28T15:32:17Z</time></trkpt>
<trkpt lat="46.8050374836" lon="6.5432245005"><ele></ele><time>2014-4-28T15:32:20Z</time></trkpt>
<trkpt lat="46.8051491305" lon="6.5434426814"><ele></ele><time>2014-4-28T15:32:23Z</time></trkpt>
<trkpt lat="46.8052389007" lon="6.5435897000"><ele></ele><time>2014-4-28T15:32:26Z</time></trkpt>
<trkpt lat="46.8052990828" lon="6.5437140036"><ele></ele><time>2014-4-28T15:32:29Z</time></trkpt>
<trkpt lat="46.8053247314" lon="6.5437860042"><ele></ele><time>2014-4-28T15:32:32Z</time></trkpt>
<trkpt lat="46.8054586742" lon="6.5439422429"><ele></ele><time>2014-4-28T15:32:35Z</time></trkpt>
<trkpt lat="46.8056042679" lon="6.5440983139"><ele></ele><time>2014-4-28T15:32:38Z</time></trkpt>
<trkpt lat="46.8056128174" lon="6.5441074502"><ele></ele><time>2014-4-28T15:32:41Z</time></trkpt>
<trkpt lat="46.8056447525" lon="6.5441467613"><ele></ele><time>2014-4-28T15:32:44Z</time></trkpt>
<trkpt lat="46.8057090417" lon="6.5441760980"><ele></ele><time>2014-4-28T15:32:47Z</time></trkpt>
<trkpt lat="46.8060747441" lon="6.5443910100"><ele></ele><time>2014-4-28T15:32:50Z</time></trkpt>
<trkpt lat="46.8061788473" lon="6.5444711410"><ele></ele><time>2014-4-28T15:32:53Z</time></trkpt>
<trkpt lat="46.8062161468" lon="6.5444936883"><ele></ele><time>2014-4-28T15:32:56Z</time></trkpt>
<trkpt lat="46.8063244410" lon="6.5446076822"><ele></ele><time>2014-4-28T15:32:59Z</time></trkpt>
<trkpt lat="46.8064764049" lon="6.5447582211"><ele></ele><time>2014-4-28T15:33:2Z</time></trkpt>
<trkpt lat="46.8065057416" lon="6.5448001307"><ele></ele><time>2014-4-28T15:33:5Z</time></trkpt>
<trkpt lat="46.8067043088" lon="6.5449771564"><ele></ele><time>2014-4-28T15:33:8Z</time></trkpt>
<trkpt lat="46.8068681750" lon="6.5451493207"><ele></ele><time>2014-4-28T15:33:11Z</time></trkpt>
<trkpt lat="46.8069720268" lon="6.5452166274"><ele></ele><time>2014-4-28T15:33:14Z</time></trkpt>
<trkpt lat="46.8071386591" lon="6.5452212375"><ele></ele><time>2014-4-28T15:33:17Z</time></trkpt>
<trkpt lat="46.8073903676" lon="6.5452532563"><ele></ele><time>2014-4-28T15:33:20Z</time></trkpt>
<trkpt lat="46.8075647950" lon="6.5452355705"><ele></ele><time>2014-4-28T15:33:23Z</time></trkpt>
<trkpt lat="46.8076998275" lon="6.5451446269"><ele></ele><time>2014-4-28T15:33:26Z</time></trkpt>
<trkpt lat="46.8078533001" lon="6.5449847002"><ele></ele><time>2014-4-28T15:33:29Z</time></trkpt>
<trkpt lat="46.8079648633" lon="6.5447668545"><ele></ele><time>2014-4-28T15:33:32Z</time></trkpt>
<trkpt lat="46.8081248738" lon="6.5445818659"><ele></ele><time>2014-4-28T15:33:35Z</time></trkpt>
<trkpt lat="46.8083764985" lon="6.5444280580"><ele></ele><time>2014-4-28T15:33:38Z</time></trkpt>
<trkpt lat="46.8085450586" lon="6.5444060974"><ele></ele><time>2014-4-28T15:33:41Z</time></trkpt>
<trkpt lat="46.8086981960" lon="6.5444165748"><ele></ele><time>2014-4-28T15:33:44Z</time></trkpt>
<trkpt lat="46.8088681810" lon="6.5444052592"><ele></ele><time>2014-4-28T15:33:47Z</time></trkpt>
<trkpt lat="46.8089895509" lon="6.5442150738"><ele></ele><time>2014-4-28T15:33:50Z</time></trkpt>
<trkpt lat="46.8090849370" lon="6.5440569911"><ele></ele><time>2014-4-28T15:33:53Z</time></trkpt>
<trkpt lat="46.8091587815" lon="6.5439733397"><ele></ele><time>2014-4-28T15:33:56Z</time></trkpt>
<trkpt lat="46.8092482165" lon="6.5437591821"><ele></ele><time>2014-4-28T15:33:59Z</time></trkpt>
<trkpt lat="46.8092348892" lon="6.5435782168"><ele></ele><time>2014-4-28T15:34:2Z</time></trkpt>
<trkpt lat="46.8093348015" lon="6.5434135962"><ele></ele><time>2014-4-28T15:34:5Z</time></trkpt>
<trkpt lat="46.8094415870" lon="6.5433902107"><ele></ele><time>2014-4-28T15:34:8Z</time></trkpt>
<trkpt lat="46.8095788825" lon="6.5432564355"><ele></ele><time>2014-4-28T15:34:11Z</time></trkpt>
<trkpt lat="46.8096303474" lon="6.5431261808"><ele></ele><time>2014-4-28T15:34:14Z</time></trkpt>
<trkpt lat="46.8098057806" lon="6.5429907292"><ele></ele><time>2014-4-28T15:34:17Z</time></trkpt>
<trkpt lat="46.8100510351" lon="6.5428185649"><ele></ele><time>2014-4-28T15:34:20Z</time></trkpt>
<trkpt lat="46.8100925256" lon="6.5427723806"><ele></ele><time>2014-4-28T15:34:23Z</time></trkpt>
<trkpt lat="46.8101802841" lon="6.5426817723"><ele></ele><time>2014-4-28T15:34:26Z</time></trkpt>
<trkpt lat="46.8103967048" lon="6.5422641020"><ele></ele><time>2014-4-28T15:34:29Z</time></trkpt>
<trkpt lat="46.8105402030" lon="6.5420857351"><ele></ele><time>2014-4-28T15:34:32Z</time></trkpt>
<trkpt lat="46.8106646743" lon="6.5419172589"><ele></ele><time>2014-4-28T15:34:35Z</time></trkpt>
<trkpt lat="46.8108217511" lon="6.5417979006"><ele></ele><time>2014-4-28T15:34:38Z</time></trkpt>
<trkpt lat="46.8109755591" lon="6.5415084735"><ele></ele><time>2014-4-28T15:34:41Z</time></trkpt>
<trkpt lat="46.8111255951" lon="6.5411933977"><ele></ele><time>2014-4-28T15:34:44Z</time></trkpt>
<trkpt lat="46.8112369068" lon="6.5409329720"><ele></ele><time>2014-4-28T15:34:47Z</time></trkpt>
<trkpt lat="46.8112827558" lon="6.5408443753"><ele></ele><time>2014-4-28T15:34:50Z</time></trkpt>
<trkpt lat="46.8113897927" lon="6.5405767411"><ele></ele><time>2014-4-28T15:34:53Z</time></trkpt>
<trkpt lat="46.8114715163" lon="6.5403855499"><ele></ele><time>2014-4-28T15:34:56Z</time></trkpt>
<trkpt lat="46.8115412537" lon="6.5401884913"><ele></ele><time>2014-4-28T15:34:59Z</time></trkpt>
<trkpt lat="46.8116031960" lon="6.5399299935"><ele></ele><time>2014-4-28T15:35:2Z</time></trkpt>
<trkpt lat="46.8116954807" lon="6.5396732558"><ele></ele><time>2014-4-28T15:35:5Z</time></trkpt>
<trkpt lat="46.8117562495" lon="6.5394657198"><ele></ele><time>2014-4-28T15:35:8Z</time></trkpt>
<trkpt lat="46.8117844127" lon="6.5394142549"><ele></ele><time>2014-4-28T15:35:11Z</time></trkpt>
<trkpt lat="46.8118646275" lon="6.5392535739"><ele></ele><time>2014-4-28T15:35:14Z</time></trkpt>
<trkpt lat="46.8118942156" lon="6.5392384864"><ele></ele><time>2014-4-28T15:35:17Z</time></trkpt>
<trkpt lat="46.8119701557" lon="6.5392032824"><ele></ele><time>2014-4-28T15:35:20Z</time></trkpt>
<trkpt lat="46.8120134901" lon="6.5391979180"><ele></ele><time>2014-4-28T15:35:23Z</time></trkpt>
<trkpt lat="46.8120621052" lon="6.5391611215"><ele></ele><time>2014-4-28T15:35:26Z</time></trkpt>
<trkpt lat="46.8121499475" lon="6.5390187968"><ele></ele><time>2014-4-28T15:35:29Z</time></trkpt>
<trkpt lat="46.8121967185" lon="6.5389199741"><ele></ele><time>2014-4-28T15:35:32Z</time></trkpt>
<trkpt lat="46.8122695573" lon="6.5388211515"><ele></ele><time>2014-4-28T15:35:35Z</time></trkpt>
<trkpt lat="46.8123122212" lon="6.5387254301"><ele></ele><time>2014-4-28T15:35:38Z</time></trkpt>
<trkpt lat="46.8123742472" lon="6.5386329778"><ele></ele><time>2014-4-28T15:35:41Z</time></trkpt>
<trkpt lat="46.8125897460" lon="6.5382391959"><ele></ele><time>2014-4-28T15:35:44Z</time></trkpt>
<trkpt lat="46.8127121218" lon="6.5380040836"><ele></ele><time>2014-4-28T15:35:47Z</time></trkpt>
<trkpt lat="46.8128437176" lon="6.5378847253"><ele></ele><time>2014-4-28T15:35:50Z</time></trkpt>
<trkpt lat="46.8128872197" lon="6.5378240403"><ele></ele><time>2014-4-28T15:35:53Z</time></trkpt>
<trkpt lat="46.8129166402" lon="6.5378072765"><ele></ele><time>2014-4-28T15:35:56Z</time></trkpt>
<trkpt lat="46.8129844498" lon="6.5377424005"><ele></ele><time>2014-4-28T15:35:59Z</time></trkpt>
<trkpt lat="46.8131008744" lon="6.5377014130"><ele></ele><time>2014-4-28T15:36:2Z</time></trkpt>
<trkpt lat="46.8132467195" lon="6.5376148280"><ele></ele><time>2014-4-28T15:36:5Z</time></trkpt>
<trkpt lat="46.8133357354" lon="6.5374353714"><ele></ele><time>2014-4-28T15:36:8Z</time></trkpt>
<trkpt lat="46.8133715261" lon="6.5373612754"><ele></ele><time>2014-4-28T15:36:11Z</time></trkpt>
<trkpt lat="46.8134061433" lon="6.5372586809"><ele></ele><time>2014-4-28T15:36:14Z</time></trkpt>
<trkpt lat="46.8134057242" lon="6.5371762030"><ele></ele><time>2014-4-28T15:36:17Z</time></trkpt>
<trkpt lat="46.8134120107" lon="6.5370305255"><ele></ele><time>2014-4-28T15:36:20Z</time></trkpt>
<trkpt lat="46.8135003559" lon="6.5367265139"><ele></ele><time>2014-4-28T15:36:23Z</time></trkpt>
<trkpt lat="46.8135906290" lon="6.5364300460"><ele></ele><time>2014-4-28T15:36:26Z</time></trkpt>
<trkpt lat="46.8136963248" lon="6.5362632461"><ele></ele><time>2014-4-28T15:36:29Z</time></trkpt>
<trkpt lat="46.8138186168" lon="6.5360321570"><ele></ele><time>2014-4-28T15:36:32Z</time></trkpt>
<trkpt lat="46.8138919584" lon="6.5359405428"><ele></ele><time>2014-4-28T15:36:35Z</time></trkpt>
<trkpt lat="46.8139746878" lon="6.5357841365"><ele></ele><time>2014-4-28T15:36:38Z</time></trkpt>
<trkpt lat="46.8140246440" lon="6.5356646944"><ele></ele><time>2014-4-28T15:36:41Z</time></trkpt>
<trkpt lat="46.8140264880" lon="6.5355420671"><ele></ele><time>2014-4-28T15:36:44Z</time></trkpt>
<trkpt lat="46.8140234705" lon="6.5355107188"><ele></ele><time>2014-4-28T15:36:47Z</time></trkpt>
<trkpt lat="46.8139906973" lon="6.5354580805"><ele></ele><time>2014-4-28T15:36:50Z</time></trkpt>
<trkpt lat="46.8139706645" lon="6.5353790391"><ele></ele><time>2014-4-28T15:36:53Z</time></trkpt>
<trkpt lat="46.8140011746" lon="6.5353498701"><ele></ele><time>2014-4-28T15:36:56Z</time></trkpt>
<trkpt lat="46.8139456026" lon="6.5352602676"><ele></ele><time>2014-4-28T15:36:59Z</time></trkpt>
<trkpt lat="46.8139394000" lon="6.5352575853"><ele></ele><time>2014-4-28T15:37:2Z</time></trkpt>
<trkpt lat="46.8139409088" lon="6.5352586750"><ele></ele><time>2014-4-28T15:37:5Z</time></trkpt>
<trkpt lat="46.8139409088" lon="6.5352586750"><ele></ele><time>2014-4-28T15:37:8Z</time></trkpt>
<trkpt lat="46.8139441777" lon="6.5352567472"><ele></ele><time>2014-4-28T15:37:11Z</time></trkpt>
<trkpt lat="46.8139471114" lon="6.5352653805"><ele></ele><time>2014-4-28T15:37:14Z</time></trkpt>
<trkpt lat="46.8139471114" lon="6.5352653805"><ele></ele><time>2014-4-28T15:37:17Z</time></trkpt>
<trkpt lat="46.8139503803" lon="6.5352604352"><ele></ele><time>2014-4-28T15:37:20Z</time></trkpt>
<trkpt lat="46.8139503803" lon="6.5352604352"><ele></ele><time>2014-4-28T15:37:23Z</time></trkpt>
<trkpt lat="46.8139482848" lon="6.5352621954"><ele></ele><time>2014-4-28T15:37:26Z</time></trkpt>
<trkpt lat="46.8139482848" lon="6.5352621954"><ele></ele><time>2014-4-28T15:37:29Z</time></trkpt>
<trkpt lat="46.8138801400" lon="6.5352539811"><ele></ele><time>2014-4-28T15:37:32Z</time></trkpt>
<trkpt lat="46.8137587700" lon="6.5352203697"><ele></ele><time>2014-4-28T15:37:35Z</time></trkpt>
<trkpt lat="46.8137817364" lon="6.5351906139"><ele></ele><time>2014-4-28T15:37:38Z</time></trkpt>
<trkpt lat="46.8138207961" lon="6.5350953117"><ele></ele><time>2014-4-28T15:37:41Z</time></trkpt>
<trkpt lat="46.8138405774" lon="6.5350005962"><ele></ele><time>2014-4-28T15:37:44Z</time></trkpt>
<trkpt lat="46.8138566706" lon="6.5350027755"><ele></ele><time>2014-4-28T15:37:47Z</time></trkpt>
<trkpt lat="46.8139290065" lon="6.5348692518"><ele></ele><time>2014-4-28T15:37:50Z</time></trkpt>
<trkpt lat="46.8139500450" lon="6.5348078962"><ele></ele><time>2014-4-28T15:37:53Z</time></trkpt>
<trkpt lat="46.8139880989" lon="6.5347008593"><ele></ele><time>2014-4-28T15:37:56Z</time></trkpt>
<trkpt lat="46.8140254822" lon="6.5346488915"><ele></ele><time>2014-4-28T15:37:59Z</time></trkpt>
<trkpt lat="46.8141118996" lon="6.5344227478"><ele></ele><time>2014-4-28T15:38:2Z</time></trkpt>
<trkpt lat="46.8141441699" lon="6.5343227517"><ele></ele><time>2014-4-28T15:38:5Z</time></trkpt>
<trkpt lat="46.8141785357" lon="6.5342384297"><ele></ele><time>2014-4-28T15:38:8Z</time></trkpt>
<trkpt lat="46.8142481055" lon="6.5340962727"><ele></ele><time>2014-4-28T15:38:11Z</time></trkpt>
<trkpt lat="46.8142557330" lon="6.5339997131"><ele></ele><time>2014-4-28T15:38:14Z</time></trkpt>
<trkpt lat="46.8142724130" lon="6.5337899141"><ele></ele><time>2014-4-28T15:38:17Z</time></trkpt>
<trkpt lat="46.8143241294" lon="6.5336916782"><ele></ele><time>2014-4-28T15:38:20Z</time></trkpt>
<trkpt lat="46.8143583275" lon="6.5335388761"><ele></ele><time>2014-4-28T15:38:23Z</time></trkpt>
<trkpt lat="46.8143599201" lon="6.5335289855"><ele></ele><time>2014-4-28T15:38:26Z</time></trkpt>
<trkpt lat="46.8143599201" lon="6.5335289855"><ele></ele><time>2014-4-28T15:38:29Z</time></trkpt>
<trkpt lat="46.8143599201" lon="6.5335289855"><ele></ele><time>2014-4-28T15:38:32Z</time></trkpt>
<trkpt lat="46.8143574893" lon="6.5335209388"><ele></ele><time>2014-4-28T15:38:35Z</time></trkpt>
<trkpt lat="46.8143574893" lon="6.5335209388"><ele></ele><time>2014-4-28T15:38:38Z</time></trkpt>
<trkpt lat="46.8143653683" lon="6.5334769338"><ele></ele><time>2014-4-28T15:38:41Z</time></trkpt>
<trkpt lat="46.8143905140" lon="6.5333180130"><ele></ele><time>2014-4-28T15:38:44Z</time></trkpt>
<trkpt lat="46.8144054338" lon="6.5332647040"><ele></ele><time>2014-4-28T15:38:47Z</time></trkpt>
<trkpt lat="46.8144054338" lon="6.5332647040"><ele></ele><time>2014-4-28T15:38:50Z</time></trkpt>
<trkpt lat="46.8144025840" lon="6.5332621057"><ele></ele><time>2014-4-28T15:38:53Z</time></trkpt>
<trkpt lat="46.8144025840" lon="6.5332621057"><ele></ele><time>2014-4-28T15:38:56Z</time></trkpt>
<trkpt lat="46.8144038413" lon="6.5332511254"><ele></ele><time>2014-4-28T15:38:59Z</time></trkpt>
<trkpt lat="46.8144038413" lon="6.5332511254"><ele></ele><time>2014-4-28T15:39:2Z</time></trkpt>
<trkpt lat="46.8144001532" lon="6.5332473535"><ele></ele><time>2014-4-28T15:39:5Z</time></trkpt>
<trkpt lat="46.8144001532" lon="6.5332473535"><ele></ele><time>2014-4-28T15:39:8Z</time></trkpt>
<trkpt lat="46.8143987283" lon="6.5332015883"><ele></ele><time>2014-4-28T15:39:11Z</time></trkpt>
<trkpt lat="46.8144348543" lon="6.5331484471"><ele></ele><time>2014-4-28T15:39:14Z</time></trkpt>
<trkpt lat="46.8145357724" lon="6.5330233891"><ele></ele><time>2014-4-28T15:39:17Z</time></trkpt>
<trkpt lat="46.8147915881" lon="6.5330109000"><ele></ele><time>2014-4-28T15:39:20Z</time></trkpt>
<trkpt lat="46.8149061687" lon="6.5328636300"><ele></ele><time>2014-4-28T15:39:23Z</time></trkpt>
<trkpt lat="46.8150198273" lon="6.5327660646"><ele></ele><time>2014-4-28T15:39:26Z</time></trkpt>
<trkpt lat="46.8151481543" lon="6.5325662401"><ele></ele><time>2014-4-28T15:39:29Z</time></trkpt>
<trkpt lat="46.8152991962" lon="6.5323903877"><ele></ele><time>2014-4-28T15:39:32Z</time></trkpt>
<trkpt lat="46.8154058140" lon="6.5324157849"><ele></ele><time>2014-4-28T15:39:35Z</time></trkpt>
<trkpt lat="46.8154493999" lon="6.5323973447"><ele></ele><time>2014-4-28T15:39:38Z</time></trkpt>
<trkpt lat="46.8155300338" lon="6.5322577022"><ele></ele><time>2014-4-28T15:39:41Z</time></trkpt>
<trkpt lat="46.8155388348" lon="6.5321920719"><ele></ele><time>2014-4-28T15:39:44Z</time></trkpt>
<trkpt lat="46.8155784812" lon="6.5321729612"><ele></ele><time>2014-4-28T15:39:47Z</time></trkpt>
<trkpt lat="46.8155705184" lon="6.5321339853"><ele></ele><time>2014-4-28T15:39:50Z</time></trkpt>
<trkpt lat="46.8155705184" lon="6.5321339853"><ele></ele><time>2014-4-28T15:39:53Z</time></trkpt>
<trkpt lat="46.8155705184" lon="6.5321339853"><ele></ele><time>2014-4-28T15:39:56Z</time></trkpt>
<trkpt lat="46.8154716119" lon="6.5318238549"><ele></ele><time>2014-4-28T15:39:59Z</time></trkpt>
<trkpt lat="46.8154183868" lon="6.5315890778"><ele></ele><time>2014-4-28T15:40:2Z</time></trkpt>
<trkpt lat="46.8154790718" lon="6.5314160753"><ele></ele><time>2014-4-28T15:40:5Z</time></trkpt>
<trkpt lat="46.8154779822" lon="6.5314070228"><ele></ele><time>2014-4-28T15:40:8Z</time></trkpt>
<trkpt lat="46.8154779822" lon="6.5314070228"><ele></ele><time>2014-4-28T15:40:11Z</time></trkpt>
<trkpt lat="46.8154779822" lon="6.5314070228"><ele></ele><time>2014-4-28T15:40:14Z</time></trkpt>
<trkpt lat="46.8154844362" lon="6.5314128902"><ele></ele><time>2014-4-28T15:40:17Z</time></trkpt>
<trkpt lat="46.8154936563" lon="6.5313415602"><ele></ele><time>2014-4-28T15:40:20Z</time></trkpt>
<trkpt lat="46.8154902197" lon="6.5313138161"><ele></ele><time>2014-4-28T15:40:23Z</time></trkpt>
<trkpt lat="46.8154902197" lon="6.5313138161"><ele></ele><time>2014-4-28T15:40:26Z</time></trkpt>
<trkpt lat="46.8154734559" lon="6.5312169213"><ele></ele><time>2014-4-28T15:40:29Z</time></trkpt>
<trkpt lat="46.8154734559" lon="6.5312169213"><ele></ele><time>2014-4-28T15:40:32Z</time></trkpt>
<trkpt lat="46.8154734559" lon="6.5312169213"><ele></ele><time>2014-4-28T15:40:35Z</time></trkpt>
<trkpt lat="46.8154788204" lon="6.5311983135"><ele></ele><time>2014-4-28T15:40:38Z</time></trkpt>
<trkpt lat="46.8154788204" lon="6.5311983135"><ele></ele><time>2014-4-28T15:40:41Z</time></trkpt>
<trkpt lat="46.8154799938" lon="6.5311944578"><ele></ele><time>2014-4-28T15:40:44Z</time></trkpt>
<trkpt lat="46.8154799938" lon="6.5311944578"><ele></ele><time>2014-4-28T15:40:47Z</time></trkpt>
<trkpt lat="46.8154800776" lon="6.5311641153"><ele></ele><time>2014-4-28T15:40:50Z</time></trkpt>
<trkpt lat="46.8154800776" lon="6.5311641153"><ele></ele><time>2014-4-28T15:40:53Z</time></trkpt>
<trkpt lat="46.8154921476" lon="6.5311272349"><ele></ele><time>2014-4-28T15:40:56Z</time></trkpt>
<trkpt lat="46.8155564368" lon="6.5308541525"><ele></ele><time>2014-4-28T15:40:59Z</time></trkpt>
<trkpt lat="46.8156861048" lon="6.5303953271"><ele></ele><time>2014-4-28T15:41:2Z</time></trkpt>
<trkpt lat="46.8157396652" lon="6.5301167127"><ele></ele><time>2014-4-28T15:41:5Z</time></trkpt>
<trkpt lat="46.8158335425" lon="6.5298374277"><ele></ele><time>2014-4-28T15:41:8Z</time></trkpt>
<trkpt lat="46.8159340415" lon="6.5293868165"><ele></ele><time>2014-4-28T15:41:11Z</time></trkpt>
<trkpt lat="46.8160125799" lon="6.5289146639"><ele></ele><time>2014-4-28T15:41:14Z</time></trkpt>
<trkpt lat="46.8160214648" lon="6.5288907755"><ele></ele><time>2014-4-28T15:41:17Z</time></trkpt>
<trkpt lat="46.8160214648" lon="6.5288907755"><ele></ele><time>2014-4-28T15:41:20Z</time></trkpt>
<trkpt lat="46.8161222152" lon="6.5286942199"><ele></ele><time>2014-4-28T15:41:23Z</time></trkpt>
<trkpt lat="46.8161603529" lon="6.5285595227"><ele></ele><time>2014-4-28T15:41:26Z</time></trkpt>
<trkpt lat="46.8161959760" lon="6.5283881966"><ele></ele><time>2014-4-28T15:41:29Z</time></trkpt>
<trkpt lat="46.8162084650" lon="6.5283301938"><ele></ele><time>2014-4-28T15:41:32Z</time></trkpt>
<trkpt lat="46.8163450062" lon="6.5281076543"><ele></ele><time>2014-4-28T15:41:35Z</time></trkpt>
<trkpt lat="46.8164593354" lon="6.5277924947"><ele></ele><time>2014-4-28T15:41:38Z</time></trkpt>
<trkpt lat="46.8166036718" lon="6.5274563804"><ele></ele><time>2014-4-28T15:41:41Z</time></trkpt>
<trkpt lat="46.8167148996" lon="6.5272059292"><ele></ele><time>2014-4-28T15:41:44Z</time></trkpt>
<trkpt lat="46.8167148996" lon="6.5272059292"><ele></ele><time>2014-4-28T15:41:47Z</time></trkpt>
<trkpt lat="46.8167148996" lon="6.5272059292"><ele></ele><time>2014-4-28T15:41:50Z</time></trkpt>
<trkpt lat="46.8167308252" lon="6.5271899197"><ele></ele><time>2014-4-28T15:41:53Z</time></trkpt>
<trkpt lat="46.8167308252" lon="6.5271899197"><ele></ele><time>2014-4-28T15:41:56Z</time></trkpt>
<trkpt lat="46.8167747464" lon="6.5271097887"><ele></ele><time>2014-4-28T15:41:59Z</time></trkpt>
<trkpt lat="46.8167957850" lon="6.5270671248"><ele></ele><time>2014-4-28T15:42:2Z</time></trkpt>
<trkpt lat="46.8170029018" lon="6.5268405620"><ele></ele><time>2014-4-28T15:42:5Z</time></trkpt>
<trkpt lat="46.8171142135" lon="6.5268411487"><ele></ele><time>2014-4-28T15:42:8Z</time></trkpt>
<trkpt lat="46.8173149601" lon="6.5266800486"><ele></ele><time>2014-4-28T15:42:11Z</time></trkpt>
<trkpt lat="46.8173546065" lon="6.5264990833"><ele></ele><time>2014-4-28T15:42:14Z</time></trkpt>
<trkpt lat="46.8173724599" lon="6.5264433436"><ele></ele><time>2014-4-28T15:42:17Z</time></trkpt>
<trkpt lat="46.8173919898" lon="6.5263548307"><ele></ele><time>2014-4-28T15:42:20Z</time></trkpt>
<trkpt lat="46.8174099270" lon="6.5261632204"><ele></ele><time>2014-4-28T15:42:23Z</time></trkpt>
<trkpt lat="46.8174261041" lon="6.5259930678"><ele></ele><time>2014-4-28T15:42:26Z</time></trkpt>
<trkpt lat="46.8174593803" lon="6.5258021280"><ele></ele><time>2014-4-28T15:42:29Z</time></trkpt>
<trkpt lat="46.8174634874" lon="6.5257670917"><ele></ele><time>2014-4-28T15:42:32Z</time></trkpt>
<trkpt lat="46.8174674269" lon="6.5257649124"><ele></ele><time>2014-4-28T15:42:35Z</time></trkpt>
<trkpt lat="46.8174674269" lon="6.5257649124"><ele></ele><time>2014-4-28T15:42:38Z</time></trkpt>
<trkpt lat="46.8174726237" lon="6.5256115235"><ele></ele><time>2014-4-28T15:42:41Z</time></trkpt>
<trkpt lat="46.8174681813" lon="6.5256091766"><ele></ele><time>2014-4-28T15:42:44Z</time></trkpt>
<trkpt lat="46.8174681813" lon="6.5256091766"><ele></ele><time>2014-4-28T15:42:47Z</time></trkpt>
<trkpt lat="46.8174679298" lon="6.5256092604"><ele></ele><time>2014-4-28T15:42:50Z</time></trkpt>
<trkpt lat="46.8174679298" lon="6.5256092604"><ele></ele><time>2014-4-28T15:42:53Z</time></trkpt>
<trkpt lat="46.8174691033" lon="6.5256040636"><ele></ele><time>2014-4-28T15:42:56Z</time></trkpt>
<trkpt lat="46.8174691033" lon="6.5256040636"><ele></ele><time>2014-4-28T15:42:59Z</time></trkpt>
<trkpt lat="46.8174683489" lon="6.5256043989"><ele></ele><time>2014-4-28T15:43:2Z</time></trkpt>
<trkpt lat="46.8174727075" lon="6.5255742241"><ele></ele><time>2014-4-28T15:43:5Z</time></trkpt>
<trkpt lat="46.8174929917" lon="6.5255330689"><ele></ele><time>2014-4-28T15:43:8Z</time></trkpt>
<trkpt lat="46.8175223283" lon="6.5255254414"><ele></ele><time>2014-4-28T15:43:11Z</time></trkpt>
<trkpt lat="46.8175233342" lon="6.5255206637"><ele></ele><time>2014-4-28T15:43:14Z</time></trkpt>
<trkpt lat="46.8175284471" lon="6.5255173948"><ele></ele><time>2014-4-28T15:43:17Z</time></trkpt>
<trkpt lat="46.8175264355" lon="6.5254763234"><ele></ele><time>2014-4-28T15:43:20Z</time></trkpt>
<trkpt lat="46.8174760602" lon="6.5252899099"><ele></ele><time>2014-4-28T15:43:23Z</time></trkpt>
<trkpt lat="46.8174464721" lon="6.5251348447"><ele></ele><time>2014-4-28T15:43:26Z</time></trkpt>
<trkpt lat="46.8174370844" lon="6.5249440726"><ele></ele><time>2014-4-28T15:43:29Z</time></trkpt>
<trkpt lat="46.8173835240" lon="6.5247556474"><ele></ele><time>2014-4-28T15:43:32Z</time></trkpt>
<trkpt lat="46.8173364177" lon="6.5246637817"><ele></ele><time>2014-4-28T15:43:35Z</time></trkpt>
<trkpt lat="46.8173088413" lon="6.5244948864"><ele></ele><time>2014-4-28T15:43:38Z</time></trkpt>
<trkpt lat="46.8172484078" lon="6.5242057946"><ele></ele><time>2014-4-28T15:43:41Z</time></trkpt>
<trkpt lat="46.8172545265" lon="6.5239423513"><ele></ele><time>2014-4-28T15:43:44Z</time></trkpt>
<trkpt lat="46.8172352482" lon="6.5237234160"><ele></ele><time>2014-4-28T15:43:47Z</time></trkpt>
<trkpt lat="46.8172541074" lon="6.5235157963"><ele></ele><time>2014-4-28T15:43:50Z</time></trkpt>
<trkpt lat="46.8172702845" lon="6.5232081804"><ele></ele><time>2014-4-28T15:43:53Z</time></trkpt>
<trkpt lat="46.8172717094" lon="6.5231901594"><ele></ele><time>2014-4-28T15:43:56Z</time></trkpt>
<trkpt lat="46.8173792493" lon="6.5229224414"><ele></ele><time>2014-4-28T15:43:59Z</time></trkpt>
<trkpt lat="46.8174615595" lon="6.5226393845"><ele></ele><time>2014-4-28T15:44:2Z</time></trkpt>
<trkpt lat="46.8175871205" lon="6.5223585907"><ele></ele><time>2014-4-28T15:44:5Z</time></trkpt>
<trkpt lat="46.8176113442" lon="6.5223393124"><ele></ele><time>2014-4-28T15:44:8Z</time></trkpt>
<trkpt lat="46.8176770583" lon="6.5224573296"><ele></ele><time>2014-4-28T15:44:11Z</time></trkpt>
<trkpt lat="46.8177571893" lon="6.5227003209"><ele></ele><time>2014-4-28T15:44:14Z</time></trkpt>
<trkpt lat="46.8179187924" lon="6.5229803603"><ele></ele><time>2014-4-28T15:44:17Z</time></trkpt>
<trkpt lat="46.8180602789" lon="6.5232044086"><ele></ele><time>2014-4-28T15:44:20Z</time></trkpt>
<trkpt lat="46.8181792181" lon="6.5233824402"><ele></ele><time>2014-4-28T15:44:23Z</time></trkpt>
<trkpt lat="46.8183073774" lon="6.5235737991"><ele></ele><time>2014-4-28T15:44:26Z</time></trkpt>
<trkpt lat="46.8184859119" lon="6.5238489769"><ele></ele><time>2014-4-28T15:44:29Z</time></trkpt>
<trkpt lat="46.8186421506" lon="6.5241058823"><ele></ele><time>2014-4-28T15:44:32Z</time></trkpt>
<trkpt lat="46.8187602516" lon="6.5242883563"><ele></ele><time>2014-4-28T15:44:35Z</time></trkpt>
<trkpt lat="46.8187971320" lon="6.5243350435"><ele></ele><time>2014-4-28T15:44:38Z</time></trkpt>
<trkpt lat="46.8188786879" lon="6.5243300982"><ele></ele><time>2014-4-28T15:44:41Z</time></trkpt>
<trkpt lat="46.8189227767" lon="6.5242192894"><ele></ele><time>2014-4-28T15:44:44Z</time></trkpt>
<trkpt lat="46.8188746646" lon="6.5238684230"><ele></ele><time>2014-4-28T15:44:47Z</time></trkpt>
<trkpt lat="46.8188077770" lon="6.5233638324"><ele></ele><time>2014-4-28T15:44:50Z</time></trkpt>
<trkpt lat="46.8186708167" lon="6.5228383709"><ele></ele><time>2014-4-28T15:44:53Z</time></trkpt>
<trkpt lat="46.8185771909" lon="6.5224017575"><ele></ele><time>2014-4-28T15:44:56Z</time></trkpt>
<trkpt lat="46.8184879236" lon="6.5220905375"><ele></ele><time>2014-4-28T15:44:59Z</time></trkpt>
<trkpt lat="46.8184258137" lon="6.5217499807"><ele></ele><time>2014-4-28T15:45:2Z</time></trkpt>
<trkpt lat="46.8183899391" lon="6.5212510061"><ele></ele><time>2014-4-28T15:45:5Z</time></trkpt>
<trkpt lat="46.8184029311" lon="6.5210428834"><ele></ele><time>2014-4-28T15:45:8Z</time></trkpt>
<trkpt lat="46.8183749355" lon="6.5208993852"><ele></ele><time>2014-4-28T15:45:11Z</time></trkpt>
<trkpt lat="46.8183711637" lon="6.5208152309"><ele></ele><time>2014-4-28T15:45:14Z</time></trkpt>
<trkpt lat="46.8182648811" lon="6.5205548052"><ele></ele><time>2014-4-28T15:45:17Z</time></trkpt>
<trkpt lat="46.8182491232" lon="6.5201329440"><ele></ele><time>2014-4-28T15:45:20Z</time></trkpt>
<trkpt lat="46.8182341196" lon="6.5200429223"><ele></ele><time>2014-4-28T15:45:23Z</time></trkpt>
<trkpt lat="46.8182033580" lon="6.5200244822"><ele></ele><time>2014-4-28T15:45:26Z</time></trkpt>
<trkpt lat="46.8181910366" lon="6.5199984983"><ele></ele><time>2014-4-28T15:45:29Z</time></trkpt>
<trkpt lat="46.8179321196" lon="6.5196873620"><ele></ele><time>2014-4-28T15:45:32Z</time></trkpt>
<trkpt lat="46.8177017849" lon="6.5195923112"><ele></ele><time>2014-4-28T15:45:35Z</time></trkpt>
<trkpt lat="46.8175043911" lon="6.5195965860"><ele></ele><time>2014-4-28T15:45:38Z</time></trkpt>
<trkpt lat="46.8172655068" lon="6.5195063129"><ele></ele><time>2014-4-28T15:45:41Z</time></trkpt>
<trkpt lat="46.8171172310" lon="6.5192587953"><ele></ele><time>2014-4-28T15:45:44Z</time></trkpt>
<trkpt lat="46.8170134630" lon="6.5190461464"><ele></ele><time>2014-4-28T15:45:47Z</time></trkpt>
<trkpt lat="46.8169164006" lon="6.5188150574"><ele></ele><time>2014-4-28T15:45:50Z</time></trkpt>
<trkpt lat="46.8167734891" lon="6.5184656996"><ele></ele><time>2014-4-28T15:45:53Z</time></trkpt>
<trkpt lat="46.8166702241" lon="6.5182113089"><ele></ele><time>2014-4-28T15:45:56Z</time></trkpt>
<trkpt lat="46.8165535480" lon="6.5178918745"><ele></ele><time>2014-4-28T15:45:59Z</time></trkpt>
<trkpt lat="46.8164848164" lon="6.5176590253"><ele></ele><time>2014-4-28T15:46:2Z</time></trkpt>
<trkpt lat="46.8163631950" lon="6.5172238369"><ele></ele><time>2014-4-28T15:46:5Z</time></trkpt>
<trkpt lat="46.8162545655" lon="6.5168583859"><ele></ele><time>2014-4-28T15:46:8Z</time></trkpt>
<trkpt lat="46.8161737639" lon="6.5166065935"><ele></ele><time>2014-4-28T15:46:11Z</time></trkpt>
<trkpt lat="46.8160969857" lon="6.5163252968"><ele></ele><time>2014-4-28T15:46:14Z</time></trkpt>
<trkpt lat="46.8159947265" lon="6.5159510449"><ele></ele><time>2014-4-28T15:46:17Z</time></trkpt>
<trkpt lat="46.8159073871" lon="6.5157243982"><ele></ele><time>2014-4-28T15:46:20Z</time></trkpt>
<trkpt lat="46.8157445267" lon="6.5154426824"><ele></ele><time>2014-4-28T15:46:23Z</time></trkpt>
<trkpt lat="46.8155506533" lon="6.5151685942"><ele></ele><time>2014-4-28T15:46:26Z</time></trkpt>
<trkpt lat="46.8153849430" lon="6.5149354097"><ele></ele><time>2014-4-28T15:46:29Z</time></trkpt>
<trkpt lat="46.8152585439" lon="6.5147132054"><ele></ele><time>2014-4-28T15:46:32Z</time></trkpt>
<trkpt lat="46.8152454682" lon="6.5146780014"><ele></ele><time>2014-4-28T15:46:35Z</time></trkpt>
<trkpt lat="46.8152515031" lon="6.5146673564"><ele></ele><time>2014-4-28T15:46:38Z</time></trkpt>
<trkpt lat="46.8152375892" lon="6.5146500897"><ele></ele><time>2014-4-28T15:46:41Z</time></trkpt>
<trkpt lat="46.8152230885" lon="6.5146285482"><ele></ele><time>2014-4-28T15:46:44Z</time></trkpt>
<trkpt lat="46.8152230885" lon="6.5146285482"><ele></ele><time>2014-4-28T15:46:47Z</time></trkpt>
<trkpt lat="46.8152225018" lon="6.5146281291"><ele></ele><time>2014-4-28T15:46:50Z</time></trkpt>
<trkpt lat="46.8152225018" lon="6.5146281291"><ele></ele><time>2014-4-28T15:46:53Z</time></trkpt>
<trkpt lat="46.8152225018" lon="6.5146281291"><ele></ele><time>2014-4-28T15:46:56Z</time></trkpt>
<trkpt lat="46.8152161315" lon="6.5146325715"><ele></ele><time>2014-4-28T15:46:59Z</time></trkpt>
<trkpt lat="46.8152403552" lon="6.5146433003"><ele></ele><time>2014-4-28T15:47:2Z</time></trkpt>
<trkpt lat="46.8152367510" lon="6.5146503411"><ele></ele><time>2014-4-28T15:47:5Z</time></trkpt>
<trkpt lat="46.8152367510" lon="6.5146503411"><ele></ele><time>2014-4-28T15:47:8Z</time></trkpt>
<trkpt lat="46.8152568676" lon="6.5146593098"><ele></ele><time>2014-4-28T15:47:11Z</time></trkpt>
<trkpt lat="46.8152426183" lon="6.5146417916"><ele></ele><time>2014-4-28T15:47:14Z</time></trkpt>
<trkpt lat="46.8152607232" lon="6.5146357566"><ele></ele><time>2014-4-28T15:47:17Z</time></trkpt>
<trkpt lat="46.8152673449" lon="6.5146467369"><ele></ele><time>2014-4-28T15:47:20Z</time></trkpt>
<trkpt lat="46.8152574543" lon="6.5146518499"><ele></ele><time>2014-4-28T15:47:23Z</time></trkpt>
<trkpt lat="46.8152104318" lon="6.5146433003"><ele></ele><time>2014-4-28T15:47:26Z</time></trkpt>
<trkpt lat="46.8151047360" lon="6.5144879837"><ele></ele><time>2014-4-28T15:47:29Z</time></trkpt>
<trkpt lat="46.8150890619" lon="6.5144686215"><ele></ele><time>2014-4-28T15:47:32Z</time></trkpt>
<trkpt lat="46.8150406983" lon="6.5143701341"><ele></ele><time>2014-4-28T15:47:35Z</time></trkpt>
<trkpt lat="46.8149512634" lon="6.5142412204"><ele></ele><time>2014-4-28T15:47:38Z</time></trkpt>
<trkpt lat="46.8148644269" lon="6.5141309146"><ele></ele><time>2014-4-28T15:47:41Z</time></trkpt>
<trkpt lat="46.8147774227" lon="6.5140419826"><ele></ele><time>2014-4-28T15:47:44Z</time></trkpt>
<trkpt lat="46.8147052545" lon="6.5139451716"><ele></ele><time>2014-4-28T15:47:47Z</time></trkpt>
<trkpt lat="46.8147113733" lon="6.5139133204"><ele></ele><time>2014-4-28T15:47:50Z</time></trkpt>
<trkpt lat="46.8147113733" lon="6.5139133204"><ele></ele><time>2014-4-28T15:47:53Z</time></trkpt>
<trkpt lat="46.8147108704" lon="6.5139132366"><ele></ele><time>2014-4-28T15:47:56Z</time></trkpt>
<trkpt lat="46.8147108704" lon="6.5139132366"><ele></ele><time>2014-4-28T15:47:59Z</time></trkpt>
<trkpt lat="46.8147101998" lon="6.5139124822"><ele></ele><time>2014-4-28T15:48:2Z</time></trkpt>
<trkpt lat="46.8147101998" lon="6.5139124822"><ele></ele><time>2014-4-28T15:48:5Z</time></trkpt>
<trkpt lat="46.8146988004" lon="6.5138967242"><ele></ele><time>2014-4-28T15:48:8Z</time></trkpt>
<trkpt lat="46.8147002254" lon="6.5138894320"><ele></ele><time>2014-4-28T15:48:11Z</time></trkpt>
<trkpt lat="46.8147002254" lon="6.5138894320"><ele></ele><time>2014-4-28T15:48:14Z</time></trkpt>
<trkpt lat="46.8147002254" lon="6.5138894320"><ele></ele><time>2014-4-28T15:48:17Z</time></trkpt>
<trkpt lat="46.8146278057" lon="6.5136521403"><ele></ele><time>2014-4-28T15:48:20Z</time></trkpt>
<trkpt lat="46.8145335093" lon="6.5134155191"><ele></ele><time>2014-4-28T15:48:23Z</time></trkpt>
<trkpt lat="46.8144715670" lon="6.5132248309"><ele></ele><time>2014-4-28T15:48:26Z</time></trkpt>
<trkpt lat="46.8144049309" lon="6.5129667521"><ele></ele><time>2014-4-28T15:48:29Z</time></trkpt>
<trkpt lat="46.8143341038" lon="6.5127246827"><ele></ele><time>2014-4-28T15:48:32Z</time></trkpt>
<trkpt lat="46.8142424896" lon="6.5124429669"><ele></ele><time>2014-4-28T15:48:35Z</time></trkpt>
<trkpt lat="46.8141775299" lon="6.5122322459"><ele></ele><time>2014-4-28T15:48:38Z</time></trkpt>
<trkpt lat="46.8141646218" lon="6.5120877419"><ele></ele><time>2014-4-28T15:48:41Z</time></trkpt>
<trkpt lat="46.8143004924" lon="6.5118908510"><ele></ele><time>2014-4-28T15:48:44Z</time></trkpt>
<trkpt lat="46.8143364508" lon="6.5118320100"><ele></ele><time>2014-4-28T15:48:47Z</time></trkpt>
<trkpt lat="46.8143492751" lon="6.5117945429"><ele></ele><time>2014-4-28T15:48:50Z</time></trkpt>
<trkpt lat="46.8143124785" lon="6.5116077941"><ele></ele><time>2014-4-28T15:48:53Z</time></trkpt>
<trkpt lat="46.8142544758" lon="6.5113242343"><ele></ele><time>2014-4-28T15:48:56Z</time></trkpt>
<trkpt lat="46.8141873367" lon="6.5110514034"><ele></ele><time>2014-4-28T15:48:59Z</time></trkpt>
<trkpt lat="46.8141198624" lon="6.5107587073"><ele></ele><time>2014-4-28T15:49:2Z</time></trkpt>
<trkpt lat="46.8140616082" lon="6.5104924981"><ele></ele><time>2014-4-28T15:49:5Z</time></trkpt>
<trkpt lat="46.8139903620" lon="6.5101575572"><ele></ele><time>2014-4-28T15:49:8Z</time></trkpt>
<trkpt lat="46.8139347062" lon="6.5098949522"><ele></ele><time>2014-4-28T15:49:11Z</time></trkpt>
<trkpt lat="46.8138838280" lon="6.5095864143"><ele></ele><time>2014-4-28T15:49:14Z</time></trkpt>
<trkpt lat="46.8138202932" lon="6.5092980769"><ele></ele><time>2014-4-28T15:49:17Z</time></trkpt>
<trkpt lat="46.8137454428" lon="6.5089975856"><ele></ele><time>2014-4-28T15:49:20Z</time></trkpt>
<trkpt lat="46.8136883620" lon="6.5086809173"><ele></ele><time>2014-4-28T15:49:23Z</time></trkpt>
<trkpt lat="46.8136555888" lon="6.5085302107"><ele></ele><time>2014-4-28T15:49:26Z</time></trkpt>
<trkpt lat="46.8137231469" lon="6.5082443040"><ele></ele><time>2014-4-28T15:49:29Z</time></trkpt>
<trkpt lat="46.8139653001" lon="6.5081102774"><ele></ele><time>2014-4-28T15:49:32Z</time></trkpt>
<trkpt lat="46.8141641188" lon="6.5079994686"><ele></ele><time>2014-4-28T15:49:35Z</time></trkpt>
<trkpt lat="46.8145014904" lon="6.5078149829"><ele></ele><time>2014-4-28T15:49:38Z</time></trkpt>
<trkpt lat="46.8146228604" lon="6.5076185949"><ele></ele><time>2014-4-28T15:49:41Z</time></trkpt>
<trkpt lat="46.8148812745" lon="6.5071562491"><ele></ele><time>2014-4-28T15:49:44Z</time></trkpt>
<trkpt lat="46.8152266089" lon="6.5067585278"><ele></ele><time>2014-4-28T15:49:47Z</time></trkpt>
<trkpt lat="46.8152865395" lon="6.5066063125"><ele></ele><time>2014-4-28T15:49:50Z</time></trkpt>
<trkpt lat="46.8156124279" lon="6.5061289631"><ele></ele><time>2014-4-28T15:49:53Z</time></trkpt>
<trkpt lat="46.8159459438" lon="6.5055101272"><ele></ele><time>2014-4-28T15:49:56Z</time></trkpt>
<trkpt lat="46.8161450978" lon="6.5049562510"><ele></ele><time>2014-4-28T15:49:59Z</time></trkpt>
<trkpt lat="46.8162359577" lon="6.5045219008"><ele></ele><time>2014-4-28T15:50:2Z</time></trkpt>
<trkpt lat="46.8163298350" lon="6.5038764104"><ele></ele><time>2014-4-28T15:50:5Z</time></trkpt>
<trkpt lat="46.8163413182" lon="6.5036948584"><ele></ele><time>2014-4-28T15:50:8Z</time></trkpt>
<trkpt lat="46.8162961397" lon="6.5029980708"><ele></ele><time>2014-4-28T15:50:11Z</time></trkpt>
<trkpt lat="46.8162703235" lon="6.5021628980"><ele></ele><time>2014-4-28T15:50:14Z</time></trkpt>
<trkpt lat="46.8162850756" lon="6.5019914880"><ele></ele><time>2014-4-28T15:50:17Z</time></trkpt>
<trkpt lat="46.8162015919" lon="6.5013418067"><ele></ele><time>2014-4-28T15:50:20Z</time></trkpt>
<trkpt lat="46.8161094747" lon="6.5006902814"><ele></ele><time>2014-4-28T15:50:23Z</time></trkpt>
<trkpt lat="46.8160617817" lon="6.5003068931"><ele></ele><time>2014-4-28T15:50:26Z</time></trkpt>
<trkpt lat="46.8160086405" lon="6.4997675177"><ele></ele><time>2014-4-28T15:50:29Z</time></trkpt>
<trkpt lat="46.8159042858" lon="6.4993446507"><ele></ele><time>2014-4-28T15:50:32Z</time></trkpt>
<trkpt lat="46.8157783058" lon="6.4989274833"><ele></ele><time>2014-4-28T15:50:35Z</time></trkpt>
<trkpt lat="46.8156654853" lon="6.4986592624"><ele></ele><time>2014-4-28T15:50:38Z</time></trkpt>
<trkpt lat="46.8156057224" lon="6.4984698314"><ele></ele><time>2014-4-28T15:50:41Z</time></trkpt>
<trkpt lat="46.8153648265" lon="6.4980792347"><ele></ele><time>2014-4-28T15:50:44Z</time></trkpt>
<trkpt lat="46.8151781615" lon="6.4976049028"><ele></ele><time>2014-4-28T15:50:47Z</time></trkpt>
<trkpt lat="46.8150071707" lon="6.4974693675"><ele></ele><time>2014-4-28T15:50:50Z</time></trkpt>
<trkpt lat="46.8149433006" lon="6.4974522684"><ele></ele><time>2014-4-28T15:50:53Z</time></trkpt>
<trkpt lat="46.8145180028" lon="6.4976361673"><ele></ele><time>2014-4-28T15:50:56Z</time></trkpt>
<trkpt lat="46.8141808826" lon="6.4976607263"><ele></ele><time>2014-4-28T15:50:59Z</time></trkpt>
<trkpt lat="46.8138239812" lon="6.4975733869"><ele></ele><time>2014-4-28T15:51:2Z</time></trkpt>
<trkpt lat="46.8135573529" lon="6.4973778371"><ele></ele><time>2014-4-28T15:51:5Z</time></trkpt>
<trkpt lat="46.8131752219" lon="6.4971666969"><ele></ele><time>2014-4-28T15:51:8Z</time></trkpt>
<trkpt lat="46.8125687074" lon="6.4968317561"><ele></ele><time>2014-4-28T15:51:11Z</time></trkpt>
<trkpt lat="46.8120423239" lon="6.4965219609"><ele></ele><time>2014-4-28T15:51:14Z</time></trkpt>
<trkpt lat="46.8114241585" lon="6.4961611200"><ele></ele><time>2014-4-28T15:51:17Z</time></trkpt>
<trkpt lat="46.8113780580" lon="6.4961337112"><ele></ele><time>2014-4-28T15:51:20Z</time></trkpt>
<trkpt lat="46.8110761419" lon="6.4960013609"><ele></ele><time>2014-4-28T15:51:23Z</time></trkpt>
<trkpt lat="46.8106970284" lon="6.4960696734"><ele></ele><time>2014-4-28T15:51:26Z</time></trkpt>
<trkpt lat="46.8104049191" lon="6.4962458611"><ele></ele><time>2014-4-28T15:51:29Z</time></trkpt>
<trkpt lat="46.8103839643" lon="6.4964365494"><ele></ele><time>2014-4-28T15:51:32Z</time></trkpt>
<trkpt lat="46.8104187492" lon="6.4965843223"><ele></ele><time>2014-4-28T15:51:35Z</time></trkpt>
<trkpt lat="46.8104013149" lon="6.4966046065"><ele></ele><time>2014-4-28T15:51:38Z</time></trkpt>
<trkpt lat="46.8105085194" lon="6.4964404050"><ele></ele><time>2014-4-28T15:51:41Z</time></trkpt>
<trkpt lat="46.8105324917" lon="6.4963798039"><ele></ele><time>2014-4-28T15:51:44Z</time></trkpt>
<trkpt lat="46.8108160514" lon="6.4961479604"><ele></ele><time>2014-4-28T15:51:47Z</time></trkpt>
<trkpt lat="46.8108726293" lon="6.4961662330"><ele></ele><time>2014-4-28T15:51:50Z</time></trkpt>
<trkpt lat="46.8111214880" lon="6.4961436857"><ele></ele><time>2014-4-28T15:51:53Z</time></trkpt>
<trkpt lat="46.8113441113" lon="6.4961655624"><ele></ele><time>2014-4-28T15:51:56Z</time></trkpt>
<trkpt lat="46.8118204549" lon="6.4963444322"><ele></ele><time>2014-4-28T15:51:59Z</time></trkpt>
<trkpt lat="46.8122042622" lon="6.4964948874"><ele></ele><time>2014-4-28T15:52:2Z</time></trkpt>
<trkpt lat="46.8127718009" lon="6.4968734141"><ele></ele><time>2014-4-28T15:52:5Z</time></trkpt>
<trkpt lat="46.8131749704" lon="6.4971152321"><ele></ele><time>2014-4-28T15:52:8Z</time></trkpt>
<trkpt lat="46.8134420179" lon="6.4972910844"><ele></ele><time>2014-4-28T15:52:11Z</time></trkpt>
<trkpt lat="46.8139932957" lon="6.4975330699"><ele></ele><time>2014-4-28T15:52:14Z</time></trkpt>
<trkpt lat="46.8141933717" lon="6.4975817688"><ele></ele><time>2014-4-28T15:52:17Z</time></trkpt>
<trkpt lat="46.8143839762" lon="6.4975861274"><ele></ele><time>2014-4-28T15:52:20Z</time></trkpt>
<trkpt lat="46.8147174921" lon="6.4974354208"><ele></ele><time>2014-4-28T15:52:23Z</time></trkpt>
<trkpt lat="46.8151341565" lon="6.4973011427"><ele></ele><time>2014-4-28T15:52:26Z</time></trkpt>
<trkpt lat="46.8151320610" lon="6.4970024955"><ele></ele><time>2014-4-28T15:52:29Z</time></trkpt>
<trkpt lat="46.8151403591" lon="6.4967911039"><ele></ele><time>2014-4-28T15:52:32Z</time></trkpt>
<trkpt lat="46.8151307199" lon="6.4967706520"><ele></ele><time>2014-4-28T15:52:35Z</time></trkpt>
<trkpt lat="46.8151189853" lon="6.4965253137"><ele></ele><time>2014-4-28T15:52:38Z</time></trkpt>
<trkpt lat="46.8149875570" lon="6.4963974059"><ele></ele><time>2014-4-28T15:52:41Z</time></trkpt>
<trkpt lat="46.8148746528" lon="6.4962185360"><ele></ele><time>2014-4-28T15:52:44Z</time></trkpt>
<trkpt lat="46.8146974593" lon="6.4959150273"><ele></ele><time>2014-4-28T15:52:47Z</time></trkpt>
<trkpt lat="46.8145724852" lon="6.4956639055"><ele></ele><time>2014-4-28T15:52:50Z</time></trkpt>
<trkpt lat="46.8143578246" lon="6.4955259394"><ele></ele><time>2014-4-28T15:52:53Z</time></trkpt>
<trkpt lat="46.8141640350" lon="6.4955826011"><ele></ele><time>2014-4-28T15:52:56Z</time></trkpt>
<trkpt lat="46.8140033539" lon="6.4955672622"><ele></ele><time>2014-4-28T15:52:59Z</time></trkpt>
<trkpt lat="46.8138623703" lon="6.4954951778"><ele></ele><time>2014-4-28T15:53:2Z</time></trkpt>
<trkpt lat="46.8137358036" lon="6.4954087604"><ele></ele><time>2014-4-28T15:53:5Z</time></trkpt>
<trkpt lat="46.8135762960" lon="6.4953073394"><ele></ele><time>2014-4-28T15:53:8Z</time></trkpt>
<trkpt lat="46.8134177942" lon="6.4952693693"><ele></ele><time>2014-4-28T15:53:11Z</time></trkpt>
<trkpt lat="46.8132750504" lon="6.4951491728"><ele></ele><time>2014-4-28T15:53:14Z</time></trkpt>
<trkpt lat="46.8131534290" lon="6.4950516913"><ele></ele><time>2014-4-28T15:53:17Z</time></trkpt>
<trkpt lat="46.8130892236" lon="6.4948877413"><ele></ele><time>2014-4-28T15:53:20Z</time></trkpt>
<trkpt lat="46.8130647484" lon="6.4948670380"><ele></ele><time>2014-4-28T15:53:23Z</time></trkpt>
<trkpt lat="46.8129172269" lon="6.4947070275"><ele></ele><time>2014-4-28T15:53:26Z</time></trkpt>
<trkpt lat="46.8127272092" lon="6.4945772756"><ele></ele><time>2014-4-28T15:53:29Z</time></trkpt>
<trkpt lat="46.8124496005" lon="6.4944524691"><ele></ele><time>2014-4-28T15:53:32Z</time></trkpt>
<trkpt lat="46.8124113791" lon="6.4944265690"><ele></ele><time>2014-4-28T15:53:35Z</time></trkpt>
<trkpt lat="46.8122848123" lon="6.4942900278"><ele></ele><time>2014-4-28T15:53:38Z</time></trkpt>
<trkpt lat="46.8122501113" lon="6.4942524768"><ele></ele><time>2014-4-28T15:53:41Z</time></trkpt>
<trkpt lat="46.8121952098" lon="6.4942508005"><ele></ele><time>2014-4-28T15:53:44Z</time></trkpt>
<trkpt lat="46.8121336028" lon="6.4941583481"><ele></ele><time>2014-4-28T15:53:47Z</time></trkpt>
<trkpt lat="46.8120619375" lon="6.4940415043"><ele></ele><time>2014-4-28T15:53:50Z</time></trkpt>
<trkpt lat="46.8119994085" lon="6.4939749520"><ele></ele><time>2014-4-28T15:53:53Z</time></trkpt>
<trkpt lat="46.8118195329" lon="6.4939129259"><ele></ele><time>2014-4-28T15:53:56Z</time></trkpt>
<trkpt lat="46.8117191177" lon="6.4938226528"><ele></ele><time>2014-4-28T15:53:59Z</time></trkpt>
<trkpt lat="46.8116488773" lon="6.4937457070"><ele></ele><time>2014-4-28T15:54:2Z</time></trkpt>
<trkpt lat="46.8115595262" lon="6.4936618041"><ele></ele><time>2014-4-28T15:54:5Z</time></trkpt>
<trkpt lat="46.8112204783" lon="6.4936201461"><ele></ele><time>2014-4-28T15:54:8Z</time></trkpt>
<trkpt lat="46.8110621441" lon="6.4935378358"><ele></ele><time>2014-4-28T15:54:11Z</time></trkpt>
<trkpt lat="46.8110043928" lon="6.4935041405"><ele></ele><time>2014-4-28T15:54:14Z</time></trkpt>
<trkpt lat="46.8110058177" lon="6.4934762288"><ele></ele><time>2014-4-28T15:54:17Z</time></trkpt>
<trkpt lat="46.8109173886" lon="6.4934295416"><ele></ele><time>2014-4-28T15:54:20Z</time></trkpt>
<trkpt lat="46.8108279537" lon="6.4933631569"><ele></ele><time>2014-4-28T15:54:23Z</time></trkpt>
<trkpt lat="46.8107448053" lon="6.4932238497"><ele></ele><time>2014-4-28T15:54:26Z</time></trkpt>
<trkpt lat="46.8106101919" lon="6.4930724725"><ele></ele><time>2014-4-28T15:54:29Z</time></trkpt>
<trkpt lat="46.8105621636" lon="6.4930317365"><ele></ele><time>2014-4-28T15:54:32Z</time></trkpt>
<trkpt lat="46.8105156440" lon="6.4929733146"><ele></ele><time>2014-4-28T15:54:35Z</time></trkpt>
<trkpt lat="46.8105046637" lon="6.4929631725"><ele></ele><time>2014-4-28T15:54:38Z</time></trkpt>
<trkpt lat="46.8104457390" lon="6.4928817842"><ele></ele><time>2014-4-28T15:54:41Z</time></trkpt>
<trkpt lat="46.8103753310" lon="6.4928068500"><ele></ele><time>2014-4-28T15:54:44Z</time></trkpt>
<trkpt lat="46.8103564717" lon="6.4926716499"><ele></ele><time>2014-4-28T15:54:47Z</time></trkpt>
<trkpt lat="46.8103273027" lon="6.4924402256"><ele></ele><time>2014-4-28T15:54:50Z</time></trkpt>
<trkpt lat="46.8102206849" lon="6.4922802988"><ele></ele><time>2014-4-28T15:54:53Z</time></trkpt>
<trkpt lat="46.8100191839" lon="6.4921051171"><ele></ele><time>2014-4-28T15:54:56Z</time></trkpt>
<trkpt lat="46.8099657912" lon="6.4920413308"><ele></ele><time>2014-4-28T15:54:59Z</time></trkpt>
<trkpt lat="46.8099273182" lon="6.4919658098"><ele></ele><time>2014-4-28T15:55:2Z</time></trkpt>
<trkpt lat="46.8098747637" lon="6.4919513930"><ele></ele><time>2014-4-28T15:55:5Z</time></trkpt>
<trkpt lat="46.8097562436" lon="6.4919072203"><ele></ele><time>2014-4-28T15:55:8Z</time></trkpt>
<trkpt lat="46.8096261565" lon="6.4918178692"><ele></ele><time>2014-4-28T15:55:11Z</time></trkpt>
<trkpt lat="46.8096016813" lon="6.4917832520"><ele></ele><time>2014-4-28T15:55:14Z</time></trkpt>
<trkpt lat="46.8094411679" lon="6.4917001873"><ele></ele><time>2014-4-28T15:55:17Z</time></trkpt>
<trkpt lat="46.8093455303" lon="6.4916196372"><ele></ele><time>2014-4-28T15:55:20Z</time></trkpt>
<trkpt lat="46.8092329614" lon="6.4914838504"><ele></ele><time>2014-4-28T15:55:23Z</time></trkpt>
<trkpt lat="46.8091589492" lon="6.4914267696"><ele></ele><time>2014-4-28T15:55:26Z</time></trkpt>
<trkpt lat="46.8091247510" lon="6.4912565332"><ele></ele><time>2014-4-28T15:55:29Z</time></trkpt>
<trkpt lat="46.8090829253" lon="6.4912287891"><ele></ele><time>2014-4-28T15:55:32Z</time></trkpt>
<trkpt lat="46.8090058956" lon="6.4911641646"><ele></ele><time>2014-4-28T15:55:35Z</time></trkpt>
<trkpt lat="46.8089193106" lon="6.4909373503"><ele></ele><time>2014-4-28T15:55:38Z</time></trkpt>
<trkpt lat="46.8089042231" lon="6.4909332432"><ele></ele><time>2014-4-28T15:55:41Z</time></trkpt>
<trkpt lat="46.8088289537" lon="6.4908618294"><ele></ele><time>2014-4-28T15:55:44Z</time></trkpt>
<trkpt lat="46.8087209947" lon="6.4908368513"><ele></ele><time>2014-4-28T15:55:47Z</time></trkpt>
<trkpt lat="46.8086079229" lon="6.4905394614"><ele></ele><time>2014-4-28T15:55:50Z</time></trkpt>
<trkpt lat="46.8085647561" lon="6.4903025050"><ele></ele><time>2014-4-28T15:55:53Z</time></trkpt>
<trkpt lat="46.8084713817" lon="6.4901914448"><ele></ele><time>2014-4-28T15:55:56Z</time></trkpt>
<trkpt lat="46.8084424641" lon="6.4901445899"><ele></ele><time>2014-4-28T15:55:59Z</time></trkpt>
<trkpt lat="46.8083117064" lon="6.4900062047"><ele></ele><time>2014-4-28T15:56:2Z</time></trkpt>
<trkpt lat="46.8082335033" lon="6.4900010917"><ele></ele><time>2014-4-28T15:56:5Z</time></trkpt>
<trkpt lat="46.8079854827" lon="6.4899910334"><ele></ele><time>2014-4-28T15:56:8Z</time></trkpt>
<trkpt lat="46.8079083692" lon="6.4898565039"><ele></ele><time>2014-4-28T15:56:11Z</time></trkpt>
<trkpt lat="46.8078225385" lon="6.4896827471"><ele></ele><time>2014-4-28T15:56:14Z</time></trkpt>
<trkpt lat="46.8077450898" lon="6.4895371534"><ele></ele><time>2014-4-28T15:56:17Z</time></trkpt>
<trkpt lat="46.8077256437" lon="6.4895157795"><ele></ele><time>2014-4-28T15:56:20Z</time></trkpt>
<trkpt lat="46.8076978996" lon="6.4893873688"><ele></ele><time>2014-4-28T15:56:23Z</time></trkpt>
<trkpt lat="46.8076777831" lon="6.4893375803"><ele></ele><time>2014-4-28T15:56:26Z</time></trkpt>
<trkpt lat="46.8075992446" lon="6.4892422780"><ele></ele><time>2014-4-28T15:56:29Z</time></trkpt>
<trkpt lat="46.8075850792" lon="6.4892296214"><ele></ele><time>2014-4-28T15:56:32Z</time></trkpt>
<trkpt lat="46.8075495400" lon="6.4891432878"><ele></ele><time>2014-4-28T15:56:35Z</time></trkpt>
<trkpt lat="46.8075292557" lon="6.4891033899"><ele></ele><time>2014-4-28T15:56:38Z</time></trkpt>
<trkpt lat="46.8074357137" lon="6.4889365062"><ele></ele><time>2014-4-28T15:56:41Z</time></trkpt>
<trkpt lat="46.8074026052" lon="6.4886902459"><ele></ele><time>2014-4-28T15:56:44Z</time></trkpt>
<trkpt lat="46.8071524054" lon="6.4885548782"><ele></ele><time>2014-4-28T15:56:47Z</time></trkpt>
<trkpt lat="46.8070152774" lon="6.4884238690"><ele></ele><time>2014-4-28T15:56:50Z</time></trkpt>
<trkpt lat="46.8069372419" lon="6.4883370325"><ele></ele><time>2014-4-28T15:56:53Z</time></trkpt>
<trkpt lat="46.8068565242" lon="6.4882233739"><ele></ele><time>2014-4-28T15:56:56Z</time></trkpt>
<trkpt lat="46.8067565281" lon="6.4880810492"><ele></ele><time>2014-4-28T15:56:59Z</time></trkpt>
<trkpt lat="46.8067457154" lon="6.4880679734"><ele></ele><time>2014-4-28T15:57:2Z</time></trkpt>
<trkpt lat="46.8064563721" lon="6.4880442526"><ele></ele><time>2014-4-28T15:57:5Z</time></trkpt>
<trkpt lat="46.8063021451" lon="6.4879200328"><ele></ele><time>2014-4-28T15:57:8Z</time></trkpt>
<trkpt lat="46.8062536139" lon="6.4879404847"><ele></ele><time>2014-4-28T15:57:11Z</time></trkpt>
<trkpt lat="46.8061930127" lon="6.4878954738"><ele></ele><time>2014-4-28T15:57:14Z</time></trkpt>
<trkpt lat="46.8061777577" lon="6.4877363853"><ele></ele><time>2014-4-28T15:57:17Z</time></trkpt>
<trkpt lat="46.8060563877" lon="6.4874727745"><ele></ele><time>2014-4-28T15:57:20Z</time></trkpt>
<trkpt lat="46.8060225248" lon="6.4874454495"><ele></ele><time>2014-4-28T15:57:23Z</time></trkpt>
<trkpt lat="46.8058401346" lon="6.4873665757"><ele></ele><time>2014-4-28T15:57:26Z</time></trkpt>
<trkpt lat="46.8058299925" lon="6.4873405080"><ele></ele><time>2014-4-28T15:57:29Z</time></trkpt>
<trkpt lat="46.8056637794" lon="6.4871518314"><ele></ele><time>2014-4-28T15:57:32Z</time></trkpt>
<trkpt lat="46.8055559881" lon="6.4870268572"><ele></ele><time>2014-4-28T15:57:35Z</time></trkpt>
<trkpt lat="46.8054358754" lon="6.4869730454"><ele></ele><time>2014-4-28T15:57:38Z</time></trkpt>
<trkpt lat="46.8053142540" lon="6.4868470654"><ele></ele><time>2014-4-28T15:57:41Z</time></trkpt>
<trkpt lat="46.8051068019" lon="6.4868119452"><ele></ele><time>2014-4-28T15:57:44Z</time></trkpt>
<trkpt lat="46.8050497212" lon="6.4867493324"><ele></ele><time>2014-4-28T15:57:47Z</time></trkpt>
<trkpt lat="46.8049321231" lon="6.4864938520"><ele></ele><time>2014-4-28T15:57:50Z</time></trkpt>
<trkpt lat="46.8048844300" lon="6.4863795228"><ele></ele><time>2014-4-28T15:57:53Z</time></trkpt>
<trkpt lat="46.8048432749" lon="6.4861866552"><ele></ele><time>2014-4-28T15:57:56Z</time></trkpt>
<trkpt lat="46.8047870323" lon="6.4861692209"><ele></ele><time>2014-4-28T15:57:59Z</time></trkpt>
<trkpt lat="46.8047870323" lon="6.4861692209"><ele></ele><time>2014-4-28T15:58:2Z</time></trkpt>
<trkpt lat="46.8047856074" lon="6.4861636888"><ele></ele><time>2014-4-28T15:58:5Z</time></trkpt>
<trkpt lat="46.8047856074" lon="6.4861636888"><ele></ele><time>2014-4-28T15:58:8Z</time></trkpt>
<trkpt lat="46.8047773931" lon="6.4861575700"><ele></ele><time>2014-4-28T15:58:11Z</time></trkpt>
<trkpt lat="46.8047509063" lon="6.4860406425"><ele></ele><time>2014-4-28T15:58:14Z</time></trkpt>
<trkpt lat="46.8046612199" lon="6.4859643672"><ele></ele><time>2014-4-28T15:58:17Z</time></trkpt>
<trkpt lat="46.8045919016" lon="6.4859173447"><ele></ele><time>2014-4-28T15:58:20Z</time></trkpt>
<trkpt lat="46.8045771495" lon="6.4857728407"><ele></ele><time>2014-4-28T15:58:23Z</time></trkpt>
<trkpt lat="46.8045468070" lon="6.4857072104"><ele></ele><time>2014-4-28T15:58:26Z</time></trkpt>
<trkpt lat="46.8044727948" lon="6.4856235590"><ele></ele><time>2014-4-28T15:58:29Z</time></trkpt>
<trkpt lat="46.8044572044" lon="6.4855834097"><ele></ele><time>2014-4-28T15:58:32Z</time></trkpt>
<trkpt lat="46.8043022230" lon="6.4854548313"><ele></ele><time>2014-4-28T15:58:35Z</time></trkpt>
<trkpt lat="46.8042853754" lon="6.4854467008"><ele></ele><time>2014-4-28T15:58:38Z</time></trkpt>
<trkpt lat="46.8041277118" lon="6.4852499776"><ele></ele><time>2014-4-28T15:58:41Z</time></trkpt>
<trkpt lat="46.8040073477" lon="6.4850656595"><ele></ele><time>2014-4-28T15:58:44Z</time></trkpt>
<trkpt lat="46.8039219361" lon="6.4849136956"><ele></ele><time>2014-4-28T15:58:47Z</time></trkpt>
<trkpt lat="46.8038288970" lon="6.4848427847"><ele></ele><time>2014-4-28T15:58:50Z</time></trkpt>
<trkpt lat="46.8037602492" lon="6.4847298805"><ele></ele><time>2014-4-28T15:58:53Z</time></trkpt>
<trkpt lat="46.8037206028" lon="6.4846052416"><ele></ele><time>2014-4-28T15:58:56Z</time></trkpt>
<trkpt lat="46.8037009891" lon="6.4845369291"><ele></ele><time>2014-4-28T15:58:59Z</time></trkpt>
<trkpt lat="46.8036905117" lon="6.4845221769"><ele></ele><time>2014-4-28T15:59:2Z</time></trkpt>
<trkpt lat="46.8035763502" lon="6.4842326660"><ele></ele><time>2014-4-28T15:59:5Z</time></trkpt>
<trkpt lat="46.8034942914" lon="6.4840050973"><ele></ele><time>2014-4-28T15:59:8Z</time></trkpt>
<trkpt lat="46.8033713289" lon="6.4837191906"><ele></ele><time>2014-4-28T15:59:11Z</time></trkpt>
<trkpt lat="46.8033646233" lon="6.4837086294"><ele></ele><time>2014-4-28T15:59:14Z</time></trkpt>
<trkpt lat="46.8033172656" lon="6.4835197013"><ele></ele><time>2014-4-28T15:59:17Z</time></trkpt>
<trkpt lat="46.8033144157" lon="6.4833279233"><ele></ele><time>2014-4-28T15:59:20Z</time></trkpt>
<trkpt lat="46.8033114821" lon="6.4833091479"><ele></ele><time>2014-4-28T15:59:23Z</time></trkpt>
<trkpt lat="46.8033114821" lon="6.4833091479"><ele></ele><time>2014-4-28T15:59:26Z</time></trkpt>
<trkpt lat="46.8034598418" lon="6.4830446150"><ele></ele><time>2014-4-28T15:59:29Z</time></trkpt>
<trkpt lat="46.8034746777" lon="6.4830147754"><ele></ele><time>2014-4-28T15:59:32Z</time></trkpt>
<trkpt lat="46.8033849914" lon="6.4830014482"><ele></ele><time>2014-4-28T15:59:35Z</time></trkpt>
<trkpt lat="46.8032320216" lon="6.4829360694"><ele></ele><time>2014-4-28T15:59:38Z</time></trkpt>
<trkpt lat="46.8030695803" lon="6.4828267694"><ele></ele><time>2014-4-28T15:59:41Z</time></trkpt>
<trkpt lat="46.8029163592" lon="6.4827261027"><ele></ele><time>2014-4-28T15:59:44Z</time></trkpt>
<trkpt lat="46.8027999345" lon="6.4825541060"><ele></ele><time>2014-4-28T15:59:47Z</time></trkpt>
<trkpt lat="46.8027888704" lon="6.4825437963"><ele></ele><time>2014-4-28T15:59:50Z</time></trkpt>
<trkpt lat="46.8025506567" lon="6.4822847117"><ele></ele><time>2014-4-28T15:59:53Z</time></trkpt>
<trkpt lat="46.8022581283" lon="6.4821050875"><ele></ele><time>2014-4-28T15:59:56Z</time></trkpt>
<trkpt lat="46.8020785879" lon="6.4819708094"><ele></ele><time>2014-4-28T15:59:59Z</time></trkpt>
<trkpt lat="46.8018827029" lon="6.4819148183"><ele></ele><time>2014-4-28T16:0:2Z</time></trkpt>
<trkpt lat="46.8018129654" lon="6.4818952885"><ele></ele><time>2014-4-28T16:0:5Z</time></trkpt>
<trkpt lat="46.8017782643" lon="6.4818278980"><ele></ele><time>2014-4-28T16:0:8Z</time></trkpt>
<trkpt lat="46.8017993029" lon="6.4815560728"><ele></ele><time>2014-4-28T16:0:11Z</time></trkpt>
<trkpt lat="46.8017201778" lon="6.4813499618"><ele></ele><time>2014-4-28T16:0:14Z</time></trkpt>
<trkpt lat="46.8016840518" lon="6.4812003449"><ele></ele><time>2014-4-28T16:0:17Z</time></trkpt>
<trkpt lat="46.8015917670" lon="6.4811147656"><ele></ele><time>2014-4-28T16:0:20Z</time></trkpt>
<trkpt lat="46.8015669566" lon="6.4810049627"><ele></ele><time>2014-4-28T16:0:23Z</time></trkpt>
<trkpt lat="46.8015934434" lon="6.4808863588"><ele></ele><time>2014-4-28T16:0:26Z</time></trkpt>
<trkpt lat="46.8015817087" lon="6.4807302877"><ele></ele><time>2014-4-28T16:0:29Z</time></trkpt>
<trkpt lat="46.8015103787" lon="6.4807395078"><ele></ele><time>2014-4-28T16:0:32Z</time></trkpt>
<trkpt lat="46.8015103787" lon="6.4807395078"><ele></ele><time>2014-4-28T16:0:35Z</time></trkpt>
<trkpt lat="46.8014529627" lon="6.4807395078"><ele></ele><time>2014-4-28T16:0:38Z</time></trkpt>
<trkpt lat="46.8014529627" lon="6.4807395078"><ele></ele><time>2014-4-28T16:0:41Z</time></trkpt>
<trkpt lat="46.8014529627" lon="6.4807395078"><ele></ele><time>2014-4-28T16:0:44Z</time></trkpt>
<trkpt lat="46.8014009949" lon="6.4807446208"><ele></ele><time>2014-4-28T16:0:47Z</time></trkpt>
<trkpt lat="46.8013619352" lon="6.4807472192"><ele></ele><time>2014-4-28T16:0:50Z</time></trkpt>
<trkpt lat="46.8013619352" lon="6.4807472192"><ele></ele><time>2014-4-28T16:0:53Z</time></trkpt>
<trkpt lat="46.8013267312" lon="6.4807411004"><ele></ele><time>2014-4-28T16:0:56Z</time></trkpt>
<trkpt lat="46.8013267312" lon="6.4807411004"><ele></ele><time>2014-4-28T16:0:59Z</time></trkpt>
<trkpt lat="46.8013267312" lon="6.4807411004"><ele></ele><time>2014-4-28T16:1:2Z</time></trkpt>
<trkpt lat="46.8013274018" lon="6.4807416033"><ele></ele><time>2014-4-28T16:1:5Z</time></trkpt>
<trkpt lat="46.8013274018" lon="6.4807416033"><ele></ele><time>2014-4-28T16:1:8Z</time></trkpt>
<trkpt lat="46.8013196904" lon="6.4807470515"><ele></ele><time>2014-4-28T16:1:11Z</time></trkpt>
<trkpt lat="46.8013149966" lon="6.4807507396"><ele></ele><time>2014-4-28T16:1:14Z</time></trkpt>
<trkpt lat="46.8011905253" lon="6.4806463011"><ele></ele><time>2014-4-28T16:1:17Z</time></trkpt>
<trkpt lat="46.8010726757" lon="6.4805281162"><ele></ele><time>2014-4-28T16:1:20Z</time></trkpt>
<trkpt lat="46.8010244798" lon="6.4804184809"><ele></ele><time>2014-4-28T16:1:23Z</time></trkpt>
<trkpt lat="46.8009311892" lon="6.4803174790"><ele></ele><time>2014-4-28T16:1:26Z</time></trkpt>
<trkpt lat="46.8008192070" lon="6.4802153874"><ele></ele><time>2014-4-28T16:1:29Z</time></trkpt>
<trkpt lat="46.8007747829" lon="6.4801474940"><ele></ele><time>2014-4-28T16:1:32Z</time></trkpt>
<trkpt lat="46.8006800674" lon="6.4799591526"><ele></ele><time>2014-4-28T16:1:35Z</time></trkpt>
<trkpt lat="46.8005304504" lon="6.4798304066"><ele></ele><time>2014-4-28T16:1:38Z</time></trkpt>
<trkpt lat="46.8004903849" lon="6.4796696417"><ele></ele><time>2014-4-28T16:1:41Z</time></trkpt>
<trkpt lat="46.8004350644" lon="6.4795662090"><ele></ele><time>2014-4-28T16:1:44Z</time></trkpt>
<trkpt lat="46.8004089966" lon="6.4794831444"><ele></ele><time>2014-4-28T16:1:47Z</time></trkpt>
<trkpt lat="46.8001732975" lon="6.4792797156"><ele></ele><time>2014-4-28T16:1:50Z</time></trkpt>
<trkpt lat="46.8000367563" lon="6.4791793842"><ele></ele><time>2014-4-28T16:1:53Z</time></trkpt>
<trkpt lat="46.7999862134" lon="6.4790896140"><ele></ele><time>2014-4-28T16:1:56Z</time></trkpt>
<trkpt lat="46.7999519315" lon="6.4790466148"><ele></ele><time>2014-4-28T16:1:59Z</time></trkpt>
<trkpt lat="46.7998961080" lon="6.4789885283"><ele></ele><time>2014-4-28T16:2:2Z</time></trkpt>
<trkpt lat="46.7998910788" lon="6.4789348003"><ele></ele><time>2014-4-28T16:2:5Z</time></trkpt>
<trkpt lat="46.7998904921" lon="6.4786940720"><ele></ele><time>2014-4-28T16:2:8Z</time></trkpt>
<trkpt lat="46.7998509295" lon="6.4784937445"><ele></ele><time>2014-4-28T16:2:11Z</time></trkpt>
<trkpt lat="46.7997867242" lon="6.4784008730"><ele></ele><time>2014-4-28T16:2:14Z</time></trkpt>
<trkpt lat="46.7996925954" lon="6.4782028925"><ele></ele><time>2014-4-28T16:2:17Z</time></trkpt>
<trkpt lat="46.7996358499" lon="6.4780797623"><ele></ele><time>2014-4-28T16:2:20Z</time></trkpt>
<trkpt lat="46.7995765898" lon="6.4778946061"><ele></ele><time>2014-4-28T16:2:23Z</time></trkpt>
<trkpt lat="46.7995093670" lon="6.4777599927"><ele></ele><time>2014-4-28T16:2:26Z</time></trkpt>
<trkpt lat="46.7994790245" lon="6.4777220227"><ele></ele><time>2014-4-28T16:2:29Z</time></trkpt>
<trkpt lat="46.7992734164" lon="6.4775486849"><ele></ele><time>2014-4-28T16:2:32Z</time></trkpt>
<trkpt lat="46.7991719954" lon="6.4775199350"><ele></ele><time>2014-4-28T16:2:35Z</time></trkpt>
<trkpt lat="46.7990499549" lon="6.4774837252"><ele></ele><time>2014-4-28T16:2:38Z</time></trkpt>
<trkpt lat="46.7990499549" lon="6.4774837252"><ele></ele><time>2014-4-28T16:2:41Z</time></trkpt>
<trkpt lat="46.7990499549" lon="6.4774837252"><ele></ele><time>2014-4-28T16:2:44Z</time></trkpt>
<trkpt lat="46.7990569957" lon="6.4774607588"><ele></ele><time>2014-4-28T16:2:47Z</time></trkpt>
<trkpt lat="46.7990569957" lon="6.4774607588"><ele></ele><time>2014-4-28T16:2:50Z</time></trkpt>
<trkpt lat="46.7990632821" lon="6.4774327632"><ele></ele><time>2014-4-28T16:2:53Z</time></trkpt>
<trkpt lat="46.7990491167" lon="6.4773778617"><ele></ele><time>2014-4-28T16:2:56Z</time></trkpt>
<trkpt lat="46.7989891022" lon="6.4773626905"><ele></ele><time>2014-4-28T16:2:59Z</time></trkpt>
<trkpt lat="46.7989777029" lon="6.4773579966"><ele></ele><time>2014-4-28T16:3:2Z</time></trkpt>
<trkpt lat="46.7989777029" lon="6.4773579966"><ele></ele><time>2014-4-28T16:3:5Z</time></trkpt>
<trkpt lat="46.7989633698" lon="6.4773404785"><ele></ele><time>2014-4-28T16:3:8Z</time></trkpt>
<trkpt lat="46.7989633698" lon="6.4773404785"><ele></ele><time>2014-4-28T16:3:11Z</time></trkpt>
<trkpt lat="46.7989636213" lon="6.4773180988"><ele></ele><time>2014-4-28T16:3:14Z</time></trkpt>
<trkpt lat="46.7989649624" lon="6.4773057774"><ele></ele><time>2014-4-28T16:3:17Z</time></trkpt>
<trkpt lat="46.7989632860" lon="6.4772846550"><ele></ele><time>2014-4-28T16:3:20Z</time></trkpt>
<trkpt lat="46.7989632860" lon="6.4772846550"><ele></ele><time>2014-4-28T16:3:23Z</time></trkpt>
<trkpt lat="46.7989597656" lon="6.4772780333"><ele></ele><time>2014-4-28T16:3:26Z</time></trkpt>
<trkpt lat="46.7989618611" lon="6.4772739261"><ele></ele><time>2014-4-28T16:3:29Z</time></trkpt>
<trkpt lat="46.7989618611" lon="6.4772739261"><ele></ele><time>2014-4-28T16:3:32Z</time></trkpt>
<trkpt lat="46.7989622802" lon="6.4772681426"><ele></ele><time>2014-4-28T16:3:35Z</time></trkpt>
<trkpt lat="46.7989622802" lon="6.4772681426"><ele></ele><time>2014-4-28T16:3:38Z</time></trkpt>
<trkpt lat="46.7989621125" lon="6.4772706572"><ele></ele><time>2014-4-28T16:3:41Z</time></trkpt>
<trkpt lat="46.7989629507" lon="6.4772666339"><ele></ele><time>2014-4-28T16:3:44Z</time></trkpt>
<trkpt lat="46.7989629507" lon="6.4772666339"><ele></ele><time>2014-4-28T16:3:47Z</time></trkpt>
<trkpt lat="46.7989658844" lon="6.4772387221"><ele></ele><time>2014-4-28T16:3:50Z</time></trkpt>
<trkpt lat="46.7989658844" lon="6.4772387221"><ele></ele><time>2014-4-28T16:3:53Z</time></trkpt>
<trkpt lat="46.7989626154" lon="6.4772305917"><ele></ele><time>2014-4-28T16:3:56Z</time></trkpt>
<trkpt lat="46.7989615258" lon="6.4772286639"><ele></ele><time>2014-4-28T16:3:59Z</time></trkpt>
<trkpt lat="46.7989615258" lon="6.4772286639"><ele></ele><time>2014-4-28T16:4:2Z</time></trkpt>
<trkpt lat="46.7989637051" lon="6.4772306755"><ele></ele><time>2014-4-28T16:4:5Z</time></trkpt>
<trkpt lat="46.7989627831" lon="6.4772300888"><ele></ele><time>2014-4-28T16:4:8Z</time></trkpt>
<trkpt lat="46.7989627831" lon="6.4772300888"><ele></ele><time>2014-4-28T16:4:11Z</time></trkpt>
<trkpt lat="46.7989602685" lon="6.4772266522"><ele></ele><time>2014-4-28T16:4:14Z</time></trkpt>
<trkpt lat="46.7989542335" lon="6.4772306755"><ele></ele><time>2014-4-28T16:4:17Z</time></trkpt>
<trkpt lat="46.7989542335" lon="6.4772306755"><ele></ele><time>2014-4-28T16:4:20Z</time></trkpt>
<trkpt lat="46.7989489529" lon="6.4772214554"><ele></ele><time>2014-4-28T16:4:23Z</time></trkpt>
<trkpt lat="46.7989463545" lon="6.4772195276"><ele></ele><time>2014-4-28T16:4:26Z</time></trkpt>
<trkpt lat="46.7989471089" lon="6.4772128221"><ele></ele><time>2014-4-28T16:4:29Z</time></trkpt>
<trkpt lat="46.7989471089" lon="6.4772128221"><ele></ele><time>2014-4-28T16:4:32Z</time></trkpt>
<trkpt lat="46.7989471927" lon="6.4772114810"><ele></ele><time>2014-4-28T16:4:35Z</time></trkpt>
<trkpt lat="46.7989478633" lon="6.4772113971"><ele></ele><time>2014-4-28T16:4:38Z</time></trkpt>
<trkpt lat="46.7989478633" lon="6.4772113971"><ele></ele><time>2014-4-28T16:4:41Z</time></trkpt>
<trkpt lat="46.7989479471" lon="6.4772021770"><ele></ele><time>2014-4-28T16:4:44Z</time></trkpt>
<trkpt lat="46.7989479471" lon="6.4772021770"><ele></ele><time>2014-4-28T16:4:47Z</time></trkpt>
<trkpt lat="46.7989427503" lon="6.4771935437"><ele></ele><time>2014-4-28T16:4:50Z</time></trkpt>
<trkpt lat="46.7989329435" lon="6.4772011712"><ele></ele><time>2014-4-28T16:4:53Z</time></trkpt>
<trkpt lat="46.7989538144" lon="6.4771908615"><ele></ele><time>2014-4-28T16:4:56Z</time></trkpt>
<trkpt lat="46.7989538144" lon="6.4771908615"><ele></ele><time>2014-4-28T16:4:59Z</time></trkpt>
<trkpt lat="46.7989568319" lon="6.4771876764"><ele></ele><time>2014-4-28T16:5:2Z</time></trkpt>
<trkpt lat="46.7989362124" lon="6.4772113971"><ele></ele><time>2014-4-28T16:5:5Z</time></trkpt>
<trkpt lat="46.7988948897" lon="6.4771398995"><ele></ele><time>2014-4-28T16:5:8Z</time></trkpt>
<trkpt lat="46.7988851666" lon="6.4771058690"><ele></ele><time>2014-4-28T16:5:11Z</time></trkpt>
<trkpt lat="46.7988590151" lon="6.4769905340"><ele></ele><time>2014-4-28T16:5:14Z</time></trkpt>
<trkpt lat="46.7987790518" lon="6.4768623747"><ele></ele><time>2014-4-28T16:5:17Z</time></trkpt>
<trkpt lat="46.7986777984" lon="6.4768407494"><ele></ele><time>2014-4-28T16:5:20Z</time></trkpt>
<trkpt lat="46.7983801570" lon="6.4766215626"><ele></ele><time>2014-4-28T16:5:23Z</time></trkpt>
<trkpt lat="46.7982175481" lon="6.4764457103"><ele></ele><time>2014-4-28T16:5:26Z</time></trkpt>
<trkpt lat="46.7979986966" lon="6.4762051497"><ele></ele><time>2014-4-28T16:5:29Z</time></trkpt>
<trkpt lat="46.7978317291" lon="6.4759828616"><ele></ele><time>2014-4-28T16:5:32Z</time></trkpt>
<trkpt lat="46.7976789270" lon="6.4757357631"><ele></ele><time>2014-4-28T16:5:35Z</time></trkpt>
<trkpt lat="46.7976652645" lon="6.4756951947"><ele></ele><time>2014-4-28T16:5:38Z</time></trkpt>
<trkpt lat="46.7975867260" lon="6.4756241161"><ele></ele><time>2014-4-28T16:5:41Z</time></trkpt>
<trkpt lat="46.7974563036" lon="6.4755870681"><ele></ele><time>2014-4-28T16:5:44Z</time></trkpt>
<trkpt lat="46.7974185850" lon="6.4755081944"><ele></ele><time>2014-4-28T16:5:47Z</time></trkpt>
<trkpt lat="46.7973397113" lon="6.4753983077"><ele></ele><time>2014-4-28T16:5:50Z</time></trkpt>
<trkpt lat="46.7972256336" lon="6.4752057754"><ele></ele><time>2014-4-28T16:5:53Z</time></trkpt>
<trkpt lat="46.7971567344" lon="6.4750331920"><ele></ele><time>2014-4-28T16:5:56Z</time></trkpt>
<trkpt lat="46.7970630247" lon="6.4748287573"><ele></ele><time>2014-4-28T16:5:59Z</time></trkpt>
<trkpt lat="46.7969740927" lon="6.4746134263"><ele></ele><time>2014-4-28T16:6:2Z</time></trkpt>
<trkpt lat="46.7968528904" lon="6.4743354823"><ele></ele><time>2014-4-28T16:6:5Z</time></trkpt>
<trkpt lat="46.7967609409" lon="6.4740805048"><ele></ele><time>2014-4-28T16:6:8Z</time></trkpt>
<trkpt lat="46.7965929676" lon="6.4737006370"><ele></ele><time>2014-4-28T16:6:11Z</time></trkpt>
<trkpt lat="46.7964360584" lon="6.4734433126"><ele></ele><time>2014-4-28T16:6:14Z</time></trkpt>
<trkpt lat="46.7963271774" lon="6.4732215274"><ele></ele><time>2014-4-28T16:6:17Z</time></trkpt>
<trkpt lat="46.7963032052" lon="6.4731940348"><ele></ele><time>2014-4-28T16:6:20Z</time></trkpt>
<trkpt lat="46.7962977570" lon="6.4731877483"><ele></ele><time>2014-4-28T16:6:23Z</time></trkpt>
<trkpt lat="46.7962929793" lon="6.4731622674"><ele></ele><time>2014-4-28T16:6:26Z</time></trkpt>
<trkpt lat="46.7962859385" lon="6.4731492754"><ele></ele><time>2014-4-28T16:6:29Z</time></trkpt>
<trkpt lat="46.7962623015" lon="6.4731053542"><ele></ele><time>2014-4-28T16:6:32Z</time></trkpt>
<trkpt lat="46.7962683365" lon="6.4730636124"><ele></ele><time>2014-4-28T16:6:35Z</time></trkpt>
<trkpt lat="46.7962449510" lon="6.4729982335"><ele></ele><time>2014-4-28T16:6:38Z</time></trkpt>
<trkpt lat="46.7962249182" lon="6.4730010834"><ele></ele><time>2014-4-28T16:6:41Z</time></trkpt>
<trkpt lat="46.7961919773" lon="6.4730158355"><ele></ele><time>2014-4-28T16:6:44Z</time></trkpt>
<trkpt lat="46.7961919773" lon="6.4730158355"><ele></ele><time>2014-4-28T16:6:47Z</time></trkpt>
<trkpt lat="46.7961892951" lon="6.4730149973"><ele></ele><time>2014-4-28T16:6:50Z</time></trkpt>
<trkpt lat="46.7961892951" lon="6.4730149973"><ele></ele><time>2014-4-28T16:6:53Z</time></trkpt>
<trkpt lat="46.7961933184" lon="6.4730078727"><ele></ele><time>2014-4-28T16:6:56Z</time></trkpt>
<trkpt lat="46.7963123415" lon="6.4729198627"><ele></ele><time>2014-4-28T16:6:59Z</time></trkpt>
<trkpt lat="46.7968118191" lon="6.4725913759"><ele></ele><time>2014-4-28T16:7:2Z</time></trkpt>
<trkpt lat="46.7974539567" lon="6.4722063951"><ele></ele><time>2014-4-28T16:7:5Z</time></trkpt>
<trkpt lat="46.7974916752" lon="6.4721863624"><ele></ele><time>2014-4-28T16:7:8Z</time></trkpt>
<trkpt lat="46.7974725645" lon="6.4721250068"><ele></ele><time>2014-4-28T16:7:11Z</time></trkpt>
<trkpt lat="46.7971743364" lon="6.4719778206"><ele></ele><time>2014-4-28T16:7:14Z</time></trkpt>
<trkpt lat="46.7969732545" lon="6.4718310535"><ele></ele><time>2014-4-28T16:7:17Z</time></trkpt>
<trkpt lat="46.7966486234" lon="6.4716224279"><ele></ele><time>2014-4-28T16:7:20Z</time></trkpt>
<trkpt lat="46.7962740362" lon="6.4713346772"><ele></ele><time>2014-4-28T16:7:23Z</time></trkpt>
<trkpt lat="46.7959094234" lon="6.4710370358"><ele></ele><time>2014-4-28T16:7:26Z</time></trkpt>
<trkpt lat="46.7955483310" lon="6.4707122371"><ele></ele><time>2014-4-28T16:7:29Z</time></trkpt>
<trkpt lat="46.7952029966" lon="6.4703527372"><ele></ele><time>2014-4-28T16:7:32Z</time></trkpt>
<trkpt lat="46.7948373780" lon="6.4699808322"><ele></ele><time>2014-4-28T16:7:35Z</time></trkpt>
<trkpt lat="46.7944687419" lon="6.4695987012"><ele></ele><time>2014-4-28T16:7:38Z</time></trkpt>
<trkpt lat="46.7941623833" lon="6.4692391176"><ele></ele><time>2014-4-28T16:7:41Z</time></trkpt>
<trkpt lat="46.7939011194" lon="6.4689490199"><ele></ele><time>2014-4-28T16:7:44Z</time></trkpt>
<trkpt lat="46.7936897278" lon="6.4687310066"><ele></ele><time>2014-4-28T16:7:47Z</time></trkpt>
<trkpt lat="46.7934759893" lon="6.4685948845"><ele></ele><time>2014-4-28T16:7:50Z</time></trkpt>
<trkpt lat="46.7932781763" lon="6.4684248157"><ele></ele><time>2014-4-28T16:7:53Z</time></trkpt>
<trkpt lat="46.7930400465" lon="6.4682891965"><ele></ele><time>2014-4-28T16:7:56Z</time></trkpt>
<trkpt lat="46.7928672116" lon="6.4680828340"><ele></ele><time>2014-4-28T16:7:59Z</time></trkpt>
<trkpt lat="46.7927023396" lon="6.4678750467"><ele></ele><time>2014-4-28T16:8:2Z</time></trkpt>
<trkpt lat="46.7925478611" lon="6.4677001163"><ele></ele><time>2014-4-28T16:8:5Z</time></trkpt>
<trkpt lat="46.7922812328" lon="6.4675209951"><ele></ele><time>2014-4-28T16:8:8Z</time></trkpt>
<trkpt lat="46.7921413388" lon="6.4673733898"><ele></ele><time>2014-4-28T16:8:11Z</time></trkpt>
<trkpt lat="46.7920123413" lon="6.4672571328"><ele></ele><time>2014-4-28T16:8:14Z</time></trkpt>
<trkpt lat="46.7919594515" lon="6.4672165643"><ele></ele><time>2014-4-28T16:8:17Z</time></trkpt>
<trkpt lat="46.7919750419" lon="6.4673870523"><ele></ele><time>2014-4-28T16:8:20Z</time></trkpt>
<trkpt lat="46.7919729464" lon="6.4674883895"><ele></ele><time>2014-4-28T16:8:23Z</time></trkpt>
<trkpt lat="46.7920839228" lon="6.4676117711"><ele></ele><time>2014-4-28T16:8:26Z</time></trkpt>
<trkpt lat="46.7922293488" lon="6.4677912276"><ele></ele><time>2014-4-28T16:8:29Z</time></trkpt>
<trkpt lat="46.7922994215" lon="6.4679455385"><ele></ele><time>2014-4-28T16:8:32Z</time></trkpt>
<trkpt lat="46.7923469469" lon="6.4680881985"><ele></ele><time>2014-4-28T16:8:35Z</time></trkpt>
<trkpt lat="46.7923859227" lon="6.4681584388"><ele></ele><time>2014-4-28T16:8:38Z</time></trkpt>
<trkpt lat="46.7924182769" lon="6.4682170283"><ele></ele><time>2014-4-28T16:8:41Z</time></trkpt>
<trkpt lat="46.7925413232" lon="6.4684208762"><ele></ele><time>2014-4-28T16:8:44Z</time></trkpt>
<trkpt lat="46.7926263995" lon="6.4685958903"><ele></ele><time>2014-4-28T16:8:47Z</time></trkpt>
<trkpt lat="46.7927458417" lon="6.4687640313"><ele></ele><time>2014-4-28T16:8:50Z</time></trkpt>
<trkpt lat="46.7928354442" lon="6.4689199347"><ele></ele><time>2014-4-28T16:8:53Z</time></trkpt>
<trkpt lat="46.7928941175" lon="6.4690111298"><ele></ele><time>2014-4-28T16:8:56Z</time></trkpt>
<trkpt lat="46.7929594126" lon="6.4691605791"><ele></ele><time>2014-4-28T16:8:59Z</time></trkpt>
<trkpt lat="46.7929848097" lon="6.4691908378"><ele></ele><time>2014-4-28T16:9:2Z</time></trkpt>
<trkpt lat="46.7930452432" lon="6.4692889061"><ele></ele><time>2014-4-28T16:9:5Z</time></trkpt>
<trkpt lat="46.7930732388" lon="6.4693253674"><ele></ele><time>2014-4-28T16:9:8Z</time></trkpt>
<trkpt lat="46.7931779288" lon="6.4695072547"><ele></ele><time>2014-4-28T16:9:11Z</time></trkpt>
<trkpt lat="46.7932694592" lon="6.4696192369"><ele></ele><time>2014-4-28T16:9:14Z</time></trkpt>
<trkpt lat="46.7933261208" lon="6.4697396848"><ele></ele><time>2014-4-28T16:9:17Z</time></trkpt>
<trkpt lat="46.7933876440" lon="6.4699273556"><ele></ele><time>2014-4-28T16:9:20Z</time></trkpt>
<trkpt lat="46.7934480775" lon="6.4700139407"><ele></ele><time>2014-4-28T16:9:23Z</time></trkpt>
<trkpt lat="46.7934994586" lon="6.4701375738"><ele></ele><time>2014-4-28T16:9:26Z</time></trkpt>
<trkpt lat="46.7935456429" lon="6.4702499751"><ele></ele><time>2014-4-28T16:9:29Z</time></trkpt>
<trkpt lat="46.7936257739" lon="6.4703945629"><ele></ele><time>2014-4-28T16:9:32Z</time></trkpt>
<trkpt lat="46.7937095091" lon="6.4705392346"><ele></ele><time>2014-4-28T16:9:35Z</time></trkpt>
<trkpt lat="46.7937901430" lon="6.4707025979"><ele></ele><time>2014-4-28T16:9:38Z</time></trkpt>
<trkpt lat="46.7938578688" lon="6.4708476048"><ele></ele><time>2014-4-28T16:9:41Z</time></trkpt>
<trkpt lat="46.7939072382" lon="6.4709921088"><ele></ele><time>2014-4-28T16:9:44Z</time></trkpt>
<trkpt lat="46.7939133570" lon="6.4710241277"><ele></ele><time>2014-4-28T16:9:47Z</time></trkpt>
<trkpt lat="46.7939364910" lon="6.4710888360"><ele></ele><time>2014-4-28T16:9:50Z</time></trkpt>
<trkpt lat="46.7940000258" lon="6.4712722320"><ele></ele><time>2014-4-28T16:9:53Z</time></trkpt>
<trkpt lat="46.7940643150" lon="6.4715027343"><ele></ele><time>2014-4-28T16:9:56Z</time></trkpt>
<trkpt lat="46.7940576933" lon="6.4715506788"><ele></ele><time>2014-4-28T16:9:59Z</time></trkpt>
<trkpt lat="46.7941266764" lon="6.4717703685"><ele></ele><time>2014-4-28T16:10:2Z</time></trkpt>
<trkpt lat="46.7942008562" lon="6.4718990307"><ele></ele><time>2014-4-28T16:10:5Z</time></trkpt>
<trkpt lat="46.7942678276" lon="6.4720560238"><ele></ele><time>2014-4-28T16:10:8Z</time></trkpt>
<trkpt lat="46.7942700069" lon="6.4720722008"><ele></ele><time>2014-4-28T16:10:11Z</time></trkpt>
<trkpt lat="46.7943259981" lon="6.4722876996"><ele></ele><time>2014-4-28T16:10:14Z</time></trkpt>
<trkpt lat="46.7943684943" lon="6.4724549185"><ele></ele><time>2014-4-28T16:10:17Z</time></trkpt>
<trkpt lat="46.7944133375" lon="6.4725530706"><ele></ele><time>2014-4-28T16:10:20Z</time></trkpt>
<trkpt lat="46.7944503017" lon="6.4726736024"><ele></ele><time>2014-4-28T16:10:23Z</time></trkpt>
<trkpt lat="46.7944978271" lon="6.4727782924"><ele></ele><time>2014-4-28T16:10:26Z</time></trkpt>
<trkpt lat="46.7945293430" lon="6.4729473554"><ele></ele><time>2014-4-28T16:10:29Z</time></trkpt>
<trkpt lat="46.7945705820" lon="6.4730509557"><ele></ele><time>2014-4-28T16:10:32Z</time></trkpt>
<trkpt lat="46.7946252320" lon="6.4731632732"><ele></ele><time>2014-4-28T16:10:35Z</time></trkpt>
<trkpt lat="46.7946531437" lon="6.4732879959"><ele></ele><time>2014-4-28T16:10:38Z</time></trkpt>
<trkpt lat="46.7946409062" lon="6.4735348430"><ele></ele><time>2014-4-28T16:10:41Z</time></trkpt>
<trkpt lat="46.7946835700" lon="6.4736179914"><ele></ele><time>2014-4-28T16:10:44Z</time></trkpt>
<trkpt lat="46.7947020940" lon="6.4737051632"><ele></ele><time>2014-4-28T16:10:47Z</time></trkpt>
<trkpt lat="46.7947475240" lon="6.4738008007"><ele></ele><time>2014-4-28T16:10:50Z</time></trkpt>
<trkpt lat="46.7947582528" lon="6.4739608951"><ele></ele><time>2014-4-28T16:10:53Z</time></trkpt>
<trkpt lat="46.7947594263" lon="6.4740103483"><ele></ele><time>2014-4-28T16:10:56Z</time></trkpt>
<trkpt lat="46.7947594263" lon="6.4740103483"><ele></ele><time>2014-4-28T16:10:59Z</time></trkpt>
<trkpt lat="46.7947486974" lon="6.4740433730"><ele></ele><time>2014-4-28T16:11:2Z</time></trkpt>
<trkpt lat="46.7947486974" lon="6.4740433730"><ele></ele><time>2014-4-28T16:11:5Z</time></trkpt>
<trkpt lat="46.7947496194" lon="6.4740494918"><ele></ele><time>2014-4-28T16:11:8Z</time></trkpt>
<trkpt lat="46.7947496194" lon="6.4740494918"><ele></ele><time>2014-4-28T16:11:11Z</time></trkpt>
<trkpt lat="46.7947524693" lon="6.4740915690"><ele></ele><time>2014-4-28T16:11:14Z</time></trkpt>
<trkpt lat="46.7947682273" lon="6.4743013680"><ele></ele><time>2014-4-28T16:11:17Z</time></trkpt>
<trkpt lat="46.7947787046" lon="6.4744498115"><ele></ele><time>2014-4-28T16:11:20Z</time></trkpt>
<trkpt lat="46.7948048562" lon="6.4746112470"><ele></ele><time>2014-4-28T16:11:23Z</time></trkpt>
<trkpt lat="46.7948363721" lon="6.4747592714"><ele></ele><time>2014-4-28T16:11:26Z</time></trkpt>
<trkpt lat="46.7948417366" lon="6.4749098103"><ele></ele><time>2014-4-28T16:11:29Z</time></trkpt>
<trkpt lat="46.7948374618" lon="6.4749461878"><ele></ele><time>2014-4-28T16:11:32Z</time></trkpt>
<trkpt lat="46.7948636971" lon="6.4751663804"><ele></ele><time>2014-4-28T16:11:35Z</time></trkpt>
<trkpt lat="46.7948704865" lon="6.4753257204"><ele></ele><time>2014-4-28T16:11:38Z</time></trkpt>
<trkpt lat="46.7948765215" lon="6.4753850643"><ele></ele><time>2014-4-28T16:11:41Z</time></trkpt>
<trkpt lat="46.7948868312" lon="6.4755864814"><ele></ele><time>2014-4-28T16:11:44Z</time></trkpt>
<trkpt lat="46.7948543932" lon="6.4759161416"><ele></ele><time>2014-4-28T16:11:47Z</time></trkpt>
<trkpt lat="46.7948545609" lon="6.4760915749"><ele></ele><time>2014-4-28T16:11:50Z</time></trkpt>
<trkpt lat="46.7948638648" lon="6.4762116037"><ele></ele><time>2014-4-28T16:11:53Z</time></trkpt>
<trkpt lat="46.7948703188" lon="6.4763576165"><ele></ele><time>2014-4-28T16:11:56Z</time></trkpt>
<trkpt lat="46.7948751803" lon="6.4764263481"><ele></ele><time>2014-4-28T16:11:59Z</time></trkpt>
<trkpt lat="46.7948996555" lon="6.4765504841"><ele></ele><time>2014-4-28T16:12:2Z</time></trkpt>
<trkpt lat="46.7948662117" lon="6.4766614605"><ele></ele><time>2014-4-28T16:12:5Z</time></trkpt>
<trkpt lat="46.7948979791" lon="6.4769198745"><ele></ele><time>2014-4-28T16:12:8Z</time></trkpt>
<trkpt lat="46.7948481906" lon="6.4771464374"><ele></ele><time>2014-4-28T16:12:11Z</time></trkpt>
<trkpt lat="46.7948442511" lon="6.4772855770"><ele></ele><time>2014-4-28T16:12:14Z</time></trkpt>
<trkpt lat="46.7948424071" lon="6.4773787837"><ele></ele><time>2014-4-28T16:12:17Z</time></trkpt>
<trkpt lat="46.7948419880" lon="6.4775009919"><ele></ele><time>2014-4-28T16:12:20Z</time></trkpt>
<trkpt lat="46.7948496994" lon="6.4776191767"><ele></ele><time>2014-4-28T16:12:23Z</time></trkpt>
<trkpt lat="46.7948735878" lon="6.4778232761"><ele></ele><time>2014-4-28T16:12:26Z</time></trkpt>
<trkpt lat="46.7948908545" lon="6.4779925067"><ele></ele><time>2014-4-28T16:12:29Z</time></trkpt>
<trkpt lat="46.7949300818" lon="6.4780738950"><ele></ele><time>2014-4-28T16:12:32Z</time></trkpt>
<trkpt lat="46.7949263938" lon="6.4780875575"><ele></ele><time>2014-4-28T16:12:35Z</time></trkpt>
<trkpt lat="46.7949263938" lon="6.4780875575"><ele></ele><time>2014-4-28T16:12:38Z</time></trkpt>
<trkpt lat="46.7949352786" lon="6.4781248569"><ele></ele><time>2014-4-28T16:12:41Z</time></trkpt>
<trkpt lat="46.7949703988" lon="6.4782365039"><ele></ele><time>2014-4-28T16:12:44Z</time></trkpt>
<trkpt lat="46.7950224504" lon="6.4783559460"><ele></ele><time>2014-4-28T16:12:47Z</time></trkpt>
<trkpt lat="46.7950585764" lon="6.4784867037"><ele></ele><time>2014-4-28T16:12:50Z</time></trkpt>
<trkpt lat="46.7950615939" lon="6.4785123523"><ele></ele><time>2014-4-28T16:12:53Z</time></trkpt>
<trkpt lat="46.7951141484" lon="6.4785590395"><ele></ele><time>2014-4-28T16:12:56Z</time></trkpt>
<trkpt lat="46.7951320019" lon="6.4786446188"><ele></ele><time>2014-4-28T16:12:59Z</time></trkpt>
<trkpt lat="46.7951051798" lon="6.4788815752"><ele></ele><time>2014-4-28T16:13:2Z</time></trkpt>
<trkpt lat="46.7951016594" lon="6.4790750295"><ele></ele><time>2014-4-28T16:13:5Z</time></trkpt>
<trkpt lat="46.7950941995" lon="6.4791563340"><ele></ele><time>2014-4-28T16:13:8Z</time></trkpt>
<trkpt lat="46.7950300779" lon="6.4793510456"><ele></ele><time>2014-4-28T16:13:11Z</time></trkpt>
<trkpt lat="46.7950216960" lon="6.4794004988"><ele></ele><time>2014-4-28T16:13:14Z</time></trkpt>
<trkpt lat="46.7950216960" lon="6.4794004988"><ele></ele><time>2014-4-28T16:13:17Z</time></trkpt>
<trkpt lat="46.7950170022" lon="6.4794004988"><ele></ele><time>2014-4-28T16:13:20Z</time></trkpt>
<trkpt lat="46.7950170022" lon="6.4794004988"><ele></ele><time>2014-4-28T16:13:23Z</time></trkpt>
<trkpt lat="46.7950180080" lon="6.4794020914"><ele></ele><time>2014-4-28T16:13:26Z</time></trkpt>
<trkpt lat="46.7950154096" lon="6.4794647042"><ele></ele><time>2014-4-28T16:13:29Z</time></trkpt>
<trkpt lat="46.7950245459" lon="6.4795724116"><ele></ele><time>2014-4-28T16:13:32Z</time></trkpt>
<trkpt lat="46.7950900085" lon="6.4797766786"><ele></ele><time>2014-4-28T16:13:35Z</time></trkpt>
<trkpt lat="46.7951659486" lon="6.4800024033"><ele></ele><time>2014-4-28T16:13:38Z</time></trkpt>
<trkpt lat="46.7952273879" lon="6.4801671077"><ele></ele><time>2014-4-28T16:13:41Z</time></trkpt>
<trkpt lat="46.7952786013" lon="6.4802970272"><ele></ele><time>2014-4-28T16:13:44Z</time></trkpt>
<trkpt lat="46.7952875700" lon="6.4804999530"><ele></ele><time>2014-4-28T16:13:47Z</time></trkpt>
<trkpt lat="46.7953396216" lon="6.4807106741"><ele></ele><time>2014-4-28T16:13:50Z</time></trkpt>
<trkpt lat="46.7954319064" lon="6.4809635561"><ele></ele><time>2014-4-28T16:13:53Z</time></trkpt>
<trkpt lat="46.7955231015" lon="6.4812381472"><ele></ele><time>2014-4-28T16:13:56Z</time></trkpt>
<trkpt lat="46.7955879774" lon="6.4814027678"><ele></ele><time>2014-4-28T16:13:59Z</time></trkpt>
<trkpt lat="46.7955879774" lon="6.4814027678"><ele></ele><time>2014-4-28T16:14:2Z</time></trkpt>
<trkpt lat="46.7955930065" lon="6.4814300090"><ele></ele><time>2014-4-28T16:14:5Z</time></trkpt>
<trkpt lat="46.7956676055" lon="6.4816746768"><ele></ele><time>2014-4-28T16:14:8Z</time></trkpt>
<trkpt lat="46.7957230099" lon="6.4818903431"><ele></ele><time>2014-4-28T16:14:11Z</time></trkpt>
<trkpt lat="46.7957359180" lon="6.4819905069"><ele></ele><time>2014-4-28T16:14:14Z</time></trkpt>
<trkpt lat="46.7957382649" lon="6.4820664469"><ele></ele><time>2014-4-28T16:14:17Z</time></trkpt>
<trkpt lat="46.7957592197" lon="6.4822614938"><ele></ele><time>2014-4-28T16:14:20Z</time></trkpt>
<trkpt lat="46.7957572080" lon="6.4823127910"><ele></ele><time>2014-4-28T16:14:23Z</time></trkpt>
<trkpt lat="46.7957893107" lon="6.4824594744"><ele></ele><time>2014-4-28T16:14:26Z</time></trkpt>
<trkpt lat="46.7957889754" lon="6.4827726223"><ele></ele><time>2014-4-28T16:14:29Z</time></trkpt>
<trkpt lat="46.7958627362" lon="6.4831410069"><ele></ele><time>2014-4-28T16:14:32Z</time></trkpt>
<trkpt lat="46.7959245946" lon="6.4833981637"><ele></ele><time>2014-4-28T16:14:35Z</time></trkpt>
<trkpt lat="46.7959245946" lon="6.4834175259"><ele></ele><time>2014-4-28T16:14:38Z</time></trkpt>
<trkpt lat="46.7959125247" lon="6.4834605251"><ele></ele><time>2014-4-28T16:14:41Z</time></trkpt>
<trkpt lat="46.7958814278" lon="6.4836753532"><ele></ele><time>2014-4-28T16:14:44Z</time></trkpt>
<trkpt lat="46.7958749738" lon="6.4838281553"><ele></ele><time>2014-4-28T16:14:47Z</time></trkpt>
<trkpt lat="46.7959126923" lon="6.4841827098"><ele></ele><time>2014-4-28T16:14:50Z</time></trkpt>
<trkpt lat="46.7959774844" lon="6.4845977817"><ele></ele><time>2014-4-28T16:14:53Z</time></trkpt>
<trkpt lat="46.7960162926" lon="6.4849041402"><ele></ele><time>2014-4-28T16:14:56Z</time></trkpt>
<trkpt lat="46.7960605491" lon="6.4850410167"><ele></ele><time>2014-4-28T16:14:59Z</time></trkpt>
<trkpt lat="46.7961054761" lon="6.4851541724"><ele></ele><time>2014-4-28T16:15:2Z</time></trkpt>
<trkpt lat="46.7961570248" lon="6.4852896240"><ele></ele><time>2014-4-28T16:15:5Z</time></trkpt>
<trkpt lat="46.7961930670" lon="6.4856080525"><ele></ele><time>2014-4-28T16:15:8Z</time></trkpt>
<trkpt lat="46.7961943243" lon="6.4859626070"><ele></ele><time>2014-4-28T16:15:11Z</time></trkpt>
<trkpt lat="46.7962877825" lon="6.4861757588"><ele></ele><time>2014-4-28T16:15:14Z</time></trkpt>
<trkpt lat="46.7963643093" lon="6.4863805287"><ele></ele><time>2014-4-28T16:15:17Z</time></trkpt>
<trkpt lat="46.7963828333" lon="6.4864256233"><ele></ele><time>2014-4-28T16:15:20Z</time></trkpt>
<trkpt lat="46.7964798119" lon="6.4866830315"><ele></ele><time>2014-4-28T16:15:23Z</time></trkpt>
<trkpt lat="46.7965527344" lon="6.4868234284"><ele></ele><time>2014-4-28T16:15:26Z</time></trkpt>
<trkpt lat="46.7965555005" lon="6.4868444670"><ele></ele><time>2014-4-28T16:15:29Z</time></trkpt>
<trkpt lat="46.7965642177" lon="6.4868812636"><ele></ele><time>2014-4-28T16:15:32Z</time></trkpt>
<trkpt lat="46.7965768743" lon="6.4869095944"><ele></ele><time>2014-4-28T16:15:35Z</time></trkpt>
<trkpt lat="46.7965861782" lon="6.4869563654"><ele></ele><time>2014-4-28T16:15:38Z</time></trkpt>
<trkpt lat="46.7966207117" lon="6.4870321378"><ele></ele><time>2014-4-28T16:15:41Z</time></trkpt>
<trkpt lat="46.7966438457" lon="6.4870720357"><ele></ele><time>2014-4-28T16:15:44Z</time></trkpt>
<trkpt lat="46.7967063747" lon="6.4872003626"><ele></ele><time>2014-4-28T16:15:47Z</time></trkpt>
<trkpt lat="46.7967473622" lon="6.4873251691"><ele></ele><time>2014-4-28T16:15:50Z</time></trkpt>
<trkpt lat="46.7967565823" lon="6.4873488899"><ele></ele><time>2014-4-28T16:15:53Z</time></trkpt>
<trkpt lat="46.7967668083" lon="6.4874584414"><ele></ele><time>2014-4-28T16:15:56Z</time></trkpt>
<trkpt lat="46.7967836559" lon="6.4875816554"><ele></ele><time>2014-4-28T16:15:59Z</time></trkpt>
<trkpt lat="46.7967986595" lon="6.4876967389"><ele></ele><time>2014-4-28T16:16:2Z</time></trkpt>
<trkpt lat="46.7967987433" lon="6.4877023548"><ele></ele><time>2014-4-28T16:16:5Z</time></trkpt>
<trkpt lat="46.7968373001" lon="6.4878333639"><ele></ele><time>2014-4-28T16:16:8Z</time></trkpt>
<trkpt lat="46.7968768626" lon="6.4880684763"><ele></ele><time>2014-4-28T16:16:11Z</time></trkpt>
<trkpt lat="46.7968720850" lon="6.4880977292"><ele></ele><time>2014-4-28T16:16:14Z</time></trkpt>
<trkpt lat="46.7968664691" lon="6.4881258085"><ele></ele><time>2014-4-28T16:16:17Z</time></trkpt>
<trkpt lat="46.7968486995" lon="6.4881838113"><ele></ele><time>2014-4-28T16:16:20Z</time></trkpt>
<trkpt lat="46.7968486995" lon="6.4881838113"><ele></ele><time>2014-4-28T16:16:23Z</time></trkpt>
<trkpt lat="46.7968486995" lon="6.4881838113"><ele></ele><time>2014-4-28T16:16:26Z</time></trkpt>
<trkpt lat="46.7968484480" lon="6.4881834760"><ele></ele><time>2014-4-28T16:16:29Z</time></trkpt>
<trkpt lat="46.7968484480" lon="6.4881834760"><ele></ele><time>2014-4-28T16:16:32Z</time></trkpt>
<trkpt lat="46.7968484480" lon="6.4881834760"><ele></ele><time>2014-4-28T16:16:35Z</time></trkpt>
<trkpt lat="46.7968502082" lon="6.4881921094"><ele></ele><time>2014-4-28T16:16:38Z</time></trkpt>
<trkpt lat="46.7968502082" lon="6.4881921094"><ele></ele><time>2014-4-28T16:16:41Z</time></trkpt>
<trkpt lat="46.7968519684" lon="6.4882035088"><ele></ele><time>2014-4-28T16:16:44Z</time></trkpt>
<trkpt lat="46.7968519684" lon="6.4882035088"><ele></ele><time>2014-4-28T16:16:47Z</time></trkpt>
<trkpt lat="46.7968519684" lon="6.4882035088"><ele></ele><time>2014-4-28T16:16:50Z</time></trkpt>
<trkpt lat="46.7968534771" lon="6.4882038441"><ele></ele><time>2014-4-28T16:16:53Z</time></trkpt>
<trkpt lat="46.7968534771" lon="6.4882038441"><ele></ele><time>2014-4-28T16:16:56Z</time></trkpt>
<trkpt lat="46.7968534771" lon="6.4882038441"><ele></ele><time>2014-4-28T16:16:59Z</time></trkpt>
<trkpt lat="46.7968534771" lon="6.4882038441"><ele></ele><time>2014-4-28T16:17:2Z</time></trkpt>
<trkpt lat="46.7968523037" lon="6.4882068615"><ele></ele><time>2014-4-28T16:17:5Z</time></trkpt>
<trkpt lat="46.7968523037" lon="6.4882068615"><ele></ele><time>2014-4-28T16:17:8Z</time></trkpt>
<trkpt lat="46.7968523037" lon="6.4882068615"><ele></ele><time>2014-4-28T16:17:11Z</time></trkpt>
<trkpt lat="46.7968531419" lon="6.4882026706"><ele></ele><time>2014-4-28T16:17:14Z</time></trkpt>
<trkpt lat="46.7968531419" lon="6.4882026706"><ele></ele><time>2014-4-28T16:17:17Z</time></trkpt>
<trkpt lat="46.7968531419" lon="6.4882026706"><ele></ele><time>2014-4-28T16:17:20Z</time></trkpt>
<trkpt lat="46.7968494538" lon="6.4882097952"><ele></ele><time>2014-4-28T16:17:23Z</time></trkpt>
<trkpt lat="46.7968494538" lon="6.4882097952"><ele></ele><time>2014-4-28T16:17:26Z</time></trkpt>
<trkpt lat="46.7968494538" lon="6.4882097952"><ele></ele><time>2014-4-28T16:17:29Z</time></trkpt>
<trkpt lat="46.7968547344" lon="6.4882064424"><ele></ele><time>2014-4-28T16:17:32Z</time></trkpt>
<trkpt lat="46.7968547344" lon="6.4882064424"><ele></ele><time>2014-4-28T16:17:35Z</time></trkpt>
<trkpt lat="46.7968544830" lon="6.4882123936"><ele></ele><time>2014-4-28T16:17:38Z</time></trkpt>
<trkpt lat="46.7968544830" lon="6.4882123936"><ele></ele><time>2014-4-28T16:17:41Z</time></trkpt>
<trkpt lat="46.7968505435" lon="6.4882062748"><ele></ele><time>2014-4-28T16:17:44Z</time></trkpt>
<trkpt lat="46.7968505435" lon="6.4882062748"><ele></ele><time>2014-4-28T16:17:47Z</time></trkpt>
<trkpt lat="46.7968505435" lon="6.4882062748"><ele></ele><time>2014-4-28T16:17:50Z</time></trkpt>
<trkpt lat="46.7968498729" lon="6.4882009942"><ele></ele><time>2014-4-28T16:17:53Z</time></trkpt>
<trkpt lat="46.7968498729" lon="6.4882009942"><ele></ele><time>2014-4-28T16:17:56Z</time></trkpt>
<trkpt lat="46.7968498729" lon="6.4882009942"><ele></ele><time>2014-4-28T16:17:59Z</time></trkpt>
<trkpt lat="46.7968498729" lon="6.4882012457"><ele></ele><time>2014-4-28T16:18:2Z</time></trkpt>
<trkpt lat="46.7968498729" lon="6.4882012457"><ele></ele><time>2014-4-28T16:18:5Z</time></trkpt>
<trkpt lat="46.7968514655" lon="6.4882040955"><ele></ele><time>2014-4-28T16:18:8Z</time></trkpt>
<trkpt lat="46.7968514655" lon="6.4882040955"><ele></ele><time>2014-4-28T16:18:11Z</time></trkpt>
<trkpt lat="46.7968514655" lon="6.4882040955"><ele></ele><time>2014-4-28T16:18:14Z</time></trkpt>
<trkpt lat="46.7968528904" lon="6.4882038441"><ele></ele><time>2014-4-28T16:18:17Z</time></trkpt>
<trkpt lat="46.7968528904" lon="6.4882038441"><ele></ele><time>2014-4-28T16:18:20Z</time></trkpt>
<trkpt lat="46.7968554050" lon="6.4882060234"><ele></ele><time>2014-4-28T16:18:23Z</time></trkpt>
<trkpt lat="46.7968554050" lon="6.4882060234"><ele></ele><time>2014-4-28T16:18:26Z</time></trkpt>
<trkpt lat="46.7968554050" lon="6.4882060234"><ele></ele><time>2014-4-28T16:18:29Z</time></trkpt>
<trkpt lat="46.7968573328" lon="6.4882096276"><ele></ele><time>2014-4-28T16:18:32Z</time></trkpt>
<trkpt lat="46.7968573328" lon="6.4882096276"><ele></ele><time>2014-4-28T16:18:35Z</time></trkpt>
<trkpt lat="46.7968603503" lon="6.4882216137"><ele></ele><time>2014-4-28T16:18:38Z</time></trkpt>
<trkpt lat="46.7968603503" lon="6.4882216137"><ele></ele><time>2014-4-28T16:18:41Z</time></trkpt>
<trkpt lat="46.7968605179" lon="6.4882222842"><ele></ele><time>2014-4-28T16:18:44Z</time></trkpt>
<trkpt lat="46.7968605179" lon="6.4882222842"><ele></ele><time>2014-4-28T16:18:47Z</time></trkpt>
<trkpt lat="46.7968605179" lon="6.4882222842"><ele></ele><time>2014-4-28T16:18:50Z</time></trkpt>
<trkpt lat="46.7968627810" lon="6.4882278163"><ele></ele><time>2014-4-28T16:18:53Z</time></trkpt>
<trkpt lat="46.7968627810" lon="6.4882278163"><ele></ele><time>2014-4-28T16:18:56Z</time></trkpt>
<trkpt lat="46.7968627810" lon="6.4882278163"><ele></ele><time>2014-4-28T16:18:59Z</time></trkpt>
<trkpt lat="46.7970320955" lon="6.4882852323"><ele></ele><time>2014-4-28T16:19:2Z</time></trkpt>
<trkpt lat="46.7970367055" lon="6.4882911835"><ele></ele><time>2014-4-28T16:19:5Z</time></trkpt>
<trkpt lat="46.7970839795" lon="6.4882952906"><ele></ele><time>2014-4-28T16:19:8Z</time></trkpt>
<trkpt lat="46.7972241249" lon="6.4882669598"><ele></ele><time>2014-4-28T16:19:11Z</time></trkpt>
<trkpt lat="46.7973929364" lon="6.4883781038"><ele></ele><time>2014-4-28T16:19:14Z</time></trkpt>
<trkpt lat="46.7975714710" lon="6.4886447322"><ele></ele><time>2014-4-28T16:19:17Z</time></trkpt>
<trkpt lat="46.7977666017" lon="6.4888598956"><ele></ele><time>2014-4-28T16:19:20Z</time></trkpt>
<trkpt lat="46.7978391051" lon="6.4889819361"><ele></ele><time>2014-4-28T16:19:23Z</time></trkpt>
<trkpt lat="46.7978911567" lon="6.4890452195"><ele></ele><time>2014-4-28T16:19:26Z</time></trkpt>
<trkpt lat="46.7979057413" lon="6.4890578762"><ele></ele><time>2014-4-28T16:19:29Z</time></trkpt>
<trkpt lat="46.7979458906" lon="6.4890988637"><ele></ele><time>2014-4-28T16:19:32Z</time></trkpt>
<trkpt lat="46.7981224973" lon="6.4893965051"><ele></ele><time>2014-4-28T16:19:35Z</time></trkpt>
<trkpt lat="46.7982249241" lon="6.4896224812"><ele></ele><time>2014-4-28T16:19:38Z</time></trkpt>
<trkpt lat="46.7982795741" lon="6.4897290990"><ele></ele><time>2014-4-28T16:19:41Z</time></trkpt>
<trkpt lat="46.7982987687" lon="6.4898340404"><ele></ele><time>2014-4-28T16:19:44Z</time></trkpt>
<trkpt lat="46.7983421870" lon="6.4899254031"><ele></ele><time>2014-4-28T16:19:47Z</time></trkpt>
<trkpt lat="46.7984143551" lon="6.4900928736"><ele></ele><time>2014-4-28T16:19:50Z</time></trkpt>
<trkpt lat="46.7984664068" lon="6.4902322646"><ele></ele><time>2014-4-28T16:19:53Z</time></trkpt>
<trkpt lat="46.7984664068" lon="6.4902322646"><ele></ele><time>2014-4-28T16:19:56Z</time></trkpt>
<trkpt lat="46.7984664068" lon="6.4902322646"><ele></ele><time>2014-4-28T16:19:59Z</time></trkpt>
<trkpt lat="46.7984710168" lon="6.4902374614"><ele></ele><time>2014-4-28T16:20:2Z</time></trkpt>
<trkpt lat="46.7985211406" lon="6.4904069435"><ele></ele><time>2014-4-28T16:20:5Z</time></trkpt>
<trkpt lat="46.7986065522" lon="6.4905602485"><ele></ele><time>2014-4-28T16:20:8Z</time></trkpt>
<trkpt lat="46.7986482102" lon="6.4907822851"><ele></ele><time>2014-4-28T16:20:11Z</time></trkpt>
<trkpt lat="46.7986584362" lon="6.4908593148"><ele></ele><time>2014-4-28T16:20:14Z</time></trkpt>
<trkpt lat="46.7986889463" lon="6.4909613226"><ele></ele><time>2014-4-28T16:20:17Z</time></trkpt>
<trkpt lat="46.7986979149" lon="6.4909783378"><ele></ele><time>2014-4-28T16:20:20Z</time></trkpt>
<trkpt lat="46.7988217156" lon="6.4911147114"><ele></ele><time>2014-4-28T16:20:23Z</time></trkpt>
<trkpt lat="46.7988217156" lon="6.4911147114"><ele></ele><time>2014-4-28T16:20:26Z</time></trkpt>
<trkpt lat="46.7988692410" lon="6.4911866281"><ele></ele><time>2014-4-28T16:20:29Z</time></trkpt>
<trkpt lat="46.7989468575" lon="6.4912737999"><ele></ele><time>2014-4-28T16:20:32Z</time></trkpt>
<trkpt lat="46.7989922874" lon="6.4913612232"><ele></ele><time>2014-4-28T16:20:35Z</time></trkpt>
<trkpt lat="46.7990378849" lon="6.4914468024"><ele></ele><time>2014-4-28T16:20:38Z</time></trkpt>
<trkpt lat="46.7991128191" lon="6.4916037954"><ele></ele><time>2014-4-28T16:20:41Z</time></trkpt>
<trkpt lat="46.7991591711" lon="6.4917462878"><ele></ele><time>2014-4-28T16:20:44Z</time></trkpt>
<trkpt lat="46.7991657928" lon="6.4917726908"><ele></ele><time>2014-4-28T16:20:47Z</time></trkpt>
<trkpt lat="46.7991732527" lon="6.4918099064"><ele></ele><time>2014-4-28T16:20:50Z</time></trkpt>
<trkpt lat="46.7992005777" lon="6.4918648079"><ele></ele><time>2014-4-28T16:20:53Z</time></trkpt>
<trkpt lat="46.7992567364" lon="6.4920118265"><ele></ele><time>2014-4-28T16:20:56Z</time></trkpt>
<trkpt lat="46.7992997356" lon="6.4920715895"><ele></ele><time>2014-4-28T16:20:59Z</time></trkpt>
<trkpt lat="46.7992997356" lon="6.4920715895"><ele></ele><time>2014-4-28T16:21:2Z</time></trkpt>
<trkpt lat="46.7993035913" lon="6.4920821507"><ele></ele><time>2014-4-28T16:21:5Z</time></trkpt>
<trkpt lat="46.7993035913" lon="6.4920821507"><ele></ele><time>2014-4-28T16:21:8Z</time></trkpt>
<trkpt lat="46.7993103806" lon="6.4920864254"><ele></ele><time>2014-4-28T16:21:11Z</time></trkpt>
<trkpt lat="46.7993103806" lon="6.4920864254"><ele></ele><time>2014-4-28T16:21:14Z</time></trkpt>
<trkpt lat="46.7993961275" lon="6.4923161734"><ele></ele><time>2014-4-28T16:21:17Z</time></trkpt>
<trkpt lat="46.7994929384" lon="6.4925704803"><ele></ele><time>2014-4-28T16:21:20Z</time></trkpt>
<trkpt lat="46.7995208502" lon="6.4928401262"><ele></ele><time>2014-4-28T16:21:23Z</time></trkpt>
<trkpt lat="46.7996593192" lon="6.4931410365"><ele></ele><time>2014-4-28T16:21:26Z</time></trkpt>
<trkpt lat="46.7997464910" lon="6.4932495821"><ele></ele><time>2014-4-28T16:21:29Z</time></trkpt>
<trkpt lat="46.7997757439" lon="6.4933126140"><ele></ele><time>2014-4-28T16:21:32Z</time></trkpt>
<trkpt lat="46.7998512648" lon="6.4934274461"><ele></ele><time>2014-4-28T16:21:35Z</time></trkpt>
<trkpt lat="46.7999499198" lon="6.4935387578"><ele></ele><time>2014-4-28T16:21:38Z</time></trkpt>
<trkpt lat="46.7999542784" lon="6.4935466368"><ele></ele><time>2014-4-28T16:21:41Z</time></trkpt>
<trkpt lat="46.7999635823" lon="6.4935659990"><ele></ele><time>2014-4-28T16:21:44Z</time></trkpt>
<trkpt lat="46.8000122812" lon="6.4936442859"><ele></ele><time>2014-4-28T16:21:47Z</time></trkpt>
<trkpt lat="46.8000200763" lon="6.4936564397"><ele></ele><time>2014-4-28T16:21:50Z</time></trkpt>
<trkpt lat="46.8001338188" lon="6.4938639756"><ele></ele><time>2014-4-28T16:21:53Z</time></trkpt>
<trkpt lat="46.8001691066" lon="6.4939690847"><ele></ele><time>2014-4-28T16:21:56Z</time></trkpt>
<trkpt lat="46.8001691066" lon="6.4939690847"><ele></ele><time>2014-4-28T16:21:59Z</time></trkpt>
<trkpt lat="46.8001865409" lon="6.4941516425"><ele></ele><time>2014-4-28T16:22:2Z</time></trkpt>
<trkpt lat="46.8001967669" lon="6.4942072984"><ele></ele><time>2014-4-28T16:22:5Z</time></trkpt>
<trkpt lat="46.8001967669" lon="6.4942072984"><ele></ele><time>2014-4-28T16:22:8Z</time></trkpt>
<trkpt lat="46.8002054840" lon="6.4942647144"><ele></ele><time>2014-4-28T16:22:11Z</time></trkpt>
<trkpt lat="46.8002478965" lon="6.4944360405"><ele></ele><time>2014-4-28T16:22:14Z</time></trkpt>
<trkpt lat="46.8002550211" lon="6.4944644552"><ele></ele><time>2014-4-28T16:22:17Z</time></trkpt>
<trkpt lat="46.8003217410" lon="6.4947362803"><ele></ele><time>2014-4-28T16:22:20Z</time></trkpt>
<trkpt lat="46.8003373314" lon="6.4947926067"><ele></ele><time>2014-4-28T16:22:23Z</time></trkpt>
<trkpt lat="46.8003943283" lon="6.4949457441"><ele></ele><time>2014-4-28T16:22:26Z</time></trkpt>
<trkpt lat="46.8005088251" lon="6.4952099416"><ele></ele><time>2014-4-28T16:22:29Z</time></trkpt>
<trkpt lat="46.8005910516" lon="6.4954176452"><ele></ele><time>2014-4-28T16:22:32Z</time></trkpt>
<trkpt lat="46.8006881978" lon="6.4957640693"><ele></ele><time>2014-4-28T16:22:35Z</time></trkpt>
<trkpt lat="46.8007296883" lon="6.4959157817"><ele></ele><time>2014-4-28T16:22:38Z</time></trkpt>
<trkpt lat="46.8007992581" lon="6.4961182885"><ele></ele><time>2014-4-28T16:22:41Z</time></trkpt>
<trkpt lat="46.8008544948" lon="6.4964699931"><ele></ele><time>2014-4-28T16:22:44Z</time></trkpt>
<trkpt lat="46.8008622900" lon="6.4965021797"><ele></ele><time>2014-4-28T16:22:47Z</time></trkpt>
<trkpt lat="46.8009000085" lon="6.4966807980"><ele></ele><time>2014-4-28T16:22:50Z</time></trkpt>
<trkpt lat="46.8009914551" lon="6.4969479293"><ele></ele><time>2014-4-28T16:22:53Z</time></trkpt>
<trkpt lat="46.8011050299" lon="6.4972682856"><ele></ele><time>2014-4-28T16:22:56Z</time></trkpt>
<trkpt lat="46.8011196982" lon="6.4973868895"><ele></ele><time>2014-4-28T16:22:59Z</time></trkpt>
<trkpt lat="46.8011430837" lon="6.4974411204"><ele></ele><time>2014-4-28T16:23:2Z</time></trkpt>
<trkpt lat="46.8012357876" lon="6.4976098482"><ele></ele><time>2014-4-28T16:23:5Z</time></trkpt>
<trkpt lat="46.8013016693" lon="6.4979260135"><ele></ele><time>2014-4-28T16:23:8Z</time></trkpt>
<trkpt lat="46.8012999929" lon="6.4979947452"><ele></ele><time>2014-4-28T16:23:11Z</time></trkpt>
<trkpt lat="46.8013106380" lon="6.4980507363"><ele></ele><time>2014-4-28T16:23:14Z</time></trkpt>
<trkpt lat="46.8014023360" lon="6.4983726852"><ele></ele><time>2014-4-28T16:23:17Z</time></trkpt>
<trkpt lat="46.8014012463" lon="6.4984294306"><ele></ele><time>2014-4-28T16:23:20Z</time></trkpt>
<trkpt lat="46.8015013263" lon="6.4986931253"><ele></ele><time>2014-4-28T16:23:23Z</time></trkpt>
<trkpt lat="46.8015347701" lon="6.4987712447"><ele></ele><time>2014-4-28T16:23:26Z</time></trkpt>
<trkpt lat="46.8015817925" lon="6.4988646191"><ele></ele><time>2014-4-28T16:23:29Z</time></trkpt>
<trkpt lat="46.8016455788" lon="6.4990395494"><ele></ele><time>2014-4-28T16:23:32Z</time></trkpt>
<trkpt lat="46.8017149810" lon="6.4991611708"><ele></ele><time>2014-4-28T16:23:35Z</time></trkpt>
<trkpt lat="46.8017866462" lon="6.4994029887"><ele></ele><time>2014-4-28T16:23:38Z</time></trkpt>
<trkpt lat="46.8018123787" lon="6.4994930942"><ele></ele><time>2014-4-28T16:23:41Z</time></trkpt>
<trkpt lat="46.8019053340" lon="6.4996648394"><ele></ele><time>2014-4-28T16:23:44Z</time></trkpt>
<trkpt lat="46.8019461539" lon="6.4997479040"><ele></ele><time>2014-4-28T16:23:47Z</time></trkpt>
<trkpt lat="46.8019772507" lon="6.4997784980"><ele></ele><time>2014-4-28T16:23:50Z</time></trkpt>
<trkpt lat="46.8020209204" lon="6.4998312201"><ele></ele><time>2014-4-28T16:23:53Z</time></trkpt>
<trkpt lat="46.8020511791" lon="6.4998725429"><ele></ele><time>2014-4-28T16:23:56Z</time></trkpt>
<trkpt lat="46.8020511791" lon="6.4998725429"><ele></ele><time>2014-4-28T16:23:59Z</time></trkpt>
<trkpt lat="46.8021191563" lon="6.5000273567"><ele></ele><time>2014-4-28T16:24:2Z</time></trkpt>
<trkpt lat="46.8021689449" lon="6.5001567733"><ele></ele><time>2014-4-28T16:24:5Z</time></trkpt>
<trkpt lat="46.8022307195" lon="6.5003173705"><ele></ele><time>2014-4-28T16:24:8Z</time></trkpt>
<trkpt lat="46.8022473995" lon="6.5003798157"><ele></ele><time>2014-4-28T16:24:11Z</time></trkpt>
<trkpt lat="46.8022580445" lon="6.5003973339"><ele></ele><time>2014-4-28T16:24:14Z</time></trkpt>
<trkpt lat="46.8022781610" lon="6.5004355554"><ele></ele><time>2014-4-28T16:24:17Z</time></trkpt>
<trkpt lat="46.8023712840" lon="6.5007842425"><ele></ele><time>2014-4-28T16:24:20Z</time></trkpt>
<trkpt lat="46.8023753073" lon="6.5008252300"><ele></ele><time>2014-4-28T16:24:23Z</time></trkpt>
<trkpt lat="46.8023643270" lon="6.5009906888"><ele></ele><time>2014-4-28T16:24:26Z</time></trkpt>
<trkpt lat="46.8023643270" lon="6.5009906888"><ele></ele><time>2014-4-28T16:24:29Z</time></trkpt>
<trkpt lat="46.8023643270" lon="6.5009906888"><ele></ele><time>2014-4-28T16:24:32Z</time></trkpt>
<trkpt lat="46.8024430331" lon="6.5011173394"><ele></ele><time>2014-4-28T16:24:35Z</time></trkpt>
<trkpt lat="46.8024757225" lon="6.5011802875"><ele></ele><time>2014-4-28T16:24:38Z</time></trkpt>
<trkpt lat="46.8025073223" lon="6.5013340116"><ele></ele><time>2014-4-28T16:24:41Z</time></trkpt>
<trkpt lat="46.8025146984" lon="6.5014496818"><ele></ele><time>2014-4-28T16:24:44Z</time></trkpt>
<trkpt lat="46.8025329709" lon="6.5014822036"><ele></ele><time>2014-4-28T16:24:47Z</time></trkpt>
<trkpt lat="46.8026255909" lon="6.5020113532"><ele></ele><time>2014-4-28T16:24:50Z</time></trkpt>
<trkpt lat="46.8026120123" lon="6.5025353059"><ele></ele><time>2014-4-28T16:24:53Z</time></trkpt>
<trkpt lat="46.8026398402" lon="6.5029273275"><ele></ele><time>2014-4-28T16:24:56Z</time></trkpt>
<trkpt lat="46.8026421871" lon="6.5031047724"><ele></ele><time>2014-4-28T16:24:59Z</time></trkpt>
<trkpt lat="46.8026379123" lon="6.5032667946"><ele></ele><time>2014-4-28T16:25:2Z</time></trkpt>
<trkpt lat="46.8026669975" lon="6.5034791920"><ele></ele><time>2014-4-28T16:25:5Z</time></trkpt>
<trkpt lat="46.8026669975" lon="6.5034791920"><ele></ele><time>2014-4-28T16:25:8Z</time></trkpt>
<trkpt lat="46.8026621360" lon="6.5035848878"><ele></ele><time>2014-4-28T16:25:11Z</time></trkpt>
<trkpt lat="46.8026621360" lon="6.5035848878"><ele></ele><time>2014-4-28T16:25:14Z</time></trkpt>
<trkpt lat="46.8026650697" lon="6.5036306530"><ele></ele><time>2014-4-28T16:25:17Z</time></trkpt>
<trkpt lat="46.8026638962" lon="6.5036543738"><ele></ele><time>2014-4-28T16:25:20Z</time></trkpt>
<trkpt lat="46.8026928138" lon="6.5037657693"><ele></ele><time>2014-4-28T16:25:23Z</time></trkpt>
<trkpt lat="46.8028249964" lon="6.5040869638"><ele></ele><time>2014-4-28T16:25:26Z</time></trkpt>
<trkpt lat="46.8029172812" lon="6.5044037998"><ele></ele><time>2014-4-28T16:25:29Z</time></trkpt>
<trkpt lat="46.8029425107" lon="6.5044690948"><ele></ele><time>2014-4-28T16:25:32Z</time></trkpt>
<trkpt lat="46.8029490486" lon="6.5044942405"><ele></ele><time>2014-4-28T16:25:35Z</time></trkpt>
<trkpt lat="46.8029490486" lon="6.5044942405"><ele></ele><time>2014-4-28T16:25:38Z</time></trkpt>
<trkpt lat="46.8029490486" lon="6.5044942405"><ele></ele><time>2014-4-28T16:25:41Z</time></trkpt>
<trkpt lat="46.8030455243" lon="6.5047006030"><ele></ele><time>2014-4-28T16:25:44Z</time></trkpt>
<trkpt lat="46.8031141721" lon="6.5049793851"><ele></ele><time>2014-4-28T16:25:47Z</time></trkpt>
<trkpt lat="46.8032052834" lon="6.5053983126"><ele></ele><time>2014-4-28T16:25:50Z</time></trkpt>
<trkpt lat="46.8032676447" lon="6.5055617597"><ele></ele><time>2014-4-28T16:25:53Z</time></trkpt>
<trkpt lat="46.8033905234" lon="6.5058136359"><ele></ele><time>2014-4-28T16:25:56Z</time></trkpt>
<trkpt lat="46.8035165034" lon="6.5062203258"><ele></ele><time>2014-4-28T16:25:59Z</time></trkpt>
<trkpt lat="46.8035450019" lon="6.5062868781"><ele></ele><time>2014-4-28T16:26:2Z</time></trkpt>
<trkpt lat="46.8037017435" lon="6.5067819972"><ele></ele><time>2014-4-28T16:26:5Z</time></trkpt>
<trkpt lat="46.8037076946" lon="6.5071345400"><ele></ele><time>2014-4-28T16:26:8Z</time></trkpt>
<trkpt lat="46.8036264740" lon="6.5074236318"><ele></ele><time>2014-4-28T16:26:11Z</time></trkpt>
<trkpt lat="46.8034465984" lon="6.5076201875"><ele></ele><time>2014-4-28T16:26:14Z</time></trkpt>
<trkpt lat="46.8031557463" lon="6.5079893265"><ele></ele><time>2014-4-28T16:26:17Z</time></trkpt>
<trkpt lat="46.8031269126" lon="6.5081137139"><ele></ele><time>2014-4-28T16:26:20Z</time></trkpt>
<trkpt lat="46.8030756991" lon="6.5085821785"><ele></ele><time>2014-4-28T16:26:23Z</time></trkpt>
<trkpt lat="46.8030949775" lon="6.5089435223"><ele></ele><time>2014-4-28T16:26:26Z</time></trkpt>
<trkpt lat="46.8031816464" lon="6.5092130005"><ele></ele><time>2014-4-28T16:26:29Z</time></trkpt>
<trkpt lat="46.8031818978" lon="6.5094053652"><ele></ele><time>2014-4-28T16:26:32Z</time></trkpt>
<trkpt lat="46.8032772001" lon="6.5098139830"><ele></ele><time>2014-4-28T16:26:35Z</time></trkpt>
<trkpt lat="46.8033728376" lon="6.5102226846"><ele></ele><time>2014-4-28T16:26:38Z</time></trkpt>
<trkpt lat="46.8034398090" lon="6.5105587989"><ele></ele><time>2014-4-28T16:26:41Z</time></trkpt>
<trkpt lat="46.8034956325" lon="6.5107236709"><ele></ele><time>2014-4-28T16:26:44Z</time></trkpt>
<trkpt lat="46.8035662081" lon="6.5109636448"><ele></ele><time>2014-4-28T16:26:47Z</time></trkpt>
<trkpt lat="46.8036038429" lon="6.5111721866"><ele></ele><time>2014-4-28T16:26:50Z</time></trkpt>
<trkpt lat="46.8035782780" lon="6.5113119129"><ele></ele><time>2014-4-28T16:26:53Z</time></trkpt>
<trkpt lat="46.8035841454" lon="6.5114234760"><ele></ele><time>2014-4-28T16:26:56Z</time></trkpt>
<trkpt lat="46.8035841454" lon="6.5114234760"><ele></ele><time>2014-4-28T16:26:59Z</time></trkpt>
<trkpt lat="46.8036247138" lon="6.5116424114"><ele></ele><time>2014-4-28T16:27:2Z</time></trkpt>
<trkpt lat="46.8035763502" lon="6.5118046012"><ele></ele><time>2014-4-28T16:27:5Z</time></trkpt>
<trkpt lat="46.8035558984" lon="6.5119978879"><ele></ele><time>2014-4-28T16:27:8Z</time></trkpt>
<trkpt lat="46.8035333510" lon="6.5120908432"><ele></ele><time>2014-4-28T16:27:11Z</time></trkpt>
<trkpt lat="46.8035823014" lon="6.5122799389"><ele></ele><time>2014-4-28T16:27:14Z</time></trkpt>
<trkpt lat="46.8036825489" lon="6.5124598984"><ele></ele><time>2014-4-28T16:27:17Z</time></trkpt>
<trkpt lat="46.8038864806" lon="6.5125935897"><ele></ele><time>2014-4-28T16:27:20Z</time></trkpt>
<trkpt lat="46.8042961881" lon="6.5127390157"><ele></ele><time>2014-4-28T16:27:23Z</time></trkpt>
<trkpt lat="46.8045376707" lon="6.5128711145"><ele></ele><time>2014-4-28T16:27:26Z</time></trkpt>
<trkpt lat="46.8047223240" lon="6.5129843540"><ele></ele><time>2014-4-28T16:27:29Z</time></trkpt>
<trkpt lat="46.8047758006" lon="6.5130113438"><ele></ele><time>2014-4-28T16:27:32Z</time></trkpt>
<trkpt lat="46.8047758006" lon="6.5130113438"><ele></ele><time>2014-4-28T16:27:35Z</time></trkpt>
<trkpt lat="46.8047758006" lon="6.5130113438"><ele></ele><time>2014-4-28T16:27:38Z</time></trkpt>
<trkpt lat="46.8048530817" lon="6.5131321270"><ele></ele><time>2014-4-28T16:27:41Z</time></trkpt>
<trkpt lat="46.8049309496" lon="6.5132625494"><ele></ele><time>2014-4-28T16:27:44Z</time></trkpt>
<trkpt lat="46.8049340509" lon="6.5133404173"><ele></ele><time>2014-4-28T16:27:47Z</time></trkpt>
<trkpt lat="46.8049495574" lon="6.5133581869"><ele></ele><time>2014-4-28T16:27:50Z</time></trkpt>
<trkpt lat="46.8049495574" lon="6.5133581869"><ele></ele><time>2014-4-28T16:27:53Z</time></trkpt>
<trkpt lat="46.8049742840" lon="6.5134088974"><ele></ele><time>2014-4-28T16:27:56Z</time></trkpt>
<trkpt lat="46.8049742840" lon="6.5134088974"><ele></ele><time>2014-4-28T16:27:59Z</time></trkpt>
<trkpt lat="46.8049742840" lon="6.5134088974"><ele></ele><time>2014-4-28T16:28:2Z</time></trkpt>
<trkpt lat="46.8049742840" lon="6.5134088974"><ele></ele><time>2014-4-28T16:28:5Z</time></trkpt>
<trkpt lat="46.8049776368" lon="6.5134066343"><ele></ele><time>2014-4-28T16:28:8Z</time></trkpt>
<trkpt lat="46.8049788941" lon="6.5134071372"><ele></ele><time>2014-4-28T16:28:11Z</time></trkpt>
<trkpt lat="46.8049801514" lon="6.5134064667"><ele></ele><time>2014-4-28T16:28:14Z</time></trkpt>
<trkpt lat="46.8049801514" lon="6.5134064667"><ele></ele><time>2014-4-28T16:28:17Z</time></trkpt>
<trkpt lat="46.8049815763" lon="6.5134057123"><ele></ele><time>2014-4-28T16:28:20Z</time></trkpt>
<trkpt lat="46.8049823307" lon="6.5134070534"><ele></ele><time>2014-4-28T16:28:23Z</time></trkpt>
<trkpt lat="46.8049823307" lon="6.5134070534"><ele></ele><time>2014-4-28T16:28:26Z</time></trkpt>
<trkpt lat="46.8049713504" lon="6.5134482086"><ele></ele><time>2014-4-28T16:28:29Z</time></trkpt>
<trkpt lat="46.8049713504" lon="6.5134482086"><ele></ele><time>2014-4-28T16:28:32Z</time></trkpt>
<trkpt lat="46.8049707636" lon="6.5134551656"><ele></ele><time>2014-4-28T16:28:35Z</time></trkpt>
<trkpt lat="46.8049702607" lon="6.5134601947"><ele></ele><time>2014-4-28T16:28:38Z</time></trkpt>
<trkpt lat="46.8049702607" lon="6.5134601947"><ele></ele><time>2014-4-28T16:28:41Z</time></trkpt>
<trkpt lat="46.8049735297" lon="6.5134639665"><ele></ele><time>2014-4-28T16:28:44Z</time></trkpt>
<trkpt lat="46.8049750384" lon="6.5134640504"><ele></ele><time>2014-4-28T16:28:47Z</time></trkpt>
<trkpt lat="46.8049782235" lon="6.5134669840"><ele></ele><time>2014-4-28T16:28:50Z</time></trkpt>
<trkpt lat="46.8049782235" lon="6.5134669840"><ele></ele><time>2014-4-28T16:28:53Z</time></trkpt>
<trkpt lat="46.8049848452" lon="6.5134806465"><ele></ele><time>2014-4-28T16:28:56Z</time></trkpt>
<trkpt lat="46.8049882818" lon="6.5134866815"><ele></ele><time>2014-4-28T16:28:59Z</time></trkpt>
<trkpt lat="46.8049882818" lon="6.5134866815"><ele></ele><time>2014-4-28T16:29:2Z</time></trkpt>
<trkpt lat="46.8049893714" lon="6.5134883579"><ele></ele><time>2014-4-28T16:29:5Z</time></trkpt>
<trkpt lat="46.8049894553" lon="6.5134898666"><ele></ele><time>2014-4-28T16:29:8Z</time></trkpt>
<trkpt lat="46.8049916346" lon="6.5134896990"><ele></ele><time>2014-4-28T16:29:11Z</time></trkpt>
<trkpt lat="46.8049916346" lon="6.5134896990"><ele></ele><time>2014-4-28T16:29:14Z</time></trkpt>
<trkpt lat="46.8049934786" lon="6.5134925488"><ele></ele><time>2014-4-28T16:29:17Z</time></trkpt>
<trkpt lat="46.8049940653" lon="6.5134908725"><ele></ele><time>2014-4-28T16:29:20Z</time></trkpt>
<trkpt lat="46.8049940653" lon="6.5134908725"><ele></ele><time>2014-4-28T16:29:23Z</time></trkpt>
<trkpt lat="46.8049930595" lon="6.5134882741"><ele></ele><time>2014-4-28T16:29:26Z</time></trkpt>
<trkpt lat="46.8049929757" lon="6.5134879388"><ele></ele><time>2014-4-28T16:29:29Z</time></trkpt>
<trkpt lat="46.8049929757" lon="6.5134879388"><ele></ele><time>2014-4-28T16:29:32Z</time></trkpt>
<trkpt lat="46.8049937300" lon="6.5134877712"><ele></ele><time>2014-4-28T16:29:35Z</time></trkpt>
<trkpt lat="46.8049907126" lon="6.5134896990"><ele></ele><time>2014-4-28T16:29:38Z</time></trkpt>
<trkpt lat="46.8049907126" lon="6.5134896990"><ele></ele><time>2014-4-28T16:29:41Z</time></trkpt>
<trkpt lat="46.8049888685" lon="6.5134933870"><ele></ele><time>2014-4-28T16:29:44Z</time></trkpt>
<trkpt lat="46.8049843423" lon="6.5134949796"><ele></ele><time>2014-4-28T16:29:47Z</time></trkpt>
<trkpt lat="46.8049819116" lon="6.5134933870"><ele></ele><time>2014-4-28T16:29:50Z</time></trkpt>
<trkpt lat="46.8049819116" lon="6.5134933870"><ele></ele><time>2014-4-28T16:29:53Z</time></trkpt>
<trkpt lat="46.8049813248" lon="6.5134933870"><ele></ele><time>2014-4-28T16:29:56Z</time></trkpt>
<trkpt lat="46.8049817439" lon="6.5134997573"><ele></ele><time>2014-4-28T16:29:59Z</time></trkpt>
<trkpt lat="46.8049816601" lon="6.5135020204"><ele></ele><time>2014-4-28T16:30:2Z</time></trkpt>
<trkpt lat="46.8049816601" lon="6.5135020204"><ele></ele><time>2014-4-28T16:30:5Z</time></trkpt>
<trkpt lat="46.8049815763" lon="6.5135026071"><ele></ele><time>2014-4-28T16:30:8Z</time></trkpt>
<trkpt lat="46.8049830012" lon="6.5135026071"><ele></ele><time>2014-4-28T16:30:11Z</time></trkpt>
<trkpt lat="46.8049809895" lon="6.5135016851"><ele></ele><time>2014-4-28T16:30:14Z</time></trkpt>
<trkpt lat="46.8049809895" lon="6.5135016851"><ele></ele><time>2014-4-28T16:30:17Z</time></trkpt>
<trkpt lat="46.8049795646" lon="6.5134985838"><ele></ele><time>2014-4-28T16:30:20Z</time></trkpt>
<trkpt lat="46.8049795646" lon="6.5134985838"><ele></ele><time>2014-4-28T16:30:23Z</time></trkpt>
<trkpt lat="46.8049788941" lon="6.5134973265"><ele></ele><time>2014-4-28T16:30:26Z</time></trkpt>
<trkpt lat="46.8049797323" lon="6.5134950634"><ele></ele><time>2014-4-28T16:30:29Z</time></trkpt>
<trkpt lat="46.8049797323" lon="6.5134950634"><ele></ele><time>2014-4-28T16:30:32Z</time></trkpt>
<trkpt lat="46.8049784750" lon="6.5134920459"><ele></ele><time>2014-4-28T16:30:35Z</time></trkpt>
<trkpt lat="46.8049773015" lon="6.5134921297"><ele></ele><time>2014-4-28T16:30:38Z</time></trkpt>
<trkpt lat="46.8049773015" lon="6.5134921297"><ele></ele><time>2014-4-28T16:30:41Z</time></trkpt>
<trkpt lat="46.8049765471" lon="6.5134912077"><ele></ele><time>2014-4-28T16:30:44Z</time></trkpt>
<trkpt lat="46.8049759604" lon="6.5134892799"><ele></ele><time>2014-4-28T16:30:47Z</time></trkpt>
<trkpt lat="46.8049759604" lon="6.5134892799"><ele></ele><time>2014-4-28T16:30:50Z</time></trkpt>
<trkpt lat="46.8049749546" lon="6.5134887770"><ele></ele><time>2014-4-28T16:30:53Z</time></trkpt>
<trkpt lat="46.8049736973" lon="6.5134878550"><ele></ele><time>2014-4-28T16:30:56Z</time></trkpt>
<trkpt lat="46.8049736973" lon="6.5134878550"><ele></ele><time>2014-4-28T16:30:59Z</time></trkpt>
<trkpt lat="46.8049749546" lon="6.5134845022"><ele></ele><time>2014-4-28T16:31:2Z</time></trkpt>
<trkpt lat="46.8049762957" lon="6.5134828258"><ele></ele><time>2014-4-28T16:31:5Z</time></trkpt>
<trkpt lat="46.8049776368" lon="6.5134850051"><ele></ele><time>2014-4-28T16:31:8Z</time></trkpt>
<trkpt lat="46.8049779721" lon="6.5134896152"><ele></ele><time>2014-4-28T16:31:11Z</time></trkpt>
<trkpt lat="46.8049779721" lon="6.5134896152"><ele></ele><time>2014-4-28T16:31:14Z</time></trkpt>
<trkpt lat="46.8049763795" lon="6.5134892799"><ele></ele><time>2014-4-28T16:31:17Z</time></trkpt>
<trkpt lat="46.8049763795" lon="6.5134892799"><ele></ele><time>2014-4-28T16:31:20Z</time></trkpt>
<trkpt lat="46.8049730267" lon="6.5134891961"><ele></ele><time>2014-4-28T16:31:23Z</time></trkpt>
<trkpt lat="46.8049722724" lon="6.5134924650"><ele></ele><time>2014-4-28T16:31:26Z</time></trkpt>
<trkpt lat="46.8049722724" lon="6.5134924650"><ele></ele><time>2014-4-28T16:31:29Z</time></trkpt>
<trkpt lat="46.8049728591" lon="6.5135000087"><ele></ele><time>2014-4-28T16:31:32Z</time></trkpt>
<trkpt lat="46.8049728591" lon="6.5135000087"><ele></ele><time>2014-4-28T16:31:35Z</time></trkpt>
<trkpt lat="46.8050003517" lon="6.5135867614"><ele></ele><time>2014-4-28T16:31:38Z</time></trkpt>
<trkpt lat="46.8050046265" lon="6.5135781281"><ele></ele><time>2014-4-28T16:31:41Z</time></trkpt>
<trkpt lat="46.8050056323" lon="6.5135484561"><ele></ele><time>2014-4-28T16:31:44Z</time></trkpt>
<trkpt lat="46.8050146010" lon="6.5135339554"><ele></ele><time>2014-4-28T16:31:47Z</time></trkpt>
<trkpt lat="46.8050146010" lon="6.5135339554"><ele></ele><time>2014-4-28T16:31:50Z</time></trkpt>
<trkpt lat="46.8050146010" lon="6.5135339554"><ele></ele><time>2014-4-28T16:31:53Z</time></trkpt>
<trkpt lat="46.8050264195" lon="6.5135206282"><ele></ele><time>2014-4-28T16:31:56Z</time></trkpt>
<trkpt lat="46.8050358910" lon="6.5136440098"><ele></ele><time>2014-4-28T16:31:59Z</time></trkpt>
<trkpt lat="46.8050158583" lon="6.5137340315"><ele></ele><time>2014-4-28T16:32:2Z</time></trkpt>
<trkpt lat="46.8049970828" lon="6.5138107259"><ele></ele><time>2014-4-28T16:32:5Z</time></trkpt>
<trkpt lat="46.8049621303" lon="6.5138367936"><ele></ele><time>2014-4-28T16:32:8Z</time></trkpt>
<trkpt lat="46.8049073126" lon="6.5139458422"><ele></ele><time>2014-4-28T16:32:11Z</time></trkpt>
<trkpt lat="46.8048792332" lon="6.5141047630"><ele></ele><time>2014-4-28T16:32:14Z</time></trkpt>
<trkpt lat="46.8047998566" lon="6.5142480098"><ele></ele><time>2014-4-28T16:32:17Z</time></trkpt>
<trkpt lat="46.8046376668" lon="6.5145915002"><ele></ele><time>2014-4-28T16:32:20Z</time></trkpt>
<trkpt lat="46.8045276124" lon="6.5148363356"><ele></ele><time>2014-4-28T16:32:23Z</time></trkpt>
<trkpt lat="46.8045254331" lon="6.5148535185"><ele></ele><time>2014-4-28T16:32:26Z</time></trkpt>
<trkpt lat="46.8044635747" lon="6.5149858687"><ele></ele><time>2014-4-28T16:32:29Z</time></trkpt>
<trkpt lat="46.8044323940" lon="6.5150433686"><ele></ele><time>2014-4-28T16:32:32Z</time></trkpt>
<trkpt lat="46.8043729663" lon="6.5151032992"><ele></ele><time>2014-4-28T16:32:35Z</time></trkpt>
<trkpt lat="46.8043505866" lon="6.5151731204"><ele></ele><time>2014-4-28T16:32:38Z</time></trkpt>
<trkpt lat="46.8043358345" lon="6.5152825043"><ele></ele><time>2014-4-28T16:32:41Z</time></trkpt>
<trkpt lat="46.8043209147" lon="6.5153561812"><ele></ele><time>2014-4-28T16:32:44Z</time></trkpt>
<trkpt lat="46.8043028936" lon="6.5154404193"><ele></ele><time>2014-4-28T16:32:47Z</time></trkpt>
<trkpt lat="46.8042811844" lon="6.5155542456"><ele></ele><time>2014-4-28T16:32:50Z</time></trkpt>
<trkpt lat="46.8042204995" lon="6.5157118253"><ele></ele><time>2014-4-28T16:32:53Z</time></trkpt>
<trkpt lat="46.8041494209" lon="6.5158049483"><ele></ele><time>2014-4-28T16:32:56Z</time></trkpt>
<trkpt lat="46.8041148875" lon="6.5158466063"><ele></ele><time>2014-4-28T16:32:59Z</time></trkpt>
<trkpt lat="46.8040744867" lon="6.5159569960"><ele></ele><time>2014-4-28T16:33:2Z</time></trkpt>
<trkpt lat="46.8040288892" lon="6.5160544775"><ele></ele><time>2014-4-28T16:33:5Z</time></trkpt>
<trkpt lat="46.8039545417" lon="6.5161267295"><ele></ele><time>2014-4-28T16:33:8Z</time></trkpt>
<trkpt lat="46.8038771767" lon="6.5162274800"><ele></ele><time>2014-4-28T16:33:11Z</time></trkpt>
<trkpt lat="46.8038614187" lon="6.5162557270"><ele></ele><time>2014-4-28T16:33:14Z</time></trkpt>
<trkpt lat="46.8038268015" lon="6.5163544659"><ele></ele><time>2014-4-28T16:33:17Z</time></trkpt>
<trkpt lat="46.8038283940" lon="6.5163884964"><ele></ele><time>2014-4-28T16:33:20Z</time></trkpt>
<trkpt lat="46.8037755042" lon="6.5164635144"><ele></ele><time>2014-4-28T16:33:23Z</time></trkpt>
<trkpt lat="46.8037393782" lon="6.5164915938"><ele></ele><time>2014-4-28T16:33:26Z</time></trkpt>
<trkpt lat="46.8036747538" lon="6.5165250376"><ele></ele><time>2014-4-28T16:33:29Z</time></trkpt>
<trkpt lat="46.8035449181" lon="6.5165313240"><ele></ele><time>2014-4-28T16:33:32Z</time></trkpt>
<trkpt lat="46.8034943752" lon="6.5166583098"><ele></ele><time>2014-4-28T16:33:35Z</time></trkpt>
<trkpt lat="46.8034764379" lon="6.5170647483"><ele></ele><time>2014-4-28T16:33:38Z</time></trkpt>
<trkpt lat="46.8035160005" lon="6.5172021277"><ele></ele><time>2014-4-28T16:33:41Z</time></trkpt>
<trkpt lat="46.8036077823" lon="6.5178451873"><ele></ele><time>2014-4-28T16:33:44Z</time></trkpt>
<trkpt lat="46.8036312517" lon="6.5185088664"><ele></ele><time>2014-4-28T16:33:47Z</time></trkpt>
<trkpt lat="46.8036527932" lon="6.5188200865"><ele></ele><time>2014-4-28T16:33:50Z</time></trkpt>
<trkpt lat="46.8036995642" lon="6.5190569591"><ele></ele><time>2014-4-28T16:33:53Z</time></trkpt>
<trkpt lat="46.8038392067" lon="6.5192486532"><ele></ele><time>2014-4-28T16:33:56Z</time></trkpt>
<trkpt lat="46.8040576391" lon="6.5194469690"><ele></ele><time>2014-4-28T16:33:59Z</time></trkpt>
<trkpt lat="46.8042406999" lon="6.5197242424"><ele></ele><time>2014-4-28T16:34:2Z</time></trkpt>
<trkpt lat="46.8044387642" lon="6.5199835785"><ele></ele><time>2014-4-28T16:34:5Z</time></trkpt>
<trkpt lat="46.8044779077" lon="6.5204473492"><ele></ele><time>2014-4-28T16:34:8Z</time></trkpt>
<trkpt lat="46.8045315519" lon="6.5207521990"><ele></ele><time>2014-4-28T16:34:11Z</time></trkpt>
<trkpt lat="46.8045317195" lon="6.5208061785"><ele></ele><time>2014-4-28T16:34:14Z</time></trkpt>
<trkpt lat="46.8045317195" lon="6.5208061785"><ele></ele><time>2014-4-28T16:34:17Z</time></trkpt>
<trkpt lat="46.8045317195" lon="6.5208061785"><ele></ele><time>2014-4-28T16:34:20Z</time></trkpt>
<trkpt lat="46.8044368364" lon="6.5211605653"><ele></ele><time>2014-4-28T16:34:23Z</time></trkpt>
<trkpt lat="46.8043050729" lon="6.5215043910"><ele></ele><time>2014-4-28T16:34:26Z</time></trkpt>
<trkpt lat="46.8042731378" lon="6.5216265991"><ele></ele><time>2014-4-28T16:34:29Z</time></trkpt>
<trkpt lat="46.8042679410" lon="6.5216362383"><ele></ele><time>2014-4-28T16:34:32Z</time></trkpt>
<trkpt lat="46.8042679410" lon="6.5216362383"><ele></ele><time>2014-4-28T16:34:35Z</time></trkpt>
<trkpt lat="46.8042593915" lon="6.5216663294"><ele></ele><time>2014-4-28T16:34:38Z</time></trkpt>
<trkpt lat="46.8042593915" lon="6.5216663294"><ele></ele><time>2014-4-28T16:34:41Z</time></trkpt>
<trkpt lat="46.8042563740" lon="6.5216800757"><ele></ele><time>2014-4-28T16:34:44Z</time></trkpt>
<trkpt lat="46.8041791767" lon="6.5216981806"><ele></ele><time>2014-4-28T16:34:47Z</time></trkpt>
<trkpt lat="46.8040478323" lon="6.5216973424"><ele></ele><time>2014-4-28T16:34:50Z</time></trkpt>
<trkpt lat="46.8039115425" lon="6.5216191392"><ele></ele><time>2014-4-28T16:34:53Z</time></trkpt>
<trkpt lat="46.8038352672" lon="6.5214349888"><ele></ele><time>2014-4-28T16:34:56Z</time></trkpt>
<trkpt lat="46.8037708942" lon="6.5213897265"><ele></ele><time>2014-4-28T16:34:59Z</time></trkpt>
<trkpt lat="46.8036230374" lon="6.5212893113"><ele></ele><time>2014-4-28T16:35:2Z</time></trkpt>
<trkpt lat="46.8035453372" lon="6.5211986192"><ele></ele><time>2014-4-28T16:35:5Z</time></trkpt>
<trkpt lat="46.8034828920" lon="6.5212014690"><ele></ele><time>2014-4-28T16:35:8Z</time></trkpt>
<trkpt lat="46.8033248931" lon="6.5212751459"><ele></ele><time>2014-4-28T16:35:11Z</time></trkpt>
<trkpt lat="46.8033384718" lon="6.5215851925"><ele></ele><time>2014-4-28T16:35:14Z</time></trkpt>
<trkpt lat="46.8033989891" lon="6.5219154395"><ele></ele><time>2014-4-28T16:35:17Z</time></trkpt>
<trkpt lat="46.8035447504" lon="6.5222654678"><ele></ele><time>2014-4-28T16:35:20Z</time></trkpt>
<trkpt lat="46.8035988975" lon="6.5223850776"><ele></ele><time>2014-4-28T16:35:23Z</time></trkpt>
<trkpt lat="46.8036167510" lon="6.5224382188"><ele></ele><time>2014-4-28T16:35:26Z</time></trkpt>
<trkpt lat="46.8036407232" lon="6.5226745047"><ele></ele><time>2014-4-28T16:35:29Z</time></trkpt>
<trkpt lat="46.8036343530" lon="6.5226906817"><ele></ele><time>2014-4-28T16:35:32Z</time></trkpt>
<trkpt lat="46.8036327604" lon="6.5227160789"><ele></ele><time>2014-4-28T16:35:35Z</time></trkpt>
<trkpt lat="46.8036069442" lon="6.5228085313"><ele></ele><time>2014-4-28T16:35:38Z</time></trkpt>
<trkpt lat="46.8036369514" lon="6.5230927616"><ele></ele><time>2014-4-28T16:35:41Z</time></trkpt>
<trkpt lat="46.8036482669" lon="6.5231310669"><ele></ele><time>2014-4-28T16:35:44Z</time></trkpt>
<trkpt lat="46.8037857302" lon="6.5234768204"><ele></ele><time>2014-4-28T16:35:47Z</time></trkpt>
<trkpt lat="46.8039099500" lon="6.5237768926"><ele></ele><time>2014-4-28T16:35:50Z</time></trkpt>
<trkpt lat="46.8039986305" lon="6.5240498912"><ele></ele><time>2014-4-28T16:35:53Z</time></trkpt>
<trkpt lat="46.8040569685" lon="6.5242534038"><ele></ele><time>2014-4-28T16:35:56Z</time></trkpt>
<trkpt lat="46.8040238600" lon="6.5245818067"><ele></ele><time>2014-4-28T16:35:59Z</time></trkpt>
<trkpt lat="46.8039765861" lon="6.5248620976"><ele></ele><time>2014-4-28T16:36:2Z</time></trkpt>
<trkpt lat="46.8039667793" lon="6.5249848086"><ele></ele><time>2014-4-28T16:36:5Z</time></trkpt>
<trkpt lat="46.8038710579" lon="6.5251754969"><ele></ele><time>2014-4-28T16:36:8Z</time></trkpt>
<trkpt lat="46.8035745062" lon="6.5254995413"><ele></ele><time>2014-4-28T16:36:11Z</time></trkpt>
<trkpt lat="46.8035745062" lon="6.5254995413"><ele></ele><time>2014-4-28T16:36:14Z</time></trkpt>
<trkpt lat="46.8035691418" lon="6.5255309734"><ele></ele><time>2014-4-28T16:36:17Z</time></trkpt>
<trkpt lat="46.8034383003" lon="6.5255919099"><ele></ele><time>2014-4-28T16:36:20Z</time></trkpt>
<trkpt lat="46.8032097258" lon="6.5256171394"><ele></ele><time>2014-4-28T16:36:23Z</time></trkpt>
<trkpt lat="46.8030517269" lon="6.5255884733"><ele></ele><time>2014-4-28T16:36:26Z</time></trkpt>
<trkpt lat="46.8028695881" lon="6.5254517645"><ele></ele><time>2014-4-28T16:36:29Z</time></trkpt>
<trkpt lat="46.8026555981" lon="6.5253598988"><ele></ele><time>2014-4-28T16:36:32Z</time></trkpt>
<trkpt lat="46.8023302127" lon="6.5252544545"><ele></ele><time>2014-4-28T16:36:35Z</time></trkpt>
<trkpt lat="46.8020604830" lon="6.5251040831"><ele></ele><time>2014-4-28T16:36:38Z</time></trkpt>
<trkpt lat="46.8018298969" lon="6.5249258000"><ele></ele><time>2014-4-28T16:36:41Z</time></trkpt>
<trkpt lat="46.8016875722" lon="6.5247310046"><ele></ele><time>2014-4-28T16:36:44Z</time></trkpt>
<trkpt lat="46.8014541361" lon="6.5245376341"><ele></ele><time>2014-4-28T16:36:47Z</time></trkpt>
<trkpt lat="46.8013783637" lon="6.5244977362"><ele></ele><time>2014-4-28T16:36:50Z</time></trkpt>
<trkpt lat="46.8012036849" lon="6.5243984107"><ele></ele><time>2014-4-28T16:36:53Z</time></trkpt>
<trkpt lat="46.8012196105" lon="6.5243931301"><ele></ele><time>2014-4-28T16:36:56Z</time></trkpt>
<trkpt lat="46.8012196105" lon="6.5243931301"><ele></ele><time>2014-4-28T16:36:59Z</time></trkpt>
<trkpt lat="46.8012289144" lon="6.5243860055"><ele></ele><time>2014-4-28T16:37:2Z</time></trkpt>
<trkpt lat="46.8012289144" lon="6.5243860055"><ele></ele><time>2014-4-28T16:37:5Z</time></trkpt>
<trkpt lat="46.8012343626" lon="6.5243851673"><ele></ele><time>2014-4-28T16:37:8Z</time></trkpt>
<trkpt lat="46.8012343626" lon="6.5243851673"><ele></ele><time>2014-4-28T16:37:11Z</time></trkpt>
<trkpt lat="46.8012377992" lon="6.5243772883"><ele></ele><time>2014-4-28T16:37:14Z</time></trkpt>
<trkpt lat="46.8011951353" lon="6.5243435092"><ele></ele><time>2014-4-28T16:37:17Z</time></trkpt>
<trkpt lat="46.8010811415" lon="6.5242373943"><ele></ele><time>2014-4-28T16:37:20Z</time></trkpt>
<trkpt lat="46.8009941373" lon="6.5240788087"><ele></ele><time>2014-4-28T16:37:23Z</time></trkpt>
<trkpt lat="46.8009324465" lon="6.5239544213"><ele></ele><time>2014-4-28T16:37:26Z</time></trkpt>
<trkpt lat="46.8002657499" lon="6.5234761499"><ele></ele><time>2014-4-28T16:37:29Z</time></trkpt>
<trkpt lat="46.8001519237" lon="6.5233407822"><ele></ele><time>2014-4-28T16:37:32Z</time></trkpt>
<trkpt lat="46.8001185637" lon="6.5233317297"><ele></ele><time>2014-4-28T16:37:35Z</time></trkpt>
<trkpt lat="46.8000665959" lon="6.5231732279"><ele></ele><time>2014-4-28T16:37:38Z</time></trkpt>
<trkpt lat="46.8000054918" lon="6.5228820406"><ele></ele><time>2014-4-28T16:37:41Z</time></trkpt>
<trkpt lat="46.7999667674" lon="6.5227146540"><ele></ele><time>2014-4-28T16:37:44Z</time></trkpt>
<trkpt lat="46.7999235168" lon="6.5226682182"><ele></ele><time>2014-4-28T16:37:47Z</time></trkpt>
<trkpt lat="46.7998194974" lon="6.5224596765"><ele></ele><time>2014-4-28T16:37:50Z</time></trkpt>
<trkpt lat="46.7996942718" lon="6.5221182816"><ele></ele><time>2014-4-28T16:37:53Z</time></trkpt>
<trkpt lat="46.7996316589" lon="6.5219980013"><ele></ele><time>2014-4-28T16:37:56Z</time></trkpt>
<trkpt lat="46.7995915934" lon="6.5218391642"><ele></ele><time>2014-4-28T16:37:59Z</time></trkpt>
<trkpt lat="46.7995524500" lon="6.5217769705"><ele></ele><time>2014-4-28T16:38:2Z</time></trkpt>
<trkpt lat="46.7995397933" lon="6.5217458736"><ele></ele><time>2014-4-28T16:38:5Z</time></trkpt>
<trkpt lat="46.7994972132" lon="6.5216505714"><ele></ele><time>2014-4-28T16:38:8Z</time></trkpt>
<trkpt lat="46.7994163278" lon="6.5215208195"><ele></ele><time>2014-4-28T16:38:11Z</time></trkpt>
<trkpt lat="46.7994163278" lon="6.5215208195"><ele></ele><time>2014-4-28T16:38:14Z</time></trkpt>
<trkpt lat="46.7993538827" lon="6.5215518326"><ele></ele><time>2014-4-28T16:38:17Z</time></trkpt>
<trkpt lat="46.7993538827" lon="6.5215518326"><ele></ele><time>2014-4-28T16:38:20Z</time></trkpt>
<trkpt lat="46.7993073631" lon="6.5215922333"><ele></ele><time>2014-4-28T16:38:23Z</time></trkpt>
<trkpt lat="46.7993032560" lon="6.5216030460"><ele></ele><time>2014-4-28T16:38:26Z</time></trkpt>
<trkpt lat="46.7992741708" lon="6.5216175467"><ele></ele><time>2014-4-28T16:38:29Z</time></trkpt>
<trkpt lat="46.7992304172" lon="6.5216077399"><ele></ele><time>2014-4-28T16:38:32Z</time></trkpt>
<trkpt lat="46.7992304172" lon="6.5216077399"><ele></ele><time>2014-4-28T16:38:35Z</time></trkpt>
<trkpt lat="46.7992237955" lon="6.5216145292"><ele></ele><time>2014-4-28T16:38:38Z</time></trkpt>
<trkpt lat="46.7990846559" lon="6.5214469749"><ele></ele><time>2014-4-28T16:38:41Z</time></trkpt>
<trkpt lat="46.7990904395" lon="6.5214628167"><ele></ele><time>2014-4-28T16:38:44Z</time></trkpt>
<trkpt lat="46.7989936285" lon="6.5212136228"><ele></ele><time>2014-4-28T16:38:47Z</time></trkpt>
<trkpt lat="46.7990067042" lon="6.5210802667"><ele></ele><time>2014-4-28T16:38:50Z</time></trkpt>
<trkpt lat="46.7989319377" lon="6.5208356827"><ele></ele><time>2014-4-28T16:38:53Z</time></trkpt>
<trkpt lat="46.7988128308" lon="6.5205206908"><ele></ele><time>2014-4-28T16:38:56Z</time></trkpt>
<trkpt lat="46.7986369785" lon="6.5200719237"><ele></ele><time>2014-4-28T16:38:59Z</time></trkpt>
<trkpt lat="46.7985535786" lon="6.5200366359"><ele></ele><time>2014-4-28T16:39:2Z</time></trkpt>
<trkpt lat="46.7988893576" lon="6.5194604639"><ele></ele><time>2014-4-28T16:39:5Z</time></trkpt>
<trkpt lat="46.7988114059" lon="6.5192590468"><ele></ele><time>2014-4-28T16:39:8Z</time></trkpt>
<trkpt lat="46.7987394053" lon="6.5190810990"><ele></ele><time>2014-4-28T16:39:11Z</time></trkpt>
<trkpt lat="46.7987026926" lon="6.5189015586"><ele></ele><time>2014-4-28T16:39:14Z</time></trkpt>
<trkpt lat="46.7985886987" lon="6.5184020810"><ele></ele><time>2014-4-28T16:39:17Z</time></trkpt>
<trkpt lat="46.7984847631" lon="6.5179702453"><ele></ele><time>2014-4-28T16:39:20Z</time></trkpt>
<trkpt lat="46.7984647304" lon="6.5179145895"><ele></ele><time>2014-4-28T16:39:23Z</time></trkpt>
<trkpt lat="46.7984321248" lon="6.5177244879"><ele></ele><time>2014-4-28T16:39:26Z</time></trkpt>
<trkpt lat="46.7983338889" lon="6.5171006229"><ele></ele><time>2014-4-28T16:39:29Z</time></trkpt>
<trkpt lat="46.7983021215" lon="6.5168257803"><ele></ele><time>2014-4-28T16:39:32Z</time></trkpt>
<trkpt lat="46.7982586194" lon="6.5163894184"><ele></ele><time>2014-4-28T16:39:35Z</time></trkpt>
<trkpt lat="46.7981240060" lon="6.5159749333"><ele></ele><time>2014-4-28T16:39:38Z</time></trkpt>
<trkpt lat="46.7980604712" lon="6.5158435050"><ele></ele><time>2014-4-28T16:39:41Z</time></trkpt>
<trkpt lat="46.7980604712" lon="6.5158435050"><ele></ele><time>2014-4-28T16:39:44Z</time></trkpt>
<trkpt lat="46.7980701104" lon="6.5158331953"><ele></ele><time>2014-4-28T16:39:47Z</time></trkpt>
<trkpt lat="46.7979981098" lon="6.5160266496"><ele></ele><time>2014-4-28T16:39:50Z</time></trkpt>
<trkpt lat="46.7977880593" lon="6.5161641967"><ele></ele><time>2014-4-28T16:39:53Z</time></trkpt>
<trkpt lat="46.7976365145" lon="6.5162096266"><ele></ele><time>2014-4-28T16:39:56Z</time></trkpt>
<trkpt lat="46.7976293061" lon="6.5161461756"><ele></ele><time>2014-4-28T16:39:59Z</time></trkpt>
<trkpt lat="46.7976224329" lon="6.5161375422"><ele></ele><time>2014-4-28T16:40:2Z</time></trkpt>
<trkpt lat="46.7976224329" lon="6.5161375422"><ele></ele><time>2014-4-28T16:40:5Z</time></trkpt>
<trkpt lat="46.7976353411" lon="6.5161303338"><ele></ele><time>2014-4-28T16:40:8Z</time></trkpt>
<trkpt lat="46.7976262886" lon="6.5162353590"><ele></ele><time>2014-4-28T16:40:11Z</time></trkpt>
<trkpt lat="46.7975813616" lon="6.5162030049"><ele></ele><time>2014-4-28T16:40:14Z</time></trkpt>
<trkpt lat="46.7975161504" lon="6.5161912702"><ele></ele><time>2014-4-28T16:40:17Z</time></trkpt>
<trkpt lat="46.7974692117" lon="6.5161916055"><ele></ele><time>2014-4-28T16:40:20Z</time></trkpt>
<trkpt lat="46.7974242009" lon="6.5161823854"><ele></ele><time>2014-4-28T16:40:23Z</time></trkpt>
<trkpt lat="46.7972689681" lon="6.5159170143"><ele></ele><time>2014-4-28T16:40:26Z</time></trkpt>
<trkpt lat="46.7970380466" lon="6.5156864282"><ele></ele><time>2014-4-28T16:40:29Z</time></trkpt>
<trkpt lat="46.7969771940" lon="6.5153094940"><ele></ele><time>2014-4-28T16:40:32Z</time></trkpt>
<trkpt lat="46.7969946284" lon="6.5152000263"><ele></ele><time>2014-4-28T16:40:35Z</time></trkpt>
<trkpt lat="46.7969946284" lon="6.5152000263"><ele></ele><time>2014-4-28T16:40:38Z</time></trkpt>
<trkpt lat="46.7969917785" lon="6.5151789878"><ele></ele><time>2014-4-28T16:40:41Z</time></trkpt>
<trkpt lat="46.7967766989" lon="6.5151504893"><ele></ele><time>2014-4-28T16:40:44Z</time></trkpt>
<trkpt lat="46.7965496331" lon="6.5152310394"><ele></ele><time>2014-4-28T16:40:47Z</time></trkpt>
<trkpt lat="46.7965318635" lon="6.5152491443"><ele></ele><time>2014-4-28T16:40:50Z</time></trkpt>
<trkpt lat="46.7964721005" lon="6.5152795706"><ele></ele><time>2014-4-28T16:40:53Z</time></trkpt>
<trkpt lat="46.7963682488" lon="6.5153155290"><ele></ele><time>2014-4-28T16:40:56Z</time></trkpt>
<trkpt lat="46.7962238286" lon="6.5153529961"><ele></ele><time>2014-4-28T16:40:59Z</time></trkpt>
<trkpt lat="46.7960239202" lon="6.5155805647"><ele></ele><time>2014-4-28T16:41:2Z</time></trkpt>
<trkpt lat="46.7959094234" lon="6.5157611109"><ele></ele><time>2014-4-28T16:41:5Z</time></trkpt>
<trkpt lat="46.7959060706" lon="6.5157693252"><ele></ele><time>2014-4-28T16:41:8Z</time></trkpt>
<trkpt lat="46.7959126085" lon="6.5158467740"><ele></ele><time>2014-4-28T16:41:11Z</time></trkpt>
<trkpt lat="46.7957904842" lon="6.5160359535"><ele></ele><time>2014-4-28T16:41:14Z</time></trkpt>
<trkpt lat="46.7956794240" lon="6.5163214412"><ele></ele><time>2014-4-28T16:41:17Z</time></trkpt>
<trkpt lat="46.7956677731" lon="6.5163812879"><ele></ele><time>2014-4-28T16:41:20Z</time></trkpt>
<trkpt lat="46.7955940124" lon="6.5166070964"><ele></ele><time>2014-4-28T16:41:23Z</time></trkpt>
<trkpt lat="46.7955750693" lon="6.5167695377"><ele></ele><time>2014-4-28T16:41:26Z</time></trkpt>
<trkpt lat="46.7954639252" lon="6.5171911474"><ele></ele><time>2014-4-28T16:41:29Z</time></trkpt>
<trkpt lat="46.7953021545" lon="6.5170805901"><ele></ele><time>2014-4-28T16:41:32Z</time></trkpt>
<trkpt lat="46.7952961195" lon="6.5169789176"><ele></ele><time>2014-4-28T16:41:35Z</time></trkpt>
<trkpt lat="46.7952933535" lon="6.5170350764"><ele></ele><time>2014-4-28T16:41:38Z</time></trkpt>
<trkpt lat="46.7952617537" lon="6.5171322227"><ele></ele><time>2014-4-28T16:41:41Z</time></trkpt>
<trkpt lat="46.7952617537" lon="6.5171322227"><ele></ele><time>2014-4-28T16:41:44Z</time></trkpt>
<trkpt lat="46.7951184232" lon="6.5172297880"><ele></ele><time>2014-4-28T16:41:47Z</time></trkpt>
<trkpt lat="46.7949594185" lon="6.5176057164"><ele></ele><time>2014-4-28T16:41:50Z</time></trkpt>
<trkpt lat="46.7948280741" lon="6.5179086383"><ele></ele><time>2014-4-28T16:41:53Z</time></trkpt>
<trkpt lat="46.7945797183" lon="6.5182134882"><ele></ele><time>2014-4-28T16:41:56Z</time></trkpt>
<trkpt lat="46.7944788001" lon="6.5182494465"><ele></ele><time>2014-4-28T16:41:59Z</time></trkpt>
<trkpt lat="46.7942200508" lon="6.5183402225"><ele></ele><time>2014-4-28T16:42:2Z</time></trkpt>
<trkpt lat="46.7936065793" lon="6.5184736624"><ele></ele><time>2014-4-28T16:42:5Z</time></trkpt>
<trkpt lat="46.7933346704" lon="6.5184881631"><ele></ele><time>2014-4-28T16:42:8Z</time></trkpt>
<trkpt lat="46.7930425610" lon="6.5185790230"><ele></ele><time>2014-4-28T16:42:11Z</time></trkpt>
<trkpt lat="46.7928960454" lon="6.5186811984"><ele></ele><time>2014-4-28T16:42:14Z</time></trkpt>
<trkpt lat="46.7925757729" lon="6.5194499027"><ele></ele><time>2014-4-28T16:42:17Z</time></trkpt>
<trkpt lat="46.7922650557" lon="6.5198910423"><ele></ele><time>2014-4-28T16:42:20Z</time></trkpt>
<trkpt lat="46.7921064701" lon="6.5200028569"><ele></ele><time>2014-4-28T16:42:23Z</time></trkpt>
<trkpt lat="46.7917823419" lon="6.5205802023"><ele></ele><time>2014-4-28T16:42:26Z</time></trkpt>
<trkpt lat="46.7914073355" lon="6.5213916544"><ele></ele><time>2014-4-28T16:42:29Z</time></trkpt>
<trkpt lat="46.7910859734" lon="6.5218892042"><ele></ele><time>2014-4-28T16:42:32Z</time></trkpt>
<trkpt lat="46.7907391302" lon="6.5227686334"><ele></ele><time>2014-4-28T16:42:35Z</time></trkpt>
<trkpt lat="46.7903321888" lon="6.5235463902"><ele></ele><time>2014-4-28T16:42:38Z</time></trkpt>
<trkpt lat="46.7901618686" lon="6.5239510685"><ele></ele><time>2014-4-28T16:42:41Z</time></trkpt>
<trkpt lat="46.7901167739" lon="6.5242973249"><ele></ele><time>2014-4-28T16:42:44Z</time></trkpt>
<trkpt lat="46.7900903709" lon="6.5247298311"><ele></ele><time>2014-4-28T16:42:47Z</time></trkpt>
<trkpt lat="46.7899854295" lon="6.5249169990"><ele></ele><time>2014-4-28T16:42:50Z</time></trkpt>
<trkpt lat="46.7899205536" lon="6.5249987226"><ele></ele><time>2014-4-28T16:42:53Z</time></trkpt>
<trkpt lat="46.7898005247" lon="6.5250066016"><ele></ele><time>2014-4-28T16:42:56Z</time></trkpt>
<trkpt lat="46.7897278536" lon="6.5250156540"><ele></ele><time>2014-4-28T16:42:59Z</time></trkpt>
<trkpt lat="46.7896960024" lon="6.5250091162"><ele></ele><time>2014-4-28T16:43:2Z</time></trkpt>
<trkpt lat="46.7896768078" lon="6.5250170790"><ele></ele><time>2014-4-28T16:43:5Z</time></trkpt>
<trkpt lat="46.7896721140" lon="6.5250185039"><ele></ele><time>2014-4-28T16:43:8Z</time></trkpt>
<trkpt lat="46.7896721140" lon="6.5250185039"><ele></ele><time>2014-4-28T16:43:11Z</time></trkpt>
</trkseg></trk></gpx>